<?xml version="1.0" encoding="UTF-8" standalone="no" ?>
<gpx xmlns="http://www.topografix.com/GPX/1/1" xmlns:xsi="http://www.w3.org/2001/XMLSchema-instance" xsi:schemaLocation="http://www.topografix.com/GPX/1/1 http://www.topografix.com/GPX/1/1/gpx.xsd" version="1.1" creator="VisuGPX - https://www.visugpx.com">
  <metadata>
    <name>RANDO LABEOURADOU</name>
    <desc><![CDATA[BEAU SOLEIL]]></desc>
  </metadata>
  <trk>
    <name><![CDATA[22-NOV-15 15:49:50]]></name>
    <trkseg>
      <trkpt lat="43.36306" lon="2.59098">
        <ele>340.92</ele>
        <time>2015-11-22T08:51:07Z</time>
      </trkpt>
      <trkpt lat="43.36307" lon="2.59101">
        <ele>339.48</ele>
        <time>2015-11-22T08:51:23Z</time>
      </trkpt>
      <trkpt lat="43.36307" lon="2.59098">
        <ele>339.48</ele>
        <time>2015-11-22T08:51:45Z</time>
      </trkpt>
      <trkpt lat="43.36307" lon="2.59098">
        <ele>340.44</ele>
        <time>2015-11-22T08:51:54Z</time>
      </trkpt>
      <trkpt lat="43.36306" lon="2.59096">
        <ele>340.44</ele>
        <time>2015-11-22T08:52:06Z</time>
      </trkpt>
      <trkpt lat="43.36309" lon="2.59098">
        <ele>339.96</ele>
        <time>2015-11-22T08:52:21Z</time>
      </trkpt>
      <trkpt lat="43.36311" lon="2.59098">
        <ele>340.44</ele>
        <time>2015-11-22T08:52:35Z</time>
      </trkpt>
      <trkpt lat="43.36309" lon="2.59097">
        <ele>339.48</ele>
        <time>2015-11-22T08:52:53Z</time>
      </trkpt>
      <trkpt lat="43.36309" lon="2.59097">
        <ele>339.48</ele>
        <time>2015-11-22T08:53:18Z</time>
      </trkpt>
      <trkpt lat="43.36301" lon="2.59106">
        <ele>340.44</ele>
        <time>2015-11-22T08:53:34Z</time>
      </trkpt>
      <trkpt lat="43.36296" lon="2.59114">
        <ele>341.41</ele>
        <time>2015-11-22T08:53:42Z</time>
      </trkpt>
      <trkpt lat="43.36283" lon="2.5914">
        <ele>341.89</ele>
        <time>2015-11-22T08:54:04Z</time>
      </trkpt>
      <trkpt lat="43.36272" lon="2.59158">
        <ele>340.92</ele>
        <time>2015-11-22T08:54:21Z</time>
      </trkpt>
      <trkpt lat="43.36268" lon="2.59161">
        <ele>340.92</ele>
        <time>2015-11-22T08:54:36Z</time>
      </trkpt>
      <trkpt lat="43.36268" lon="2.59144">
        <ele>343.81</ele>
        <time>2015-11-22T08:54:53Z</time>
      </trkpt>
      <trkpt lat="43.36268" lon="2.59126">
        <ele>344.77</ele>
        <time>2015-11-22T08:55:09Z</time>
      </trkpt>
      <trkpt lat="43.36259" lon="2.59125">
        <ele>347.17</ele>
        <time>2015-11-22T08:55:23Z</time>
      </trkpt>
      <trkpt lat="43.36254" lon="2.59129">
        <ele>348.13</ele>
        <time>2015-11-22T08:55:30Z</time>
      </trkpt>
      <trkpt lat="43.36235" lon="2.59142">
        <ele>350.54</ele>
        <time>2015-11-22T08:55:51Z</time>
      </trkpt>
      <trkpt lat="43.36231" lon="2.59144">
        <ele>350.06</ele>
        <time>2015-11-22T08:56:08Z</time>
      </trkpt>
      <trkpt lat="43.36219" lon="2.59148">
        <ele>349.58</ele>
        <time>2015-11-22T08:56:26Z</time>
      </trkpt>
      <trkpt lat="43.36212" lon="2.5915">
        <ele>349.1</ele>
        <time>2015-11-22T08:56:33Z</time>
      </trkpt>
      <trkpt lat="43.36196" lon="2.59157">
        <ele>348.13</ele>
        <time>2015-11-22T08:56:49Z</time>
      </trkpt>
      <trkpt lat="43.36191" lon="2.59156">
        <ele>348.13</ele>
        <time>2015-11-22T08:56:53Z</time>
      </trkpt>
      <trkpt lat="43.36183" lon="2.59133">
        <ele>352.94</ele>
        <time>2015-11-22T08:57:14Z</time>
      </trkpt>
      <trkpt lat="43.3617" lon="2.59116">
        <ele>353.9</ele>
        <time>2015-11-22T08:57:32Z</time>
      </trkpt>
      <trkpt lat="43.36159" lon="2.59099">
        <ele>357.27</ele>
        <time>2015-11-22T08:57:52Z</time>
      </trkpt>
      <trkpt lat="43.36146" lon="2.59083">
        <ele>360.15</ele>
        <time>2015-11-22T08:58:10Z</time>
      </trkpt>
      <trkpt lat="43.36131" lon="2.59071">
        <ele>363.52</ele>
        <time>2015-11-22T08:58:28Z</time>
      </trkpt>
      <trkpt lat="43.36117" lon="2.59064">
        <ele>366.4</ele>
        <time>2015-11-22T08:58:48Z</time>
      </trkpt>
      <trkpt lat="43.36102" lon="2.59069">
        <ele>370.24</ele>
        <time>2015-11-22T08:59:07Z</time>
      </trkpt>
      <trkpt lat="43.36086" lon="2.59082">
        <ele>373.61</ele>
        <time>2015-11-22T08:59:26Z</time>
      </trkpt>
      <trkpt lat="43.36081" lon="2.59087">
        <ele>374.09</ele>
        <time>2015-11-22T08:59:42Z</time>
      </trkpt>
      <trkpt lat="43.36079" lon="2.59085">
        <ele>373.61</ele>
        <time>2015-11-22T09:00:02Z</time>
      </trkpt>
      <trkpt lat="43.36077" lon="2.5907">
        <ele>376.01</ele>
        <time>2015-11-22T09:00:21Z</time>
      </trkpt>
      <trkpt lat="43.36078" lon="2.59056">
        <ele>376.97</ele>
        <time>2015-11-22T09:00:37Z</time>
      </trkpt>
      <trkpt lat="43.36078" lon="2.59039">
        <ele>378.42</ele>
        <time>2015-11-22T09:00:53Z</time>
      </trkpt>
      <trkpt lat="43.36082" lon="2.59026">
        <ele>382.74</ele>
        <time>2015-11-22T09:01:08Z</time>
      </trkpt>
      <trkpt lat="43.36087" lon="2.59011">
        <ele>386.11</ele>
        <time>2015-11-22T09:01:26Z</time>
      </trkpt>
      <trkpt lat="43.36094" lon="2.58994">
        <ele>389.47</ele>
        <time>2015-11-22T09:01:44Z</time>
      </trkpt>
      <trkpt lat="43.3609" lon="2.58979">
        <ele>392.36</ele>
        <time>2015-11-22T09:02:02Z</time>
      </trkpt>
      <trkpt lat="43.36079" lon="2.58971">
        <ele>393.8</ele>
        <time>2015-11-22T09:02:21Z</time>
      </trkpt>
      <trkpt lat="43.36069" lon="2.58963">
        <ele>395.72</ele>
        <time>2015-11-22T09:02:39Z</time>
      </trkpt>
      <trkpt lat="43.36059" lon="2.58951">
        <ele>398.12</ele>
        <time>2015-11-22T09:02:59Z</time>
      </trkpt>
      <trkpt lat="43.36051" lon="2.58937">
        <ele>400.05</ele>
        <time>2015-11-22T09:03:16Z</time>
      </trkpt>
      <trkpt lat="43.36043" lon="2.58922">
        <ele>400.53</ele>
        <time>2015-11-22T09:03:32Z</time>
      </trkpt>
      <trkpt lat="43.36034" lon="2.58904">
        <ele>401.01</ele>
        <time>2015-11-22T09:03:50Z</time>
      </trkpt>
      <trkpt lat="43.36022" lon="2.58886">
        <ele>402.45</ele>
        <time>2015-11-22T09:04:09Z</time>
      </trkpt>
      <trkpt lat="43.3601" lon="2.58872">
        <ele>403.89</ele>
        <time>2015-11-22T09:04:26Z</time>
      </trkpt>
      <trkpt lat="43.35999" lon="2.58856">
        <ele>404.85</ele>
        <time>2015-11-22T09:04:45Z</time>
      </trkpt>
      <trkpt lat="43.35991" lon="2.58844">
        <ele>407.74</ele>
        <time>2015-11-22T09:05:01Z</time>
      </trkpt>
      <trkpt lat="43.35982" lon="2.58831">
        <ele>410.62</ele>
        <time>2015-11-22T09:05:19Z</time>
      </trkpt>
      <trkpt lat="43.35974" lon="2.58815">
        <ele>413.02</ele>
        <time>2015-11-22T09:05:36Z</time>
      </trkpt>
      <trkpt lat="43.35967" lon="2.58798">
        <ele>413.98</ele>
        <time>2015-11-22T09:05:52Z</time>
      </trkpt>
      <trkpt lat="43.3596" lon="2.58777">
        <ele>414.95</ele>
        <time>2015-11-22T09:06:09Z</time>
      </trkpt>
      <trkpt lat="43.35955" lon="2.58763">
        <ele>417.35</ele>
        <time>2015-11-22T09:06:24Z</time>
      </trkpt>
      <trkpt lat="43.35954" lon="2.58758">
        <ele>417.83</ele>
        <time>2015-11-22T09:06:31Z</time>
      </trkpt>
      <trkpt lat="43.35955" lon="2.58757">
        <ele>418.31</ele>
        <time>2015-11-22T09:06:46Z</time>
      </trkpt>
      <trkpt lat="43.35955" lon="2.58757">
        <ele>418.31</ele>
        <time>2015-11-22T09:07:04Z</time>
      </trkpt>
      <trkpt lat="43.35953" lon="2.58751">
        <ele>418.31</ele>
        <time>2015-11-22T09:07:17Z</time>
      </trkpt>
      <trkpt lat="43.35949" lon="2.58737">
        <ele>418.79</ele>
        <time>2015-11-22T09:07:28Z</time>
      </trkpt>
      <trkpt lat="43.35946" lon="2.58718">
        <ele>418.79</ele>
        <time>2015-11-22T09:07:46Z</time>
      </trkpt>
      <trkpt lat="43.35942" lon="2.58701">
        <ele>417.83</ele>
        <time>2015-11-22T09:08:03Z</time>
      </trkpt>
      <trkpt lat="43.35936" lon="2.58676">
        <ele>416.39</ele>
        <time>2015-11-22T09:08:21Z</time>
      </trkpt>
      <trkpt lat="43.3593" lon="2.58655">
        <ele>413.98</ele>
        <time>2015-11-22T09:08:37Z</time>
      </trkpt>
      <trkpt lat="43.3593" lon="2.58627">
        <ele>413.02</ele>
        <time>2015-11-22T09:08:56Z</time>
      </trkpt>
      <trkpt lat="43.35922" lon="2.58604">
        <ele>413.5</ele>
        <time>2015-11-22T09:09:14Z</time>
      </trkpt>
      <trkpt lat="43.35907" lon="2.58593">
        <ele>414.47</ele>
        <time>2015-11-22T09:09:32Z</time>
      </trkpt>
      <trkpt lat="43.35896" lon="2.58584">
        <ele>416.87</ele>
        <time>2015-11-22T09:09:48Z</time>
      </trkpt>
      <trkpt lat="43.35886" lon="2.58577">
        <ele>418.31</ele>
        <time>2015-11-22T09:10:02Z</time>
      </trkpt>
      <trkpt lat="43.35868" lon="2.58571">
        <ele>419.27</ele>
        <time>2015-11-22T09:10:21Z</time>
      </trkpt>
      <trkpt lat="43.35849" lon="2.58566">
        <ele>421.19</ele>
        <time>2015-11-22T09:10:39Z</time>
      </trkpt>
      <trkpt lat="43.35834" lon="2.58559">
        <ele>423.6</ele>
        <time>2015-11-22T09:10:56Z</time>
      </trkpt>
      <trkpt lat="43.35833" lon="2.58556">
        <ele>425.52</ele>
        <time>2015-11-22T09:11:09Z</time>
      </trkpt>
      <trkpt lat="43.35843" lon="2.58556">
        <ele>428.4</ele>
        <time>2015-11-22T09:11:24Z</time>
      </trkpt>
      <trkpt lat="43.35849" lon="2.58553">
        <ele>430.33</ele>
        <time>2015-11-22T09:11:41Z</time>
      </trkpt>
      <trkpt lat="43.35846" lon="2.58547">
        <ele>431.29</ele>
        <time>2015-11-22T09:12:01Z</time>
      </trkpt>
      <trkpt lat="43.35832" lon="2.58542">
        <ele>433.21</ele>
        <time>2015-11-22T09:12:18Z</time>
      </trkpt>
      <trkpt lat="43.35814" lon="2.58538">
        <ele>433.69</ele>
        <time>2015-11-22T09:12:36Z</time>
      </trkpt>
      <trkpt lat="43.35797" lon="2.58539">
        <ele>434.17</ele>
        <time>2015-11-22T09:12:52Z</time>
      </trkpt>
      <trkpt lat="43.35778" lon="2.58542">
        <ele>434.17</ele>
        <time>2015-11-22T09:13:11Z</time>
      </trkpt>
      <trkpt lat="43.3576" lon="2.58547">
        <ele>435.13</ele>
        <time>2015-11-22T09:13:29Z</time>
      </trkpt>
      <trkpt lat="43.3574" lon="2.58551">
        <ele>437.06</ele>
        <time>2015-11-22T09:13:49Z</time>
      </trkpt>
      <trkpt lat="43.35722" lon="2.58551">
        <ele>438.5</ele>
        <time>2015-11-22T09:14:07Z</time>
      </trkpt>
      <trkpt lat="43.35712" lon="2.5855">
        <ele>438.5</ele>
        <time>2015-11-22T09:14:20Z</time>
      </trkpt>
      <trkpt lat="43.357" lon="2.58549">
        <ele>439.46</ele>
        <time>2015-11-22T09:14:36Z</time>
      </trkpt>
      <trkpt lat="43.35681" lon="2.58541">
        <ele>438.98</ele>
        <time>2015-11-22T09:14:56Z</time>
      </trkpt>
      <trkpt lat="43.35671" lon="2.58535">
        <ele>439.94</ele>
        <time>2015-11-22T09:15:07Z</time>
      </trkpt>
      <trkpt lat="43.35654" lon="2.58523">
        <ele>439.94</ele>
        <time>2015-11-22T09:15:25Z</time>
      </trkpt>
      <trkpt lat="43.35652" lon="2.58522">
        <ele>439.94</ele>
        <time>2015-11-22T09:15:27Z</time>
      </trkpt>
      <trkpt lat="43.35648" lon="2.58519">
        <ele>439.46</ele>
        <time>2015-11-22T09:15:31Z</time>
      </trkpt>
      <trkpt lat="43.35633" lon="2.58497">
        <ele>438.02</ele>
        <time>2015-11-22T09:15:51Z</time>
      </trkpt>
      <trkpt lat="43.35623" lon="2.58466">
        <ele>436.1</ele>
        <time>2015-11-22T09:16:14Z</time>
      </trkpt>
      <trkpt lat="43.35614" lon="2.58437">
        <ele>433.21</ele>
        <time>2015-11-22T09:16:35Z</time>
      </trkpt>
      <trkpt lat="43.356" lon="2.58415">
        <ele>430.81</ele>
        <time>2015-11-22T09:16:55Z</time>
      </trkpt>
      <trkpt lat="43.35585" lon="2.58395">
        <ele>430.33</ele>
        <time>2015-11-22T09:17:13Z</time>
      </trkpt>
      <trkpt lat="43.3557" lon="2.58371">
        <ele>428.4</ele>
        <time>2015-11-22T09:17:32Z</time>
      </trkpt>
      <trkpt lat="43.35557" lon="2.58354">
        <ele>426.96</ele>
        <time>2015-11-22T09:17:50Z</time>
      </trkpt>
      <trkpt lat="43.35547" lon="2.58326">
        <ele>425.04</ele>
        <time>2015-11-22T09:18:10Z</time>
      </trkpt>
      <trkpt lat="43.35544" lon="2.58307">
        <ele>426</ele>
        <time>2015-11-22T09:18:23Z</time>
      </trkpt>
      <trkpt lat="43.35554" lon="2.5828">
        <ele>427.44</ele>
        <time>2015-11-22T09:18:43Z</time>
      </trkpt>
      <trkpt lat="43.35562" lon="2.58257">
        <ele>428.4</ele>
        <time>2015-11-22T09:18:58Z</time>
      </trkpt>
      <trkpt lat="43.35575" lon="2.58233">
        <ele>428.89</ele>
        <time>2015-11-22T09:19:17Z</time>
      </trkpt>
      <trkpt lat="43.35585" lon="2.58216">
        <ele>428.89</ele>
        <time>2015-11-22T09:19:29Z</time>
      </trkpt>
      <trkpt lat="43.35584" lon="2.58208">
        <ele>428.89</ele>
        <time>2015-11-22T09:19:34Z</time>
      </trkpt>
      <trkpt lat="43.35566" lon="2.58198">
        <ele>430.81</ele>
        <time>2015-11-22T09:19:53Z</time>
      </trkpt>
      <trkpt lat="43.35553" lon="2.58183">
        <ele>431.77</ele>
        <time>2015-11-22T09:20:08Z</time>
      </trkpt>
      <trkpt lat="43.35551" lon="2.58165">
        <ele>431.77</ele>
        <time>2015-11-22T09:20:20Z</time>
      </trkpt>
      <trkpt lat="43.35549" lon="2.58158">
        <ele>431.29</ele>
        <time>2015-11-22T09:20:24Z</time>
      </trkpt>
      <trkpt lat="43.35549" lon="2.58153">
        <ele>431.29</ele>
        <time>2015-11-22T09:20:27Z</time>
      </trkpt>
      <trkpt lat="43.35546" lon="2.58151">
        <ele>431.77</ele>
        <time>2015-11-22T09:20:31Z</time>
      </trkpt>
      <trkpt lat="43.35534" lon="2.58159">
        <ele>426.96</ele>
        <time>2015-11-22T09:20:46Z</time>
      </trkpt>
      <trkpt lat="43.35526" lon="2.58172">
        <ele>423.6</ele>
        <time>2015-11-22T09:20:58Z</time>
      </trkpt>
      <trkpt lat="43.35514" lon="2.5819">
        <ele>421.19</ele>
        <time>2015-11-22T09:21:14Z</time>
      </trkpt>
      <trkpt lat="43.35497" lon="2.58206">
        <ele>419.27</ele>
        <time>2015-11-22T09:21:31Z</time>
      </trkpt>
      <trkpt lat="43.35492" lon="2.5821">
        <ele>418.79</ele>
        <time>2015-11-22T09:21:35Z</time>
      </trkpt>
      <trkpt lat="43.3547" lon="2.58224">
        <ele>420.23</ele>
        <time>2015-11-22T09:21:54Z</time>
      </trkpt>
      <trkpt lat="43.35453" lon="2.58225">
        <ele>422.64</ele>
        <time>2015-11-22T09:22:10Z</time>
      </trkpt>
      <trkpt lat="43.35432" lon="2.58222">
        <ele>425.52</ele>
        <time>2015-11-22T09:22:29Z</time>
      </trkpt>
      <trkpt lat="43.35417" lon="2.58221">
        <ele>427.92</ele>
        <time>2015-11-22T09:22:45Z</time>
      </trkpt>
      <trkpt lat="43.35398" lon="2.58223">
        <ele>428.89</ele>
        <time>2015-11-22T09:23:03Z</time>
      </trkpt>
      <trkpt lat="43.35378" lon="2.58226">
        <ele>430.33</ele>
        <time>2015-11-22T09:23:22Z</time>
      </trkpt>
      <trkpt lat="43.3536" lon="2.58222">
        <ele>433.69</ele>
        <time>2015-11-22T09:23:40Z</time>
      </trkpt>
      <trkpt lat="43.35357" lon="2.58216">
        <ele>434.17</ele>
        <time>2015-11-22T09:23:46Z</time>
      </trkpt>
      <trkpt lat="43.35354" lon="2.58206">
        <ele>434.17</ele>
        <time>2015-11-22T09:24:03Z</time>
      </trkpt>
      <trkpt lat="43.35354" lon="2.58201">
        <ele>434.17</ele>
        <time>2015-11-22T09:24:18Z</time>
      </trkpt>
      <trkpt lat="43.35351" lon="2.58183">
        <ele>432.73</ele>
        <time>2015-11-22T09:24:34Z</time>
      </trkpt>
      <trkpt lat="43.3535" lon="2.58181">
        <ele>432.73</ele>
        <time>2015-11-22T09:24:36Z</time>
      </trkpt>
      <trkpt lat="43.35338" lon="2.58165">
        <ele>432.73</ele>
        <time>2015-11-22T09:24:55Z</time>
      </trkpt>
      <trkpt lat="43.35337" lon="2.58165">
        <ele>433.21</ele>
        <time>2015-11-22T09:25:12Z</time>
      </trkpt>
      <trkpt lat="43.35338" lon="2.58164">
        <ele>434.17</ele>
        <time>2015-11-22T09:25:37Z</time>
      </trkpt>
      <trkpt lat="43.3534" lon="2.58164">
        <ele>435.61</ele>
        <time>2015-11-22T09:25:56Z</time>
      </trkpt>
      <trkpt lat="43.35335" lon="2.58163">
        <ele>434.65</ele>
        <time>2015-11-22T09:26:09Z</time>
      </trkpt>
      <trkpt lat="43.3533" lon="2.5816">
        <ele>433.69</ele>
        <time>2015-11-22T09:26:25Z</time>
      </trkpt>
      <trkpt lat="43.3533" lon="2.5816">
        <ele>433.21</ele>
        <time>2015-11-22T09:26:35Z</time>
      </trkpt>
      <trkpt lat="43.3533" lon="2.5816">
        <ele>432.25</ele>
        <time>2015-11-22T09:26:58Z</time>
      </trkpt>
      <trkpt lat="43.3533" lon="2.5816">
        <ele>432.25</ele>
        <time>2015-11-22T09:27:26Z</time>
      </trkpt>
      <trkpt lat="43.3533" lon="2.58159">
        <ele>432.73</ele>
        <time>2015-11-22T09:27:52Z</time>
      </trkpt>
      <trkpt lat="43.35323" lon="2.58152">
        <ele>434.17</ele>
        <time>2015-11-22T09:28:04Z</time>
      </trkpt>
      <trkpt lat="43.35321" lon="2.58148">
        <ele>434.17</ele>
        <time>2015-11-22T09:28:18Z</time>
      </trkpt>
      <trkpt lat="43.35322" lon="2.58148">
        <ele>433.21</ele>
        <time>2015-11-22T09:28:39Z</time>
      </trkpt>
      <trkpt lat="43.35321" lon="2.58142">
        <ele>433.21</ele>
        <time>2015-11-22T09:28:53Z</time>
      </trkpt>
      <trkpt lat="43.35319" lon="2.58135">
        <ele>433.69</ele>
        <time>2015-11-22T09:29:06Z</time>
      </trkpt>
      <trkpt lat="43.35318" lon="2.58132">
        <ele>434.17</ele>
        <time>2015-11-22T09:29:25Z</time>
      </trkpt>
      <trkpt lat="43.35315" lon="2.58122">
        <ele>435.61</ele>
        <time>2015-11-22T09:29:40Z</time>
      </trkpt>
      <trkpt lat="43.35315" lon="2.58121">
        <ele>435.61</ele>
        <time>2015-11-22T09:29:55Z</time>
      </trkpt>
      <trkpt lat="43.35316" lon="2.58116">
        <ele>436.1</ele>
        <time>2015-11-22T09:30:06Z</time>
      </trkpt>
      <trkpt lat="43.35317" lon="2.58112">
        <ele>435.61</ele>
        <time>2015-11-22T09:30:17Z</time>
      </trkpt>
      <trkpt lat="43.35322" lon="2.58102">
        <ele>436.58</ele>
        <time>2015-11-22T09:30:31Z</time>
      </trkpt>
      <trkpt lat="43.35332" lon="2.58093">
        <ele>438.5</ele>
        <time>2015-11-22T09:30:47Z</time>
      </trkpt>
      <trkpt lat="43.35338" lon="2.58082">
        <ele>441.38</ele>
        <time>2015-11-22T09:30:59Z</time>
      </trkpt>
      <trkpt lat="43.35341" lon="2.58059">
        <ele>440.42</ele>
        <time>2015-11-22T09:31:18Z</time>
      </trkpt>
      <trkpt lat="43.35341" lon="2.58053">
        <ele>439.94</ele>
        <time>2015-11-22T09:31:34Z</time>
      </trkpt>
      <trkpt lat="43.35343" lon="2.58047">
        <ele>439.94</ele>
        <time>2015-11-22T09:31:51Z</time>
      </trkpt>
      <trkpt lat="43.35348" lon="2.58034">
        <ele>440.9</ele>
        <time>2015-11-22T09:32:02Z</time>
      </trkpt>
      <trkpt lat="43.35358" lon="2.58011">
        <ele>442.34</ele>
        <time>2015-11-22T09:32:21Z</time>
      </trkpt>
      <trkpt lat="43.35366" lon="2.58">
        <ele>443.79</ele>
        <time>2015-11-22T09:32:35Z</time>
      </trkpt>
      <trkpt lat="43.35372" lon="2.57989">
        <ele>445.23</ele>
        <time>2015-11-22T09:32:48Z</time>
      </trkpt>
      <trkpt lat="43.35379" lon="2.57972">
        <ele>444.27</ele>
        <time>2015-11-22T09:33:04Z</time>
      </trkpt>
      <trkpt lat="43.35388" lon="2.57958">
        <ele>445.71</ele>
        <time>2015-11-22T09:33:19Z</time>
      </trkpt>
      <trkpt lat="43.35399" lon="2.57943">
        <ele>447.15</ele>
        <time>2015-11-22T09:33:37Z</time>
      </trkpt>
      <trkpt lat="43.3541" lon="2.57926">
        <ele>447.63</ele>
        <time>2015-11-22T09:33:54Z</time>
      </trkpt>
      <trkpt lat="43.3542" lon="2.57913">
        <ele>447.63</ele>
        <time>2015-11-22T09:34:09Z</time>
      </trkpt>
      <trkpt lat="43.3543" lon="2.57903">
        <ele>449.55</ele>
        <time>2015-11-22T09:34:23Z</time>
      </trkpt>
      <trkpt lat="43.35432" lon="2.579">
        <ele>449.55</ele>
        <time>2015-11-22T09:34:26Z</time>
      </trkpt>
      <trkpt lat="43.35444" lon="2.5789">
        <ele>450.03</ele>
        <time>2015-11-22T09:34:42Z</time>
      </trkpt>
      <trkpt lat="43.35447" lon="2.57882">
        <ele>448.11</ele>
        <time>2015-11-22T09:34:52Z</time>
      </trkpt>
      <trkpt lat="43.35458" lon="2.57867">
        <ele>447.15</ele>
        <time>2015-11-22T09:35:07Z</time>
      </trkpt>
      <trkpt lat="43.3547" lon="2.57853">
        <ele>447.15</ele>
        <time>2015-11-22T09:35:23Z</time>
      </trkpt>
      <trkpt lat="43.35471" lon="2.57836">
        <ele>447.15</ele>
        <time>2015-11-22T09:35:37Z</time>
      </trkpt>
      <trkpt lat="43.35469" lon="2.57825">
        <ele>446.67</ele>
        <time>2015-11-22T09:35:46Z</time>
      </trkpt>
      <trkpt lat="43.35469" lon="2.57819">
        <ele>446.67</ele>
        <time>2015-11-22T09:35:50Z</time>
      </trkpt>
      <trkpt lat="43.35469" lon="2.57814">
        <ele>447.63</ele>
        <time>2015-11-22T09:35:54Z</time>
      </trkpt>
      <trkpt lat="43.35466" lon="2.57799">
        <ele>449.07</ele>
        <time>2015-11-22T09:36:05Z</time>
      </trkpt>
      <trkpt lat="43.35467" lon="2.57796">
        <ele>449.55</ele>
        <time>2015-11-22T09:36:07Z</time>
      </trkpt>
      <trkpt lat="43.35466" lon="2.5778">
        <ele>450.52</ele>
        <time>2015-11-22T09:36:19Z</time>
      </trkpt>
      <trkpt lat="43.35464" lon="2.57775">
        <ele>450.52</ele>
        <time>2015-11-22T09:36:23Z</time>
      </trkpt>
      <trkpt lat="43.35464" lon="2.57759">
        <ele>451.48</ele>
        <time>2015-11-22T09:36:40Z</time>
      </trkpt>
      <trkpt lat="43.35465" lon="2.5775">
        <ele>453.4</ele>
        <time>2015-11-22T09:36:54Z</time>
      </trkpt>
      <trkpt lat="43.35466" lon="2.5775">
        <ele>453.88</ele>
        <time>2015-11-22T09:36:55Z</time>
      </trkpt>
      <trkpt lat="43.3547" lon="2.57741">
        <ele>454.84</ele>
        <time>2015-11-22T09:37:07Z</time>
      </trkpt>
      <trkpt lat="43.35473" lon="2.57736">
        <ele>455.32</ele>
        <time>2015-11-22T09:37:18Z</time>
      </trkpt>
      <trkpt lat="43.35475" lon="2.57723">
        <ele>455.8</ele>
        <time>2015-11-22T09:37:31Z</time>
      </trkpt>
      <trkpt lat="43.35484" lon="2.57717">
        <ele>459.17</ele>
        <time>2015-11-22T09:37:48Z</time>
      </trkpt>
      <trkpt lat="43.35492" lon="2.57716">
        <ele>463.01</ele>
        <time>2015-11-22T09:38:00Z</time>
      </trkpt>
      <trkpt lat="43.35499" lon="2.57715">
        <ele>465.42</ele>
        <time>2015-11-22T09:38:12Z</time>
      </trkpt>
      <trkpt lat="43.35505" lon="2.57714">
        <ele>468.3</ele>
        <time>2015-11-22T09:38:23Z</time>
      </trkpt>
      <trkpt lat="43.35505" lon="2.57705">
        <ele>471.66</ele>
        <time>2015-11-22T09:38:38Z</time>
      </trkpt>
      <trkpt lat="43.35501" lon="2.57695">
        <ele>474.55</ele>
        <time>2015-11-22T09:38:58Z</time>
      </trkpt>
      <trkpt lat="43.35494" lon="2.5769">
        <ele>475.99</ele>
        <time>2015-11-22T09:39:10Z</time>
      </trkpt>
      <trkpt lat="43.35489" lon="2.57686">
        <ele>477.91</ele>
        <time>2015-11-22T09:39:21Z</time>
      </trkpt>
      <trkpt lat="43.35487" lon="2.57686">
        <ele>478.39</ele>
        <time>2015-11-22T09:39:24Z</time>
      </trkpt>
      <trkpt lat="43.35477" lon="2.57681">
        <ele>480.8</ele>
        <time>2015-11-22T09:39:37Z</time>
      </trkpt>
      <trkpt lat="43.3547" lon="2.57677">
        <ele>482.24</ele>
        <time>2015-11-22T09:39:50Z</time>
      </trkpt>
      <trkpt lat="43.35467" lon="2.57672">
        <ele>482.72</ele>
        <time>2015-11-22T09:40:02Z</time>
      </trkpt>
      <trkpt lat="43.3546" lon="2.57665">
        <ele>484.64</ele>
        <time>2015-11-22T09:40:15Z</time>
      </trkpt>
      <trkpt lat="43.35452" lon="2.57659">
        <ele>485.6</ele>
        <time>2015-11-22T09:40:29Z</time>
      </trkpt>
      <trkpt lat="43.35447" lon="2.57654">
        <ele>486.08</ele>
        <time>2015-11-22T09:40:43Z</time>
      </trkpt>
      <trkpt lat="43.35446" lon="2.57654">
        <ele>484.16</ele>
        <time>2015-11-22T09:40:59Z</time>
      </trkpt>
      <trkpt lat="43.35445" lon="2.57652">
        <ele>483.68</ele>
        <time>2015-11-22T09:41:04Z</time>
      </trkpt>
      <trkpt lat="43.35436" lon="2.57638">
        <ele>479.84</ele>
        <time>2015-11-22T09:41:19Z</time>
      </trkpt>
      <trkpt lat="43.35426" lon="2.57632">
        <ele>475.51</ele>
        <time>2015-11-22T09:41:34Z</time>
      </trkpt>
      <trkpt lat="43.3542" lon="2.57626">
        <ele>470.7</ele>
        <time>2015-11-22T09:41:47Z</time>
      </trkpt>
      <trkpt lat="43.35412" lon="2.57618">
        <ele>466.86</ele>
        <time>2015-11-22T09:42:02Z</time>
      </trkpt>
      <trkpt lat="43.3541" lon="2.57615">
        <ele>467.34</ele>
        <time>2015-11-22T09:42:16Z</time>
      </trkpt>
      <trkpt lat="43.35402" lon="2.57607">
        <ele>466.38</ele>
        <time>2015-11-22T09:42:32Z</time>
      </trkpt>
      <trkpt lat="43.35396" lon="2.57602">
        <ele>465.42</ele>
        <time>2015-11-22T09:42:49Z</time>
      </trkpt>
      <trkpt lat="43.35392" lon="2.57598">
        <ele>463.97</ele>
        <time>2015-11-22T09:42:59Z</time>
      </trkpt>
      <trkpt lat="43.35379" lon="2.57586">
        <ele>462.05</ele>
        <time>2015-11-22T09:43:15Z</time>
      </trkpt>
      <trkpt lat="43.35367" lon="2.57575">
        <ele>461.09</ele>
        <time>2015-11-22T09:43:32Z</time>
      </trkpt>
      <trkpt lat="43.35357" lon="2.57565">
        <ele>460.13</ele>
        <time>2015-11-22T09:43:47Z</time>
      </trkpt>
      <trkpt lat="43.35349" lon="2.57557">
        <ele>458.69</ele>
        <time>2015-11-22T09:44:02Z</time>
      </trkpt>
      <trkpt lat="43.35341" lon="2.57556">
        <ele>455.8</ele>
        <time>2015-11-22T09:44:14Z</time>
      </trkpt>
      <trkpt lat="43.35333" lon="2.57546">
        <ele>454.36</ele>
        <time>2015-11-22T09:44:27Z</time>
      </trkpt>
      <trkpt lat="43.35326" lon="2.57534">
        <ele>452.44</ele>
        <time>2015-11-22T09:44:41Z</time>
      </trkpt>
      <trkpt lat="43.35325" lon="2.57532">
        <ele>452.44</ele>
        <time>2015-11-22T09:44:53Z</time>
      </trkpt>
      <trkpt lat="43.35323" lon="2.57529">
        <ele>451.48</ele>
        <time>2015-11-22T09:45:05Z</time>
      </trkpt>
      <trkpt lat="43.35323" lon="2.57527">
        <ele>450.03</ele>
        <time>2015-11-22T09:45:18Z</time>
      </trkpt>
      <trkpt lat="43.35323" lon="2.57524">
        <ele>448.59</ele>
        <time>2015-11-22T09:45:30Z</time>
      </trkpt>
      <trkpt lat="43.3532" lon="2.5752">
        <ele>448.11</ele>
        <time>2015-11-22T09:45:38Z</time>
      </trkpt>
      <trkpt lat="43.35312" lon="2.57512">
        <ele>447.15</ele>
        <time>2015-11-22T09:45:51Z</time>
      </trkpt>
      <trkpt lat="43.35301" lon="2.57503">
        <ele>445.23</ele>
        <time>2015-11-22T09:46:03Z</time>
      </trkpt>
      <trkpt lat="43.35291" lon="2.57501">
        <ele>442.34</ele>
        <time>2015-11-22T09:46:17Z</time>
      </trkpt>
      <trkpt lat="43.35288" lon="2.57493">
        <ele>442.34</ele>
        <time>2015-11-22T09:46:29Z</time>
      </trkpt>
      <trkpt lat="43.35286" lon="2.5749">
        <ele>440.42</ele>
        <time>2015-11-22T09:46:41Z</time>
      </trkpt>
      <trkpt lat="43.35288" lon="2.57488">
        <ele>439.94</ele>
        <time>2015-11-22T09:46:56Z</time>
      </trkpt>
      <trkpt lat="43.35291" lon="2.57482">
        <ele>438.5</ele>
        <time>2015-11-22T09:47:09Z</time>
      </trkpt>
      <trkpt lat="43.35298" lon="2.57477">
        <ele>435.61</ele>
        <time>2015-11-22T09:47:23Z</time>
      </trkpt>
      <trkpt lat="43.35303" lon="2.57469">
        <ele>432.25</ele>
        <time>2015-11-22T09:47:38Z</time>
      </trkpt>
      <trkpt lat="43.35308" lon="2.57461">
        <ele>429.85</ele>
        <time>2015-11-22T09:47:52Z</time>
      </trkpt>
      <trkpt lat="43.3531" lon="2.57453">
        <ele>428.89</ele>
        <time>2015-11-22T09:48:06Z</time>
      </trkpt>
      <trkpt lat="43.35307" lon="2.57451">
        <ele>428.4</ele>
        <time>2015-11-22T09:48:18Z</time>
      </trkpt>
      <trkpt lat="43.35308" lon="2.57447">
        <ele>426.48</ele>
        <time>2015-11-22T09:48:30Z</time>
      </trkpt>
      <trkpt lat="43.35305" lon="2.57433">
        <ele>422.64</ele>
        <time>2015-11-22T09:48:44Z</time>
      </trkpt>
      <trkpt lat="43.35294" lon="2.57418">
        <ele>423.12</ele>
        <time>2015-11-22T09:49:01Z</time>
      </trkpt>
      <trkpt lat="43.35286" lon="2.57408">
        <ele>426</ele>
        <time>2015-11-22T09:49:15Z</time>
      </trkpt>
      <trkpt lat="43.35277" lon="2.57399">
        <ele>428.4</ele>
        <time>2015-11-22T09:49:30Z</time>
      </trkpt>
      <trkpt lat="43.35272" lon="2.57396">
        <ele>429.85</ele>
        <time>2015-11-22T09:49:44Z</time>
      </trkpt>
      <trkpt lat="43.35272" lon="2.57395">
        <ele>430.33</ele>
        <time>2015-11-22T09:50:00Z</time>
      </trkpt>
      <trkpt lat="43.35272" lon="2.57395">
        <ele>430.33</ele>
        <time>2015-11-22T09:50:15Z</time>
      </trkpt>
      <trkpt lat="43.35272" lon="2.57395">
        <ele>430.81</ele>
        <time>2015-11-22T09:50:30Z</time>
      </trkpt>
      <trkpt lat="43.35272" lon="2.57394">
        <ele>431.29</ele>
        <time>2015-11-22T09:50:47Z</time>
      </trkpt>
      <trkpt lat="43.35268" lon="2.57392">
        <ele>431.29</ele>
        <time>2015-11-22T09:51:00Z</time>
      </trkpt>
      <trkpt lat="43.35263" lon="2.57384">
        <ele>432.73</ele>
        <time>2015-11-22T09:51:13Z</time>
      </trkpt>
      <trkpt lat="43.35259" lon="2.57378">
        <ele>434.65</ele>
        <time>2015-11-22T09:51:26Z</time>
      </trkpt>
      <trkpt lat="43.35256" lon="2.57373">
        <ele>438.02</ele>
        <time>2015-11-22T09:51:42Z</time>
      </trkpt>
      <trkpt lat="43.35253" lon="2.57367">
        <ele>440.9</ele>
        <time>2015-11-22T09:51:57Z</time>
      </trkpt>
      <trkpt lat="43.35252" lon="2.57358">
        <ele>444.75</ele>
        <time>2015-11-22T09:52:12Z</time>
      </trkpt>
      <trkpt lat="43.3525" lon="2.57351">
        <ele>446.67</ele>
        <time>2015-11-22T09:52:26Z</time>
      </trkpt>
      <trkpt lat="43.35248" lon="2.57348">
        <ele>448.11</ele>
        <time>2015-11-22T09:52:38Z</time>
      </trkpt>
      <trkpt lat="43.35246" lon="2.57343">
        <ele>448.59</ele>
        <time>2015-11-22T09:52:53Z</time>
      </trkpt>
      <trkpt lat="43.35242" lon="2.57334">
        <ele>450.03</ele>
        <time>2015-11-22T09:53:08Z</time>
      </trkpt>
      <trkpt lat="43.35239" lon="2.57328">
        <ele>451.96</ele>
        <time>2015-11-22T09:53:22Z</time>
      </trkpt>
      <trkpt lat="43.35234" lon="2.57323">
        <ele>454.84</ele>
        <time>2015-11-22T09:53:33Z</time>
      </trkpt>
      <trkpt lat="43.35227" lon="2.57315">
        <ele>456.76</ele>
        <time>2015-11-22T09:53:46Z</time>
      </trkpt>
      <trkpt lat="43.35221" lon="2.57311">
        <ele>456.28</ele>
        <time>2015-11-22T09:54:00Z</time>
      </trkpt>
      <trkpt lat="43.35216" lon="2.57304">
        <ele>455.8</ele>
        <time>2015-11-22T09:54:13Z</time>
      </trkpt>
      <trkpt lat="43.35213" lon="2.57295">
        <ele>456.28</ele>
        <time>2015-11-22T09:54:25Z</time>
      </trkpt>
      <trkpt lat="43.35208" lon="2.57281">
        <ele>454.36</ele>
        <time>2015-11-22T09:54:40Z</time>
      </trkpt>
      <trkpt lat="43.35203" lon="2.57266">
        <ele>453.4</ele>
        <time>2015-11-22T09:54:55Z</time>
      </trkpt>
      <trkpt lat="43.35197" lon="2.5725">
        <ele>451.96</ele>
        <time>2015-11-22T09:55:12Z</time>
      </trkpt>
      <trkpt lat="43.35197" lon="2.57239">
        <ele>453.4</ele>
        <time>2015-11-22T09:55:26Z</time>
      </trkpt>
      <trkpt lat="43.35192" lon="2.57238">
        <ele>453.88</ele>
        <time>2015-11-22T09:55:37Z</time>
      </trkpt>
      <trkpt lat="43.35185" lon="2.57226">
        <ele>454.84</ele>
        <time>2015-11-22T09:55:53Z</time>
      </trkpt>
      <trkpt lat="43.35181" lon="2.57219">
        <ele>456.28</ele>
        <time>2015-11-22T09:56:05Z</time>
      </trkpt>
      <trkpt lat="43.35176" lon="2.57215">
        <ele>457.72</ele>
        <time>2015-11-22T09:56:16Z</time>
      </trkpt>
      <trkpt lat="43.35172" lon="2.57204">
        <ele>458.21</ele>
        <time>2015-11-22T09:56:30Z</time>
      </trkpt>
      <trkpt lat="43.35169" lon="2.57196">
        <ele>459.17</ele>
        <time>2015-11-22T09:56:42Z</time>
      </trkpt>
      <trkpt lat="43.35165" lon="2.57186">
        <ele>459.65</ele>
        <time>2015-11-22T09:56:54Z</time>
      </trkpt>
      <trkpt lat="43.35164" lon="2.57176">
        <ele>460.61</ele>
        <time>2015-11-22T09:57:06Z</time>
      </trkpt>
      <trkpt lat="43.35159" lon="2.57166">
        <ele>463.01</ele>
        <time>2015-11-22T09:57:19Z</time>
      </trkpt>
      <trkpt lat="43.35156" lon="2.57152">
        <ele>464.93</ele>
        <time>2015-11-22T09:57:33Z</time>
      </trkpt>
      <trkpt lat="43.35155" lon="2.5714">
        <ele>466.38</ele>
        <time>2015-11-22T09:57:46Z</time>
      </trkpt>
      <trkpt lat="43.35153" lon="2.5713">
        <ele>467.82</ele>
        <time>2015-11-22T09:57:58Z</time>
      </trkpt>
      <trkpt lat="43.35147" lon="2.57119">
        <ele>468.3</ele>
        <time>2015-11-22T09:58:12Z</time>
      </trkpt>
      <trkpt lat="43.35143" lon="2.5711">
        <ele>468.78</ele>
        <time>2015-11-22T09:58:26Z</time>
      </trkpt>
      <trkpt lat="43.35142" lon="2.57101">
        <ele>470.22</ele>
        <time>2015-11-22T09:58:38Z</time>
      </trkpt>
      <trkpt lat="43.35141" lon="2.57089">
        <ele>472.63</ele>
        <time>2015-11-22T09:58:50Z</time>
      </trkpt>
      <trkpt lat="43.35137" lon="2.57076">
        <ele>475.03</ele>
        <time>2015-11-22T09:59:04Z</time>
      </trkpt>
      <trkpt lat="43.35132" lon="2.57059">
        <ele>476.47</ele>
        <time>2015-11-22T09:59:20Z</time>
      </trkpt>
      <trkpt lat="43.35129" lon="2.57039">
        <ele>476.95</ele>
        <time>2015-11-22T09:59:36Z</time>
      </trkpt>
      <trkpt lat="43.35127" lon="2.57026">
        <ele>478.39</ele>
        <time>2015-11-22T09:59:49Z</time>
      </trkpt>
      <trkpt lat="43.35125" lon="2.57004">
        <ele>479.84</ele>
        <time>2015-11-22T10:00:05Z</time>
      </trkpt>
      <trkpt lat="43.3512" lon="2.56982">
        <ele>478.87</ele>
        <time>2015-11-22T10:00:21Z</time>
      </trkpt>
      <trkpt lat="43.3512" lon="2.56962">
        <ele>479.35</ele>
        <time>2015-11-22T10:00:37Z</time>
      </trkpt>
      <trkpt lat="43.35114" lon="2.56945">
        <ele>478.39</ele>
        <time>2015-11-22T10:00:51Z</time>
      </trkpt>
      <trkpt lat="43.35112" lon="2.56941">
        <ele>478.39</ele>
        <time>2015-11-22T10:00:54Z</time>
      </trkpt>
      <trkpt lat="43.3511" lon="2.56916">
        <ele>480.8</ele>
        <time>2015-11-22T10:01:12Z</time>
      </trkpt>
      <trkpt lat="43.35105" lon="2.569">
        <ele>481.76</ele>
        <time>2015-11-22T10:01:26Z</time>
      </trkpt>
      <trkpt lat="43.35101" lon="2.56876">
        <ele>483.2</ele>
        <time>2015-11-22T10:01:44Z</time>
      </trkpt>
      <trkpt lat="43.35098" lon="2.56864">
        <ele>484.16</ele>
        <time>2015-11-22T10:01:53Z</time>
      </trkpt>
      <trkpt lat="43.35088" lon="2.5684">
        <ele>483.2</ele>
        <time>2015-11-22T10:02:09Z</time>
      </trkpt>
      <trkpt lat="43.35074" lon="2.56825">
        <ele>481.28</ele>
        <time>2015-11-22T10:02:27Z</time>
      </trkpt>
      <trkpt lat="43.35065" lon="2.56823">
        <ele>479.84</ele>
        <time>2015-11-22T10:02:35Z</time>
      </trkpt>
      <trkpt lat="43.35049" lon="2.56817">
        <ele>474.55</ele>
        <time>2015-11-22T10:02:52Z</time>
      </trkpt>
      <trkpt lat="43.35033" lon="2.56813">
        <ele>471.18</ele>
        <time>2015-11-22T10:03:09Z</time>
      </trkpt>
      <trkpt lat="43.3502" lon="2.56813">
        <ele>468.3</ele>
        <time>2015-11-22T10:03:25Z</time>
      </trkpt>
      <trkpt lat="43.35002" lon="2.56821">
        <ele>465.9</ele>
        <time>2015-11-22T10:03:43Z</time>
      </trkpt>
      <trkpt lat="43.34997" lon="2.56821">
        <ele>464.93</ele>
        <time>2015-11-22T10:03:56Z</time>
      </trkpt>
      <trkpt lat="43.34993" lon="2.56822">
        <ele>464.93</ele>
        <time>2015-11-22T10:04:09Z</time>
      </trkpt>
      <trkpt lat="43.34995" lon="2.56824">
        <ele>464.45</ele>
        <time>2015-11-22T10:04:26Z</time>
      </trkpt>
      <trkpt lat="43.34995" lon="2.56824">
        <ele>464.93</ele>
        <time>2015-11-22T10:04:48Z</time>
      </trkpt>
      <trkpt lat="43.34995" lon="2.56825">
        <ele>464.45</ele>
        <time>2015-11-22T10:05:09Z</time>
      </trkpt>
      <trkpt lat="43.34995" lon="2.56826">
        <ele>464.93</ele>
        <time>2015-11-22T10:05:24Z</time>
      </trkpt>
      <trkpt lat="43.34996" lon="2.56826">
        <ele>465.9</ele>
        <time>2015-11-22T10:05:48Z</time>
      </trkpt>
      <trkpt lat="43.34997" lon="2.56825">
        <ele>465.9</ele>
        <time>2015-11-22T10:06:21Z</time>
      </trkpt>
      <trkpt lat="43.34997" lon="2.56826">
        <ele>466.86</ele>
        <time>2015-11-22T10:06:50Z</time>
      </trkpt>
      <trkpt lat="43.34995" lon="2.56829">
        <ele>466.86</ele>
        <time>2015-11-22T10:07:06Z</time>
      </trkpt>
      <trkpt lat="43.34983" lon="2.56831">
        <ele>465.9</ele>
        <time>2015-11-22T10:07:21Z</time>
      </trkpt>
      <trkpt lat="43.34982" lon="2.56831">
        <ele>465.9</ele>
        <time>2015-11-22T10:07:22Z</time>
      </trkpt>
      <trkpt lat="43.34974" lon="2.56828">
        <ele>464.93</ele>
        <time>2015-11-22T10:07:31Z</time>
      </trkpt>
      <trkpt lat="43.34961" lon="2.56827">
        <ele>465.9</ele>
        <time>2015-11-22T10:07:44Z</time>
      </trkpt>
      <trkpt lat="43.34948" lon="2.56825">
        <ele>463.97</ele>
        <time>2015-11-22T10:08:01Z</time>
      </trkpt>
      <trkpt lat="43.34941" lon="2.56813">
        <ele>462.05</ele>
        <time>2015-11-22T10:08:14Z</time>
      </trkpt>
      <trkpt lat="43.34932" lon="2.56809">
        <ele>460.61</ele>
        <time>2015-11-22T10:08:29Z</time>
      </trkpt>
      <trkpt lat="43.34924" lon="2.56806">
        <ele>457.24</ele>
        <time>2015-11-22T10:08:41Z</time>
      </trkpt>
      <trkpt lat="43.34916" lon="2.56803">
        <ele>454.36</ele>
        <time>2015-11-22T10:08:55Z</time>
      </trkpt>
      <trkpt lat="43.34908" lon="2.56792">
        <ele>451</ele>
        <time>2015-11-22T10:09:10Z</time>
      </trkpt>
      <trkpt lat="43.34901" lon="2.56783">
        <ele>447.15</ele>
        <time>2015-11-22T10:09:24Z</time>
      </trkpt>
      <trkpt lat="43.34899" lon="2.5677">
        <ele>444.75</ele>
        <time>2015-11-22T10:09:39Z</time>
      </trkpt>
      <trkpt lat="43.34897" lon="2.56764">
        <ele>443.79</ele>
        <time>2015-11-22T10:09:52Z</time>
      </trkpt>
      <trkpt lat="43.34889" lon="2.56771">
        <ele>441.38</ele>
        <time>2015-11-22T10:10:06Z</time>
      </trkpt>
      <trkpt lat="43.34882" lon="2.56771">
        <ele>438.98</ele>
        <time>2015-11-22T10:10:19Z</time>
      </trkpt>
      <trkpt lat="43.34876" lon="2.56772">
        <ele>435.61</ele>
        <time>2015-11-22T10:10:36Z</time>
      </trkpt>
      <trkpt lat="43.34869" lon="2.56774">
        <ele>434.65</ele>
        <time>2015-11-22T10:10:46Z</time>
      </trkpt>
      <trkpt lat="43.34862" lon="2.56777">
        <ele>434.17</ele>
        <time>2015-11-22T10:10:59Z</time>
      </trkpt>
      <trkpt lat="43.34856" lon="2.56779">
        <ele>432.73</ele>
        <time>2015-11-22T10:11:11Z</time>
      </trkpt>
      <trkpt lat="43.34854" lon="2.56773">
        <ele>433.21</ele>
        <time>2015-11-22T10:11:23Z</time>
      </trkpt>
      <trkpt lat="43.34851" lon="2.56771">
        <ele>431.29</ele>
        <time>2015-11-22T10:11:35Z</time>
      </trkpt>
      <trkpt lat="43.34846" lon="2.56765">
        <ele>427.44</ele>
        <time>2015-11-22T10:11:48Z</time>
      </trkpt>
      <trkpt lat="43.3484" lon="2.56758">
        <ele>425.04</ele>
        <time>2015-11-22T10:12:02Z</time>
      </trkpt>
      <trkpt lat="43.34836" lon="2.56754">
        <ele>423.12</ele>
        <time>2015-11-22T10:12:16Z</time>
      </trkpt>
      <trkpt lat="43.34833" lon="2.56756">
        <ele>420.71</ele>
        <time>2015-11-22T10:12:28Z</time>
      </trkpt>
      <trkpt lat="43.34829" lon="2.56754">
        <ele>417.83</ele>
        <time>2015-11-22T10:12:42Z</time>
      </trkpt>
      <trkpt lat="43.34828" lon="2.5675">
        <ele>415.91</ele>
        <time>2015-11-22T10:12:55Z</time>
      </trkpt>
      <trkpt lat="43.34826" lon="2.56746">
        <ele>413.98</ele>
        <time>2015-11-22T10:13:07Z</time>
      </trkpt>
      <trkpt lat="43.34822" lon="2.56738">
        <ele>410.62</ele>
        <time>2015-11-22T10:13:23Z</time>
      </trkpt>
      <trkpt lat="43.34824" lon="2.5673">
        <ele>408.7</ele>
        <time>2015-11-22T10:13:37Z</time>
      </trkpt>
      <trkpt lat="43.34824" lon="2.5673">
        <ele>409.18</ele>
        <time>2015-11-22T10:14:03Z</time>
      </trkpt>
      <trkpt lat="43.34824" lon="2.56729">
        <ele>408.7</ele>
        <time>2015-11-22T10:14:22Z</time>
      </trkpt>
      <trkpt lat="43.34824" lon="2.56726">
        <ele>408.22</ele>
        <time>2015-11-22T10:15:08Z</time>
      </trkpt>
      <trkpt lat="43.34825" lon="2.56728">
        <ele>409.18</ele>
        <time>2015-11-22T10:15:47Z</time>
      </trkpt>
      <trkpt lat="43.34827" lon="2.56729">
        <ele>410.14</ele>
        <time>2015-11-22T10:16:01Z</time>
      </trkpt>
      <trkpt lat="43.34826" lon="2.5673">
        <ele>410.14</ele>
        <time>2015-11-22T10:16:35Z</time>
      </trkpt>
      <trkpt lat="43.34828" lon="2.5673">
        <ele>410.14</ele>
        <time>2015-11-22T10:17:16Z</time>
      </trkpt>
      <trkpt lat="43.34828" lon="2.56729">
        <ele>410.62</ele>
        <time>2015-11-22T10:17:51Z</time>
      </trkpt>
      <trkpt lat="43.34827" lon="2.5673">
        <ele>410.14</ele>
        <time>2015-11-22T10:18:28Z</time>
      </trkpt>
      <trkpt lat="43.34827" lon="2.56731">
        <ele>410.62</ele>
        <time>2015-11-22T10:19:06Z</time>
      </trkpt>
      <trkpt lat="43.34826" lon="2.56731">
        <ele>410.62</ele>
        <time>2015-11-22T10:19:12Z</time>
      </trkpt>
      <trkpt lat="43.34825" lon="2.56731">
        <ele>409.66</ele>
        <time>2015-11-22T10:19:23Z</time>
      </trkpt>
      <trkpt lat="43.34825" lon="2.56731">
        <ele>409.66</ele>
        <time>2015-11-22T10:19:39Z</time>
      </trkpt>
      <trkpt lat="43.34829" lon="2.5673">
        <ele>409.18</ele>
        <time>2015-11-22T10:20:02Z</time>
      </trkpt>
      <trkpt lat="43.34836" lon="2.56731">
        <ele>409.66</ele>
        <time>2015-11-22T10:20:19Z</time>
      </trkpt>
      <trkpt lat="43.34836" lon="2.56731">
        <ele>409.66</ele>
        <time>2015-11-22T10:20:33Z</time>
      </trkpt>
      <trkpt lat="43.34836" lon="2.56731">
        <ele>409.18</ele>
        <time>2015-11-22T10:20:59Z</time>
      </trkpt>
      <trkpt lat="43.34837" lon="2.56731">
        <ele>409.18</ele>
        <time>2015-11-22T10:21:15Z</time>
      </trkpt>
      <trkpt lat="43.34833" lon="2.56729">
        <ele>410.14</ele>
        <time>2015-11-22T10:21:32Z</time>
      </trkpt>
      <trkpt lat="43.34828" lon="2.56731">
        <ele>411.1</ele>
        <time>2015-11-22T10:21:46Z</time>
      </trkpt>
      <trkpt lat="43.34827" lon="2.5673">
        <ele>410.62</ele>
        <time>2015-11-22T10:22:00Z</time>
      </trkpt>
      <trkpt lat="43.34826" lon="2.56723">
        <ele>410.14</ele>
        <time>2015-11-22T10:22:15Z</time>
      </trkpt>
      <trkpt lat="43.34814" lon="2.56709">
        <ele>410.14</ele>
        <time>2015-11-22T10:22:33Z</time>
      </trkpt>
      <trkpt lat="43.34807" lon="2.567">
        <ele>405.81</ele>
        <time>2015-11-22T10:22:49Z</time>
      </trkpt>
      <trkpt lat="43.34802" lon="2.56682">
        <ele>401.01</ele>
        <time>2015-11-22T10:23:07Z</time>
      </trkpt>
      <trkpt lat="43.34801" lon="2.56666">
        <ele>396.68</ele>
        <time>2015-11-22T10:23:26Z</time>
      </trkpt>
      <trkpt lat="43.34798" lon="2.56647">
        <ele>395.24</ele>
        <time>2015-11-22T10:23:40Z</time>
      </trkpt>
      <trkpt lat="43.34796" lon="2.56615">
        <ele>389.95</ele>
        <time>2015-11-22T10:23:59Z</time>
      </trkpt>
      <trkpt lat="43.34797" lon="2.56587">
        <ele>385.63</ele>
        <time>2015-11-22T10:24:17Z</time>
      </trkpt>
      <trkpt lat="43.34797" lon="2.56586">
        <ele>385.63</ele>
        <time>2015-11-22T10:24:18Z</time>
      </trkpt>
      <trkpt lat="43.34802" lon="2.56552">
        <ele>382.74</ele>
        <time>2015-11-22T10:24:40Z</time>
      </trkpt>
      <trkpt lat="43.3481" lon="2.56538">
        <ele>381.78</ele>
        <time>2015-11-22T10:24:52Z</time>
      </trkpt>
      <trkpt lat="43.34821" lon="2.56519">
        <ele>380.34</ele>
        <time>2015-11-22T10:25:08Z</time>
      </trkpt>
      <trkpt lat="43.34826" lon="2.56499">
        <ele>378.9</ele>
        <time>2015-11-22T10:25:26Z</time>
      </trkpt>
      <trkpt lat="43.34815" lon="2.56502">
        <ele>376.97</ele>
        <time>2015-11-22T10:25:40Z</time>
      </trkpt>
      <trkpt lat="43.34801" lon="2.56511">
        <ele>378.42</ele>
        <time>2015-11-22T10:25:56Z</time>
      </trkpt>
      <trkpt lat="43.34788" lon="2.56515">
        <ele>379.86</ele>
        <time>2015-11-22T10:26:09Z</time>
      </trkpt>
      <trkpt lat="43.34768" lon="2.56523">
        <ele>377.94</ele>
        <time>2015-11-22T10:26:27Z</time>
      </trkpt>
      <trkpt lat="43.34746" lon="2.56534">
        <ele>373.61</ele>
        <time>2015-11-22T10:26:45Z</time>
      </trkpt>
      <trkpt lat="43.34726" lon="2.56546">
        <ele>370.24</ele>
        <time>2015-11-22T10:27:02Z</time>
      </trkpt>
      <trkpt lat="43.34725" lon="2.56544">
        <ele>370.24</ele>
        <time>2015-11-22T10:27:05Z</time>
      </trkpt>
      <trkpt lat="43.34735" lon="2.56526">
        <ele>374.09</ele>
        <time>2015-11-22T10:27:23Z</time>
      </trkpt>
      <trkpt lat="43.34745" lon="2.5651">
        <ele>376.97</ele>
        <time>2015-11-22T10:27:39Z</time>
      </trkpt>
      <trkpt lat="43.34757" lon="2.565">
        <ele>379.86</ele>
        <time>2015-11-22T10:27:54Z</time>
      </trkpt>
      <trkpt lat="43.34769" lon="2.56496">
        <ele>382.26</ele>
        <time>2015-11-22T10:28:08Z</time>
      </trkpt>
      <trkpt lat="43.34779" lon="2.5649">
        <ele>383.7</ele>
        <time>2015-11-22T10:28:24Z</time>
      </trkpt>
      <trkpt lat="43.34774" lon="2.56477">
        <ele>385.15</ele>
        <time>2015-11-22T10:28:38Z</time>
      </trkpt>
      <trkpt lat="43.34771" lon="2.56476">
        <ele>385.63</ele>
        <time>2015-11-22T10:28:43Z</time>
      </trkpt>
      <trkpt lat="43.34751" lon="2.56472">
        <ele>388.03</ele>
        <time>2015-11-22T10:29:03Z</time>
      </trkpt>
      <trkpt lat="43.34741" lon="2.5647">
        <ele>388.99</ele>
        <time>2015-11-22T10:29:13Z</time>
      </trkpt>
      <trkpt lat="43.34727" lon="2.56471">
        <ele>389.95</ele>
        <time>2015-11-22T10:29:29Z</time>
      </trkpt>
      <trkpt lat="43.34713" lon="2.56476">
        <ele>391.87</ele>
        <time>2015-11-22T10:29:45Z</time>
      </trkpt>
      <trkpt lat="43.34696" lon="2.56479">
        <ele>392.84</ele>
        <time>2015-11-22T10:30:04Z</time>
      </trkpt>
      <trkpt lat="43.34681" lon="2.56483">
        <ele>394.28</ele>
        <time>2015-11-22T10:30:20Z</time>
      </trkpt>
      <trkpt lat="43.34666" lon="2.56486">
        <ele>396.2</ele>
        <time>2015-11-22T10:30:36Z</time>
      </trkpt>
      <trkpt lat="43.34658" lon="2.56487">
        <ele>397.16</ele>
        <time>2015-11-22T10:30:44Z</time>
      </trkpt>
      <trkpt lat="43.34656" lon="2.56487">
        <ele>397.64</ele>
        <time>2015-11-22T10:30:46Z</time>
      </trkpt>
      <trkpt lat="43.34641" lon="2.56484">
        <ele>400.53</ele>
        <time>2015-11-22T10:31:01Z</time>
      </trkpt>
      <trkpt lat="43.34625" lon="2.56471">
        <ele>402.93</ele>
        <time>2015-11-22T10:31:19Z</time>
      </trkpt>
      <trkpt lat="43.34613" lon="2.56452">
        <ele>404.85</ele>
        <time>2015-11-22T10:31:36Z</time>
      </trkpt>
      <trkpt lat="43.34605" lon="2.56434">
        <ele>406.29</ele>
        <time>2015-11-22T10:31:52Z</time>
      </trkpt>
      <trkpt lat="43.34595" lon="2.56415">
        <ele>408.22</ele>
        <time>2015-11-22T10:32:09Z</time>
      </trkpt>
      <trkpt lat="43.34585" lon="2.56392">
        <ele>410.14</ele>
        <time>2015-11-22T10:32:27Z</time>
      </trkpt>
      <trkpt lat="43.34576" lon="2.56364">
        <ele>410.62</ele>
        <time>2015-11-22T10:32:46Z</time>
      </trkpt>
      <trkpt lat="43.34564" lon="2.56346">
        <ele>411.58</ele>
        <time>2015-11-22T10:33:02Z</time>
      </trkpt>
      <trkpt lat="43.34551" lon="2.56327">
        <ele>412.54</ele>
        <time>2015-11-22T10:33:19Z</time>
      </trkpt>
      <trkpt lat="43.3455" lon="2.56314">
        <ele>412.54</ele>
        <time>2015-11-22T10:33:33Z</time>
      </trkpt>
      <trkpt lat="43.34549" lon="2.56314">
        <ele>412.06</ele>
        <time>2015-11-22T10:33:54Z</time>
      </trkpt>
      <trkpt lat="43.34548" lon="2.56312">
        <ele>412.06</ele>
        <time>2015-11-22T10:34:10Z</time>
      </trkpt>
      <trkpt lat="43.34549" lon="2.56312">
        <ele>411.58</ele>
        <time>2015-11-22T10:34:36Z</time>
      </trkpt>
      <trkpt lat="43.34548" lon="2.56312">
        <ele>411.1</ele>
        <time>2015-11-22T10:34:59Z</time>
      </trkpt>
      <trkpt lat="43.34546" lon="2.5631">
        <ele>411.58</ele>
        <time>2015-11-22T10:35:15Z</time>
      </trkpt>
      <trkpt lat="43.34537" lon="2.56308">
        <ele>411.58</ele>
        <time>2015-11-22T10:35:29Z</time>
      </trkpt>
      <trkpt lat="43.34536" lon="2.56307">
        <ele>412.06</ele>
        <time>2015-11-22T10:35:31Z</time>
      </trkpt>
      <trkpt lat="43.34526" lon="2.56298">
        <ele>412.06</ele>
        <time>2015-11-22T10:35:42Z</time>
      </trkpt>
      <trkpt lat="43.34515" lon="2.5627">
        <ele>412.06</ele>
        <time>2015-11-22T10:36:02Z</time>
      </trkpt>
      <trkpt lat="43.34507" lon="2.56246">
        <ele>411.58</ele>
        <time>2015-11-22T10:36:19Z</time>
      </trkpt>
      <trkpt lat="43.345" lon="2.56223">
        <ele>411.58</ele>
        <time>2015-11-22T10:36:36Z</time>
      </trkpt>
      <trkpt lat="43.34489" lon="2.5621">
        <ele>411.58</ele>
        <time>2015-11-22T10:36:51Z</time>
      </trkpt>
      <trkpt lat="43.34476" lon="2.56189">
        <ele>413.98</ele>
        <time>2015-11-22T10:37:08Z</time>
      </trkpt>
      <trkpt lat="43.3447" lon="2.56164">
        <ele>415.91</ele>
        <time>2015-11-22T10:37:25Z</time>
      </trkpt>
      <trkpt lat="43.34466" lon="2.56152">
        <ele>416.87</ele>
        <time>2015-11-22T10:37:33Z</time>
      </trkpt>
      <trkpt lat="43.34463" lon="2.56147">
        <ele>415.91</ele>
        <time>2015-11-22T10:37:37Z</time>
      </trkpt>
      <trkpt lat="43.34466" lon="2.56123">
        <ele>414.47</ele>
        <time>2015-11-22T10:37:55Z</time>
      </trkpt>
      <trkpt lat="43.34467" lon="2.5612">
        <ele>414.95</ele>
        <time>2015-11-22T10:37:58Z</time>
      </trkpt>
      <trkpt lat="43.34477" lon="2.56094">
        <ele>414.95</ele>
        <time>2015-11-22T10:38:18Z</time>
      </trkpt>
      <trkpt lat="43.34487" lon="2.56077">
        <ele>414.95</ele>
        <time>2015-11-22T10:38:34Z</time>
      </trkpt>
      <trkpt lat="43.34499" lon="2.56063">
        <ele>416.39</ele>
        <time>2015-11-22T10:38:51Z</time>
      </trkpt>
      <trkpt lat="43.34505" lon="2.56051">
        <ele>416.39</ele>
        <time>2015-11-22T10:39:08Z</time>
      </trkpt>
      <trkpt lat="43.34504" lon="2.56051">
        <ele>415.43</ele>
        <time>2015-11-22T10:39:25Z</time>
      </trkpt>
      <trkpt lat="43.34504" lon="2.5605">
        <ele>414.95</ele>
        <time>2015-11-22T10:39:54Z</time>
      </trkpt>
      <trkpt lat="43.3451" lon="2.56035">
        <ele>415.91</ele>
        <time>2015-11-22T10:40:10Z</time>
      </trkpt>
      <trkpt lat="43.3451" lon="2.56016">
        <ele>413.98</ele>
        <time>2015-11-22T10:40:27Z</time>
      </trkpt>
      <trkpt lat="43.34508" lon="2.56001">
        <ele>412.54</ele>
        <time>2015-11-22T10:40:44Z</time>
      </trkpt>
      <trkpt lat="43.34509" lon="2.56">
        <ele>413.02</ele>
        <time>2015-11-22T10:41:07Z</time>
      </trkpt>
      <trkpt lat="43.34509" lon="2.55998">
        <ele>411.58</ele>
        <time>2015-11-22T10:41:32Z</time>
      </trkpt>
      <trkpt lat="43.34507" lon="2.55996">
        <ele>410.62</ele>
        <time>2015-11-22T10:41:55Z</time>
      </trkpt>
      <trkpt lat="43.34502" lon="2.5599">
        <ele>410.14</ele>
        <time>2015-11-22T10:42:13Z</time>
      </trkpt>
      <trkpt lat="43.34495" lon="2.55982">
        <ele>411.58</ele>
        <time>2015-11-22T10:42:27Z</time>
      </trkpt>
      <trkpt lat="43.3449" lon="2.55974">
        <ele>411.58</ele>
        <time>2015-11-22T10:42:44Z</time>
      </trkpt>
      <trkpt lat="43.34484" lon="2.55962">
        <ele>411.1</ele>
        <time>2015-11-22T10:42:59Z</time>
      </trkpt>
      <trkpt lat="43.34482" lon="2.55952">
        <ele>410.62</ele>
        <time>2015-11-22T10:43:07Z</time>
      </trkpt>
      <trkpt lat="43.34475" lon="2.55938">
        <ele>408.7</ele>
        <time>2015-11-22T10:43:21Z</time>
      </trkpt>
      <trkpt lat="43.3447" lon="2.55926">
        <ele>407.26</ele>
        <time>2015-11-22T10:43:35Z</time>
      </trkpt>
      <trkpt lat="43.34462" lon="2.55911">
        <ele>404.85</ele>
        <time>2015-11-22T10:43:50Z</time>
      </trkpt>
      <trkpt lat="43.34455" lon="2.55899">
        <ele>403.41</ele>
        <time>2015-11-22T10:44:05Z</time>
      </trkpt>
      <trkpt lat="43.34442" lon="2.55885">
        <ele>402.45</ele>
        <time>2015-11-22T10:44:25Z</time>
      </trkpt>
      <trkpt lat="43.34434" lon="2.55872">
        <ele>400.05</ele>
        <time>2015-11-22T10:44:40Z</time>
      </trkpt>
      <trkpt lat="43.34429" lon="2.55863">
        <ele>397.64</ele>
        <time>2015-11-22T10:44:56Z</time>
      </trkpt>
      <trkpt lat="43.3442" lon="2.55856">
        <ele>394.76</ele>
        <time>2015-11-22T10:45:10Z</time>
      </trkpt>
      <trkpt lat="43.34411" lon="2.55845">
        <ele>391.39</ele>
        <time>2015-11-22T10:45:26Z</time>
      </trkpt>
      <trkpt lat="43.344" lon="2.55838">
        <ele>385.15</ele>
        <time>2015-11-22T10:45:43Z</time>
      </trkpt>
      <trkpt lat="43.34385" lon="2.55832">
        <ele>380.82</ele>
        <time>2015-11-22T10:45:59Z</time>
      </trkpt>
      <trkpt lat="43.34369" lon="2.5583">
        <ele>375.05</ele>
        <time>2015-11-22T10:46:15Z</time>
      </trkpt>
      <trkpt lat="43.34356" lon="2.5583">
        <ele>369.28</ele>
        <time>2015-11-22T10:46:31Z</time>
      </trkpt>
      <trkpt lat="43.34345" lon="2.55831">
        <ele>363.04</ele>
        <time>2015-11-22T10:46:45Z</time>
      </trkpt>
      <trkpt lat="43.34334" lon="2.55829">
        <ele>361.11</ele>
        <time>2015-11-22T10:46:57Z</time>
      </trkpt>
      <trkpt lat="43.34328" lon="2.55828">
        <ele>361.11</ele>
        <time>2015-11-22T10:47:10Z</time>
      </trkpt>
      <trkpt lat="43.34306" lon="2.55815">
        <ele>365.44</ele>
        <time>2015-11-22T10:47:23Z</time>
      </trkpt>
      <trkpt lat="43.34304" lon="2.55815">
        <ele>365.92</ele>
        <time>2015-11-22T10:47:39Z</time>
      </trkpt>
      <trkpt lat="43.34302" lon="2.55815">
        <ele>365.92</ele>
        <time>2015-11-22T10:47:52Z</time>
      </trkpt>
      <trkpt lat="43.34301" lon="2.55815">
        <ele>365.92</ele>
        <time>2015-11-22T10:48:23Z</time>
      </trkpt>
      <trkpt lat="43.34301" lon="2.55816">
        <ele>365.44</ele>
        <time>2015-11-22T10:48:33Z</time>
      </trkpt>
      <trkpt lat="43.343" lon="2.55817">
        <ele>364.96</ele>
        <time>2015-11-22T10:48:48Z</time>
      </trkpt>
      <trkpt lat="43.34299" lon="2.55818">
        <ele>364</ele>
        <time>2015-11-22T10:49:03Z</time>
      </trkpt>
      <trkpt lat="43.34292" lon="2.55825">
        <ele>363.52</ele>
        <time>2015-11-22T10:49:15Z</time>
      </trkpt>
      <trkpt lat="43.34284" lon="2.55836">
        <ele>363.52</ele>
        <time>2015-11-22T10:49:27Z</time>
      </trkpt>
      <trkpt lat="43.34274" lon="2.55851">
        <ele>362.07</ele>
        <time>2015-11-22T10:49:41Z</time>
      </trkpt>
      <trkpt lat="43.34271" lon="2.55856">
        <ele>360.63</ele>
        <time>2015-11-22T10:49:54Z</time>
      </trkpt>
      <trkpt lat="43.34264" lon="2.55864">
        <ele>358.71</ele>
        <time>2015-11-22T10:50:09Z</time>
      </trkpt>
      <trkpt lat="43.34257" lon="2.55876">
        <ele>358.23</ele>
        <time>2015-11-22T10:50:23Z</time>
      </trkpt>
      <trkpt lat="43.34251" lon="2.55894">
        <ele>358.23</ele>
        <time>2015-11-22T10:50:37Z</time>
      </trkpt>
      <trkpt lat="43.34249" lon="2.55896">
        <ele>358.23</ele>
        <time>2015-11-22T10:50:39Z</time>
      </trkpt>
      <trkpt lat="43.34238" lon="2.55911">
        <ele>356.79</ele>
        <time>2015-11-22T10:50:54Z</time>
      </trkpt>
      <trkpt lat="43.34234" lon="2.55919">
        <ele>355.83</ele>
        <time>2015-11-22T10:51:06Z</time>
      </trkpt>
      <trkpt lat="43.34224" lon="2.55944">
        <ele>353.42</ele>
        <time>2015-11-22T10:51:22Z</time>
      </trkpt>
      <trkpt lat="43.34224" lon="2.55949">
        <ele>351.98</ele>
        <time>2015-11-22T10:51:24Z</time>
      </trkpt>
      <trkpt lat="43.3422" lon="2.55975">
        <ele>346.21</ele>
        <time>2015-11-22T10:51:38Z</time>
      </trkpt>
      <trkpt lat="43.34221" lon="2.55991">
        <ele>343.33</ele>
        <time>2015-11-22T10:51:46Z</time>
      </trkpt>
      <trkpt lat="43.34221" lon="2.55999">
        <ele>341.89</ele>
        <time>2015-11-22T10:51:59Z</time>
      </trkpt>
      <trkpt lat="43.34221" lon="2.56002">
        <ele>340.92</ele>
        <time>2015-11-22T10:52:12Z</time>
      </trkpt>
      <trkpt lat="43.34221" lon="2.56018">
        <ele>343.81</ele>
        <time>2015-11-22T10:52:26Z</time>
      </trkpt>
      <trkpt lat="43.3422" lon="2.5604">
        <ele>347.65</ele>
        <time>2015-11-22T10:52:42Z</time>
      </trkpt>
      <trkpt lat="43.34224" lon="2.56058">
        <ele>349.1</ele>
        <time>2015-11-22T10:52:56Z</time>
      </trkpt>
      <trkpt lat="43.3422" lon="2.56063">
        <ele>347.17</ele>
        <time>2015-11-22T10:53:08Z</time>
      </trkpt>
      <trkpt lat="43.34218" lon="2.56076">
        <ele>339.96</ele>
        <time>2015-11-22T10:53:24Z</time>
      </trkpt>
      <trkpt lat="43.3421" lon="2.56079">
        <ele>336.12</ele>
        <time>2015-11-22T10:53:39Z</time>
      </trkpt>
      <trkpt lat="43.34203" lon="2.56084">
        <ele>332.75</ele>
        <time>2015-11-22T10:53:52Z</time>
      </trkpt>
      <trkpt lat="43.34197" lon="2.56092">
        <ele>327.95</ele>
        <time>2015-11-22T10:54:04Z</time>
      </trkpt>
      <trkpt lat="43.34185" lon="2.56092">
        <ele>326.99</ele>
        <time>2015-11-22T10:54:17Z</time>
      </trkpt>
      <trkpt lat="43.34172" lon="2.56093">
        <ele>326.02</ele>
        <time>2015-11-22T10:54:31Z</time>
      </trkpt>
      <trkpt lat="43.34161" lon="2.56091">
        <ele>324.58</ele>
        <time>2015-11-22T10:54:42Z</time>
      </trkpt>
      <trkpt lat="43.34141" lon="2.56093">
        <ele>321.7</ele>
        <time>2015-11-22T10:54:59Z</time>
      </trkpt>
      <trkpt lat="43.34123" lon="2.56092">
        <ele>318.33</ele>
        <time>2015-11-22T10:55:18Z</time>
      </trkpt>
      <trkpt lat="43.3412" lon="2.56088">
        <ele>317.85</ele>
        <time>2015-11-22T10:55:22Z</time>
      </trkpt>
      <trkpt lat="43.3412" lon="2.56082">
        <ele>317.85</ele>
        <time>2015-11-22T10:55:26Z</time>
      </trkpt>
      <trkpt lat="43.34125" lon="2.56061">
        <ele>314.97</ele>
        <time>2015-11-22T10:55:43Z</time>
      </trkpt>
      <trkpt lat="43.3413" lon="2.5604">
        <ele>314.01</ele>
        <time>2015-11-22T10:55:57Z</time>
      </trkpt>
      <trkpt lat="43.34138" lon="2.56018">
        <ele>314.49</ele>
        <time>2015-11-22T10:56:14Z</time>
      </trkpt>
      <trkpt lat="43.34141" lon="2.56003">
        <ele>315.93</ele>
        <time>2015-11-22T10:56:30Z</time>
      </trkpt>
      <trkpt lat="43.34138" lon="2.55988">
        <ele>318.33</ele>
        <time>2015-11-22T10:56:45Z</time>
      </trkpt>
      <trkpt lat="43.34136" lon="2.5597">
        <ele>320.74</ele>
        <time>2015-11-22T10:57:01Z</time>
      </trkpt>
      <trkpt lat="43.34135" lon="2.55965">
        <ele>321.7</ele>
        <time>2015-11-22T10:57:04Z</time>
      </trkpt>
      <trkpt lat="43.34129" lon="2.55955">
        <ele>320.26</ele>
        <time>2015-11-22T10:57:15Z</time>
      </trkpt>
      <trkpt lat="43.3412" lon="2.5596">
        <ele>318.81</ele>
        <time>2015-11-22T10:57:30Z</time>
      </trkpt>
      <trkpt lat="43.34111" lon="2.55962">
        <ele>315.93</ele>
        <time>2015-11-22T10:57:42Z</time>
      </trkpt>
      <trkpt lat="43.34099" lon="2.55968">
        <ele>314.01</ele>
        <time>2015-11-22T10:57:54Z</time>
      </trkpt>
      <trkpt lat="43.34082" lon="2.5597">
        <ele>311.6</ele>
        <time>2015-11-22T10:58:10Z</time>
      </trkpt>
      <trkpt lat="43.34069" lon="2.55972">
        <ele>308.72</ele>
        <time>2015-11-22T10:58:24Z</time>
      </trkpt>
      <trkpt lat="43.3405" lon="2.55968">
        <ele>302.47</ele>
        <time>2015-11-22T10:58:41Z</time>
      </trkpt>
      <trkpt lat="43.34037" lon="2.55968">
        <ele>302.47</ele>
        <time>2015-11-22T10:58:54Z</time>
      </trkpt>
      <trkpt lat="43.34032" lon="2.55967">
        <ele>302.47</ele>
        <time>2015-11-22T10:58:59Z</time>
      </trkpt>
      <trkpt lat="43.34027" lon="2.55968">
        <ele>302.47</ele>
        <time>2015-11-22T10:59:03Z</time>
      </trkpt>
      <trkpt lat="43.34021" lon="2.55969">
        <ele>301.99</ele>
        <time>2015-11-22T10:59:07Z</time>
      </trkpt>
      <trkpt lat="43.34017" lon="2.5597">
        <ele>302.47</ele>
        <time>2015-11-22T10:59:10Z</time>
      </trkpt>
      <trkpt lat="43.33995" lon="2.5598">
        <ele>298.63</ele>
        <time>2015-11-22T10:59:26Z</time>
      </trkpt>
      <trkpt lat="43.33976" lon="2.55984">
        <ele>298.15</ele>
        <time>2015-11-22T10:59:41Z</time>
      </trkpt>
      <trkpt lat="43.33972" lon="2.55984">
        <ele>297.18</ele>
        <time>2015-11-22T10:59:45Z</time>
      </trkpt>
      <trkpt lat="43.33952" lon="2.55973">
        <ele>297.18</ele>
        <time>2015-11-22T11:00:00Z</time>
      </trkpt>
      <trkpt lat="43.3395" lon="2.55967">
        <ele>296.22</ele>
        <time>2015-11-22T11:00:04Z</time>
      </trkpt>
      <trkpt lat="43.33944" lon="2.55955">
        <ele>295.74</ele>
        <time>2015-11-22T11:00:13Z</time>
      </trkpt>
      <trkpt lat="43.33934" lon="2.5594">
        <ele>298.15</ele>
        <time>2015-11-22T11:00:27Z</time>
      </trkpt>
      <trkpt lat="43.3393" lon="2.5592">
        <ele>300.07</ele>
        <time>2015-11-22T11:00:45Z</time>
      </trkpt>
      <trkpt lat="43.33927" lon="2.55904">
        <ele>301.51</ele>
        <time>2015-11-22T11:01:00Z</time>
      </trkpt>
      <trkpt lat="43.33929" lon="2.55873">
        <ele>303.91</ele>
        <time>2015-11-22T11:01:15Z</time>
      </trkpt>
      <trkpt lat="43.33929" lon="2.5586">
        <ele>303.91</ele>
        <time>2015-11-22T11:01:19Z</time>
      </trkpt>
      <trkpt lat="43.33939" lon="2.55831">
        <ele>301.51</ele>
        <time>2015-11-22T11:01:35Z</time>
      </trkpt>
      <trkpt lat="43.33942" lon="2.55828">
        <ele>301.03</ele>
        <time>2015-11-22T11:01:37Z</time>
      </trkpt>
      <trkpt lat="43.33951" lon="2.55824">
        <ele>299.59</ele>
        <time>2015-11-22T11:01:45Z</time>
      </trkpt>
      <trkpt lat="43.33953" lon="2.5582">
        <ele>299.11</ele>
        <time>2015-11-22T11:01:47Z</time>
      </trkpt>
      <trkpt lat="43.33952" lon="2.55809">
        <ele>297.67</ele>
        <time>2015-11-22T11:01:59Z</time>
      </trkpt>
      <trkpt lat="43.33951" lon="2.55803">
        <ele>298.15</ele>
        <time>2015-11-22T11:02:05Z</time>
      </trkpt>
      <trkpt lat="43.33944" lon="2.55789">
        <ele>299.11</ele>
        <time>2015-11-22T11:02:22Z</time>
      </trkpt>
      <trkpt lat="43.3394" lon="2.5578">
        <ele>301.51</ele>
        <time>2015-11-22T11:02:37Z</time>
      </trkpt>
      <trkpt lat="43.33945" lon="2.55756">
        <ele>301.03</ele>
        <time>2015-11-22T11:02:52Z</time>
      </trkpt>
      <trkpt lat="43.33946" lon="2.55745">
        <ele>302.47</ele>
        <time>2015-11-22T11:03:06Z</time>
      </trkpt>
      <trkpt lat="43.33942" lon="2.55733">
        <ele>307.28</ele>
        <time>2015-11-22T11:03:21Z</time>
      </trkpt>
      <trkpt lat="43.33939" lon="2.5571">
        <ele>311.12</ele>
        <time>2015-11-22T11:03:34Z</time>
      </trkpt>
      <trkpt lat="43.33937" lon="2.55672">
        <ele>306.8</ele>
        <time>2015-11-22T11:03:48Z</time>
      </trkpt>
      <trkpt lat="43.33934" lon="2.55639">
        <ele>299.59</ele>
        <time>2015-11-22T11:04:03Z</time>
      </trkpt>
      <trkpt lat="43.33931" lon="2.55617">
        <ele>291.9</ele>
        <time>2015-11-22T11:04:14Z</time>
      </trkpt>
      <trkpt lat="43.33931" lon="2.556">
        <ele>287.57</ele>
        <time>2015-11-22T11:04:22Z</time>
      </trkpt>
      <trkpt lat="43.33929" lon="2.5557">
        <ele>284.69</ele>
        <time>2015-11-22T11:04:39Z</time>
      </trkpt>
      <trkpt lat="43.33925" lon="2.55559">
        <ele>285.65</ele>
        <time>2015-11-22T11:04:47Z</time>
      </trkpt>
      <trkpt lat="43.33915" lon="2.55536">
        <ele>287.09</ele>
        <time>2015-11-22T11:05:03Z</time>
      </trkpt>
      <trkpt lat="43.33904" lon="2.55516">
        <ele>286.13</ele>
        <time>2015-11-22T11:05:20Z</time>
      </trkpt>
      <trkpt lat="43.33894" lon="2.55495">
        <ele>284.69</ele>
        <time>2015-11-22T11:05:36Z</time>
      </trkpt>
      <trkpt lat="43.33897" lon="2.55468">
        <ele>279.4</ele>
        <time>2015-11-22T11:05:51Z</time>
      </trkpt>
      <trkpt lat="43.33904" lon="2.55454">
        <ele>276.52</ele>
        <time>2015-11-22T11:06:01Z</time>
      </trkpt>
      <trkpt lat="43.33916" lon="2.55437">
        <ele>276.52</ele>
        <time>2015-11-22T11:06:17Z</time>
      </trkpt>
      <trkpt lat="43.33927" lon="2.5542">
        <ele>277.48</ele>
        <time>2015-11-22T11:06:32Z</time>
      </trkpt>
      <trkpt lat="43.33933" lon="2.554">
        <ele>276.04</ele>
        <time>2015-11-22T11:06:50Z</time>
      </trkpt>
      <trkpt lat="43.33934" lon="2.55397">
        <ele>275.07</ele>
        <time>2015-11-22T11:07:09Z</time>
      </trkpt>
      <trkpt lat="43.33934" lon="2.55396">
        <ele>273.63</ele>
        <time>2015-11-22T11:07:23Z</time>
      </trkpt>
      <trkpt lat="43.33935" lon="2.55395">
        <ele>272.67</ele>
        <time>2015-11-22T11:07:51Z</time>
      </trkpt>
      <trkpt lat="43.33935" lon="2.55394">
        <ele>272.19</ele>
        <time>2015-11-22T11:08:24Z</time>
      </trkpt>
      <trkpt lat="43.33936" lon="2.55395">
        <ele>271.71</ele>
        <time>2015-11-22T11:08:50Z</time>
      </trkpt>
      <trkpt lat="43.33936" lon="2.55395">
        <ele>271.71</ele>
        <time>2015-11-22T11:09:11Z</time>
      </trkpt>
      <trkpt lat="43.33934" lon="2.55394">
        <ele>271.23</ele>
        <time>2015-11-22T11:09:26Z</time>
      </trkpt>
      <trkpt lat="43.33911" lon="2.55378">
        <ele>272.19</ele>
        <time>2015-11-22T11:09:48Z</time>
      </trkpt>
      <trkpt lat="43.33892" lon="2.55364">
        <ele>274.59</ele>
        <time>2015-11-22T11:10:07Z</time>
      </trkpt>
      <trkpt lat="43.33879" lon="2.5536">
        <ele>278.44</ele>
        <time>2015-11-22T11:10:22Z</time>
      </trkpt>
      <trkpt lat="43.33863" lon="2.55355">
        <ele>279.88</ele>
        <time>2015-11-22T11:10:38Z</time>
      </trkpt>
      <trkpt lat="43.33849" lon="2.55337">
        <ele>279.88</ele>
        <time>2015-11-22T11:10:54Z</time>
      </trkpt>
      <trkpt lat="43.33842" lon="2.55324">
        <ele>277.96</ele>
        <time>2015-11-22T11:11:08Z</time>
      </trkpt>
      <trkpt lat="43.33842" lon="2.55301">
        <ele>279.4</ele>
        <time>2015-11-22T11:11:23Z</time>
      </trkpt>
      <trkpt lat="43.33846" lon="2.5528">
        <ele>277</ele>
        <time>2015-11-22T11:11:39Z</time>
      </trkpt>
      <trkpt lat="43.33852" lon="2.55266">
        <ele>276.04</ele>
        <time>2015-11-22T11:11:53Z</time>
      </trkpt>
      <trkpt lat="43.33858" lon="2.55255">
        <ele>277</ele>
        <time>2015-11-22T11:12:06Z</time>
      </trkpt>
      <trkpt lat="43.33861" lon="2.55233">
        <ele>280.84</ele>
        <time>2015-11-22T11:12:24Z</time>
      </trkpt>
      <trkpt lat="43.33862" lon="2.55232">
        <ele>280.36</ele>
        <time>2015-11-22T11:12:34Z</time>
      </trkpt>
      <trkpt lat="43.33862" lon="2.55231">
        <ele>279.88</ele>
        <time>2015-11-22T11:12:52Z</time>
      </trkpt>
      <trkpt lat="43.33863" lon="2.55229">
        <ele>278.44</ele>
        <time>2015-11-22T11:13:11Z</time>
      </trkpt>
      <trkpt lat="43.33864" lon="2.55221">
        <ele>279.88</ele>
        <time>2015-11-22T11:13:22Z</time>
      </trkpt>
      <trkpt lat="43.33866" lon="2.55215">
        <ele>281.32</ele>
        <time>2015-11-22T11:13:37Z</time>
      </trkpt>
      <trkpt lat="43.33868" lon="2.5521">
        <ele>283.25</ele>
        <time>2015-11-22T11:13:48Z</time>
      </trkpt>
      <trkpt lat="43.33872" lon="2.55207">
        <ele>285.17</ele>
        <time>2015-11-22T11:14:01Z</time>
      </trkpt>
      <trkpt lat="43.33873" lon="2.55195">
        <ele>287.57</ele>
        <time>2015-11-22T11:14:13Z</time>
      </trkpt>
      <trkpt lat="43.33875" lon="2.55184">
        <ele>288.53</ele>
        <time>2015-11-22T11:14:28Z</time>
      </trkpt>
      <trkpt lat="43.33872" lon="2.55173">
        <ele>289.49</ele>
        <time>2015-11-22T11:14:40Z</time>
      </trkpt>
      <trkpt lat="43.33871" lon="2.5517">
        <ele>289.49</ele>
        <time>2015-11-22T11:14:43Z</time>
      </trkpt>
      <trkpt lat="43.33868" lon="2.55157">
        <ele>289.01</ele>
        <time>2015-11-22T11:14:58Z</time>
      </trkpt>
      <trkpt lat="43.33864" lon="2.55146">
        <ele>289.49</ele>
        <time>2015-11-22T11:15:07Z</time>
      </trkpt>
      <trkpt lat="43.33863" lon="2.55125">
        <ele>290.46</ele>
        <time>2015-11-22T11:15:22Z</time>
      </trkpt>
      <trkpt lat="43.33862" lon="2.55123">
        <ele>290.46</ele>
        <time>2015-11-22T11:15:25Z</time>
      </trkpt>
      <trkpt lat="43.33858" lon="2.55122">
        <ele>290.46</ele>
        <time>2015-11-22T11:15:29Z</time>
      </trkpt>
      <trkpt lat="43.33847" lon="2.55107">
        <ele>291.42</ele>
        <time>2015-11-22T11:15:45Z</time>
      </trkpt>
      <trkpt lat="43.33844" lon="2.55103">
        <ele>291.42</ele>
        <time>2015-11-22T11:15:49Z</time>
      </trkpt>
      <trkpt lat="43.33831" lon="2.55089">
        <ele>291.42</ele>
        <time>2015-11-22T11:16:05Z</time>
      </trkpt>
      <trkpt lat="43.33826" lon="2.5508">
        <ele>291.9</ele>
        <time>2015-11-22T11:16:18Z</time>
      </trkpt>
      <trkpt lat="43.33824" lon="2.5508">
        <ele>291.9</ele>
        <time>2015-11-22T11:16:33Z</time>
      </trkpt>
      <trkpt lat="43.33814" lon="2.5507">
        <ele>291.42</ele>
        <time>2015-11-22T11:16:47Z</time>
      </trkpt>
      <trkpt lat="43.33806" lon="2.55055">
        <ele>291.9</ele>
        <time>2015-11-22T11:17:01Z</time>
      </trkpt>
      <trkpt lat="43.33796" lon="2.55041">
        <ele>291.9</ele>
        <time>2015-11-22T11:17:17Z</time>
      </trkpt>
      <trkpt lat="43.33795" lon="2.55032">
        <ele>293.34</ele>
        <time>2015-11-22T11:17:29Z</time>
      </trkpt>
      <trkpt lat="43.33794" lon="2.55026">
        <ele>292.86</ele>
        <time>2015-11-22T11:17:48Z</time>
      </trkpt>
      <trkpt lat="43.33797" lon="2.55021">
        <ele>293.34</ele>
        <time>2015-11-22T11:18:01Z</time>
      </trkpt>
      <trkpt lat="43.33801" lon="2.5502">
        <ele>296.22</ele>
        <time>2015-11-22T11:18:13Z</time>
      </trkpt>
      <trkpt lat="43.33806" lon="2.55014">
        <ele>298.15</ele>
        <time>2015-11-22T11:18:26Z</time>
      </trkpt>
      <trkpt lat="43.33809" lon="2.55013">
        <ele>300.07</ele>
        <time>2015-11-22T11:18:39Z</time>
      </trkpt>
      <trkpt lat="43.3381" lon="2.55005">
        <ele>302.47</ele>
        <time>2015-11-22T11:18:49Z</time>
      </trkpt>
      <trkpt lat="43.33811" lon="2.54995">
        <ele>305.36</ele>
        <time>2015-11-22T11:19:02Z</time>
      </trkpt>
      <trkpt lat="43.33811" lon="2.54986">
        <ele>306.8</ele>
        <time>2015-11-22T11:19:16Z</time>
      </trkpt>
      <trkpt lat="43.33812" lon="2.54983">
        <ele>307.76</ele>
        <time>2015-11-22T11:19:28Z</time>
      </trkpt>
      <trkpt lat="43.33813" lon="2.54982">
        <ele>309.2</ele>
        <time>2015-11-22T11:19:40Z</time>
      </trkpt>
      <trkpt lat="43.33814" lon="2.54979">
        <ele>310.16</ele>
        <time>2015-11-22T11:19:50Z</time>
      </trkpt>
      <trkpt lat="43.33815" lon="2.54976">
        <ele>312.09</ele>
        <time>2015-11-22T11:20:03Z</time>
      </trkpt>
      <trkpt lat="43.33816" lon="2.54972">
        <ele>313.53</ele>
        <time>2015-11-22T11:20:20Z</time>
      </trkpt>
      <trkpt lat="43.33816" lon="2.5497">
        <ele>314.01</ele>
        <time>2015-11-22T11:20:37Z</time>
      </trkpt>
      <trkpt lat="43.33817" lon="2.54963">
        <ele>314.97</ele>
        <time>2015-11-22T11:20:51Z</time>
      </trkpt>
      <trkpt lat="43.33817" lon="2.5495">
        <ele>317.37</ele>
        <time>2015-11-22T11:21:02Z</time>
      </trkpt>
      <trkpt lat="43.33816" lon="2.54941">
        <ele>318.81</ele>
        <time>2015-11-22T11:21:16Z</time>
      </trkpt>
      <trkpt lat="43.33816" lon="2.54932">
        <ele>320.26</ele>
        <time>2015-11-22T11:21:28Z</time>
      </trkpt>
      <trkpt lat="43.33813" lon="2.54915">
        <ele>323.14</ele>
        <time>2015-11-22T11:21:43Z</time>
      </trkpt>
      <trkpt lat="43.33811" lon="2.54901">
        <ele>326.02</ele>
        <time>2015-11-22T11:21:57Z</time>
      </trkpt>
      <trkpt lat="43.33813" lon="2.54895">
        <ele>326.99</ele>
        <time>2015-11-22T11:22:08Z</time>
      </trkpt>
      <trkpt lat="43.33816" lon="2.54888">
        <ele>328.91</ele>
        <time>2015-11-22T11:22:23Z</time>
      </trkpt>
      <trkpt lat="43.33817" lon="2.54887">
        <ele>328.91</ele>
        <time>2015-11-22T11:22:36Z</time>
      </trkpt>
      <trkpt lat="43.33818" lon="2.54884">
        <ele>329.39</ele>
        <time>2015-11-22T11:22:49Z</time>
      </trkpt>
      <trkpt lat="43.33821" lon="2.54881">
        <ele>330.35</ele>
        <time>2015-11-22T11:23:03Z</time>
      </trkpt>
      <trkpt lat="43.33826" lon="2.54867">
        <ele>333.71</ele>
        <time>2015-11-22T11:23:18Z</time>
      </trkpt>
      <trkpt lat="43.33824" lon="2.54854">
        <ele>334.2</ele>
        <time>2015-11-22T11:23:31Z</time>
      </trkpt>
      <trkpt lat="43.33828" lon="2.54835">
        <ele>332.75</ele>
        <time>2015-11-22T11:23:46Z</time>
      </trkpt>
      <trkpt lat="43.33828" lon="2.5483">
        <ele>332.27</ele>
        <time>2015-11-22T11:23:50Z</time>
      </trkpt>
      <trkpt lat="43.33834" lon="2.54808">
        <ele>330.83</ele>
        <time>2015-11-22T11:24:04Z</time>
      </trkpt>
      <trkpt lat="43.33842" lon="2.54796">
        <ele>332.75</ele>
        <time>2015-11-22T11:24:19Z</time>
      </trkpt>
      <trkpt lat="43.33844" lon="2.54795">
        <ele>333.71</ele>
        <time>2015-11-22T11:24:30Z</time>
      </trkpt>
      <trkpt lat="43.33847" lon="2.54795">
        <ele>335.16</ele>
        <time>2015-11-22T11:24:47Z</time>
      </trkpt>
      <trkpt lat="43.33849" lon="2.54792">
        <ele>337.08</ele>
        <time>2015-11-22T11:25:00Z</time>
      </trkpt>
      <trkpt lat="43.33854" lon="2.5479">
        <ele>338.52</ele>
        <time>2015-11-22T11:25:17Z</time>
      </trkpt>
      <trkpt lat="43.33858" lon="2.54788">
        <ele>339.48</ele>
        <time>2015-11-22T11:25:35Z</time>
      </trkpt>
      <trkpt lat="43.33867" lon="2.54783">
        <ele>341.41</ele>
        <time>2015-11-22T11:25:49Z</time>
      </trkpt>
      <trkpt lat="43.33881" lon="2.54771">
        <ele>341.89</ele>
        <time>2015-11-22T11:26:02Z</time>
      </trkpt>
      <trkpt lat="43.33895" lon="2.54763">
        <ele>344.77</ele>
        <time>2015-11-22T11:26:16Z</time>
      </trkpt>
      <trkpt lat="43.33908" lon="2.54758">
        <ele>347.17</ele>
        <time>2015-11-22T11:26:30Z</time>
      </trkpt>
      <trkpt lat="43.33918" lon="2.54754">
        <ele>348.62</ele>
        <time>2015-11-22T11:26:44Z</time>
      </trkpt>
      <trkpt lat="43.33931" lon="2.54749">
        <ele>349.1</ele>
        <time>2015-11-22T11:26:56Z</time>
      </trkpt>
      <trkpt lat="43.33945" lon="2.54746">
        <ele>348.62</ele>
        <time>2015-11-22T11:27:12Z</time>
      </trkpt>
      <trkpt lat="43.33948" lon="2.54745">
        <ele>349.58</ele>
        <time>2015-11-22T11:27:18Z</time>
      </trkpt>
      <trkpt lat="43.33957" lon="2.54747">
        <ele>349.58</ele>
        <time>2015-11-22T11:27:32Z</time>
      </trkpt>
      <trkpt lat="43.33967" lon="2.54739">
        <ele>350.06</ele>
        <time>2015-11-22T11:27:46Z</time>
      </trkpt>
      <trkpt lat="43.33972" lon="2.54738">
        <ele>351.98</ele>
        <time>2015-11-22T11:28:01Z</time>
      </trkpt>
      <trkpt lat="43.33976" lon="2.54737">
        <ele>351.98</ele>
        <time>2015-11-22T11:28:16Z</time>
      </trkpt>
      <trkpt lat="43.33986" lon="2.54732">
        <ele>353.42</ele>
        <time>2015-11-22T11:28:30Z</time>
      </trkpt>
      <trkpt lat="43.33995" lon="2.54729">
        <ele>353.9</ele>
        <time>2015-11-22T11:28:42Z</time>
      </trkpt>
      <trkpt lat="43.34011" lon="2.54722">
        <ele>356.79</ele>
        <time>2015-11-22T11:28:58Z</time>
      </trkpt>
      <trkpt lat="43.3402" lon="2.54716">
        <ele>359.19</ele>
        <time>2015-11-22T11:29:11Z</time>
      </trkpt>
      <trkpt lat="43.34031" lon="2.54713">
        <ele>360.63</ele>
        <time>2015-11-22T11:29:25Z</time>
      </trkpt>
      <trkpt lat="43.34035" lon="2.54712">
        <ele>362.07</ele>
        <time>2015-11-22T11:29:37Z</time>
      </trkpt>
      <trkpt lat="43.34046" lon="2.54708">
        <ele>364.48</ele>
        <time>2015-11-22T11:29:50Z</time>
      </trkpt>
      <trkpt lat="43.34059" lon="2.54703">
        <ele>366.88</ele>
        <time>2015-11-22T11:30:07Z</time>
      </trkpt>
      <trkpt lat="43.34071" lon="2.54705">
        <ele>369.76</ele>
        <time>2015-11-22T11:30:23Z</time>
      </trkpt>
      <trkpt lat="43.34075" lon="2.54707">
        <ele>370.73</ele>
        <time>2015-11-22T11:30:30Z</time>
      </trkpt>
      <trkpt lat="43.34078" lon="2.54705">
        <ele>371.69</ele>
        <time>2015-11-22T11:30:33Z</time>
      </trkpt>
      <trkpt lat="43.341" lon="2.54716">
        <ele>373.13</ele>
        <time>2015-11-22T11:30:53Z</time>
      </trkpt>
      <trkpt lat="43.34114" lon="2.54721">
        <ele>374.09</ele>
        <time>2015-11-22T11:31:06Z</time>
      </trkpt>
      <trkpt lat="43.34116" lon="2.54722">
        <ele>374.09</ele>
        <time>2015-11-22T11:31:09Z</time>
      </trkpt>
      <trkpt lat="43.34125" lon="2.54729">
        <ele>373.61</ele>
        <time>2015-11-22T11:31:19Z</time>
      </trkpt>
      <trkpt lat="43.34131" lon="2.54732">
        <ele>373.61</ele>
        <time>2015-11-22T11:31:24Z</time>
      </trkpt>
      <trkpt lat="43.34141" lon="2.54735">
        <ele>374.09</ele>
        <time>2015-11-22T11:31:34Z</time>
      </trkpt>
      <trkpt lat="43.34144" lon="2.5474">
        <ele>373.61</ele>
        <time>2015-11-22T11:31:40Z</time>
      </trkpt>
      <trkpt lat="43.34154" lon="2.54756">
        <ele>374.09</ele>
        <time>2015-11-22T11:31:56Z</time>
      </trkpt>
      <trkpt lat="43.34156" lon="2.54758">
        <ele>374.57</ele>
        <time>2015-11-22T11:31:59Z</time>
      </trkpt>
      <trkpt lat="43.34168" lon="2.5476">
        <ele>378.42</ele>
        <time>2015-11-22T11:32:14Z</time>
      </trkpt>
      <trkpt lat="43.34176" lon="2.54753">
        <ele>380.34</ele>
        <time>2015-11-22T11:32:26Z</time>
      </trkpt>
      <trkpt lat="43.34181" lon="2.54737">
        <ele>381.78</ele>
        <time>2015-11-22T11:32:42Z</time>
      </trkpt>
      <trkpt lat="43.34185" lon="2.54722">
        <ele>382.26</ele>
        <time>2015-11-22T11:32:57Z</time>
      </trkpt>
      <trkpt lat="43.34189" lon="2.54707">
        <ele>384.18</ele>
        <time>2015-11-22T11:33:14Z</time>
      </trkpt>
      <trkpt lat="43.34199" lon="2.54699">
        <ele>385.15</ele>
        <time>2015-11-22T11:33:27Z</time>
      </trkpt>
      <trkpt lat="43.34209" lon="2.5469">
        <ele>387.07</ele>
        <time>2015-11-22T11:33:43Z</time>
      </trkpt>
      <trkpt lat="43.34213" lon="2.54687">
        <ele>387.55</ele>
        <time>2015-11-22T11:34:00Z</time>
      </trkpt>
      <trkpt lat="43.34214" lon="2.54687">
        <ele>388.51</ele>
        <time>2015-11-22T11:34:10Z</time>
      </trkpt>
      <trkpt lat="43.34222" lon="2.54695">
        <ele>390.43</ele>
        <time>2015-11-22T11:34:20Z</time>
      </trkpt>
      <trkpt lat="43.34227" lon="2.54703">
        <ele>390.91</ele>
        <time>2015-11-22T11:34:27Z</time>
      </trkpt>
      <trkpt lat="43.34229" lon="2.54707">
        <ele>391.39</ele>
        <time>2015-11-22T11:34:30Z</time>
      </trkpt>
      <trkpt lat="43.34241" lon="2.54724">
        <ele>391.87</ele>
        <time>2015-11-22T11:34:45Z</time>
      </trkpt>
      <trkpt lat="43.34252" lon="2.54739">
        <ele>393.32</ele>
        <time>2015-11-22T11:35:00Z</time>
      </trkpt>
      <trkpt lat="43.34253" lon="2.54742">
        <ele>393.32</ele>
        <time>2015-11-22T11:35:02Z</time>
      </trkpt>
      <trkpt lat="43.34265" lon="2.54757">
        <ele>392.84</ele>
        <time>2015-11-22T11:35:18Z</time>
      </trkpt>
      <trkpt lat="43.34267" lon="2.54762">
        <ele>393.32</ele>
        <time>2015-11-22T11:35:22Z</time>
      </trkpt>
      <trkpt lat="43.3427" lon="2.54774">
        <ele>393.8</ele>
        <time>2015-11-22T11:35:29Z</time>
      </trkpt>
      <trkpt lat="43.34274" lon="2.54801">
        <ele>394.76</ele>
        <time>2015-11-22T11:35:46Z</time>
      </trkpt>
      <trkpt lat="43.34275" lon="2.54805">
        <ele>394.76</ele>
        <time>2015-11-22T11:35:49Z</time>
      </trkpt>
      <trkpt lat="43.34279" lon="2.54822">
        <ele>394.76</ele>
        <time>2015-11-22T11:36:06Z</time>
      </trkpt>
      <trkpt lat="43.34279" lon="2.54827">
        <ele>394.28</ele>
        <time>2015-11-22T11:36:23Z</time>
      </trkpt>
      <trkpt lat="43.34278" lon="2.54855">
        <ele>395.72</ele>
        <time>2015-11-22T11:36:41Z</time>
      </trkpt>
      <trkpt lat="43.34282" lon="2.54881">
        <ele>396.2</ele>
        <time>2015-11-22T11:36:57Z</time>
      </trkpt>
      <trkpt lat="43.34286" lon="2.54914">
        <ele>397.16</ele>
        <time>2015-11-22T11:37:17Z</time>
      </trkpt>
      <trkpt lat="43.34292" lon="2.54937">
        <ele>398.6</ele>
        <time>2015-11-22T11:37:33Z</time>
      </trkpt>
      <trkpt lat="43.34286" lon="2.54962">
        <ele>399.08</ele>
        <time>2015-11-22T11:37:51Z</time>
      </trkpt>
      <trkpt lat="43.34285" lon="2.54972">
        <ele>399.57</ele>
        <time>2015-11-22T11:37:58Z</time>
      </trkpt>
      <trkpt lat="43.34294" lon="2.54986">
        <ele>401.01</ele>
        <time>2015-11-22T11:38:14Z</time>
      </trkpt>
      <trkpt lat="43.34297" lon="2.54991">
        <ele>401.97</ele>
        <time>2015-11-22T11:38:27Z</time>
      </trkpt>
      <trkpt lat="43.34302" lon="2.54998">
        <ele>402.93</ele>
        <time>2015-11-22T11:38:42Z</time>
      </trkpt>
      <trkpt lat="43.34305" lon="2.55009">
        <ele>404.37</ele>
        <time>2015-11-22T11:38:55Z</time>
      </trkpt>
      <trkpt lat="43.34302" lon="2.5502">
        <ele>404.37</ele>
        <time>2015-11-22T11:39:09Z</time>
      </trkpt>
      <trkpt lat="43.34306" lon="2.5503">
        <ele>404.85</ele>
        <time>2015-11-22T11:39:22Z</time>
      </trkpt>
      <trkpt lat="43.34318" lon="2.55028">
        <ele>404.85</ele>
        <time>2015-11-22T11:39:37Z</time>
      </trkpt>
      <trkpt lat="43.34326" lon="2.55017">
        <ele>404.37</ele>
        <time>2015-11-22T11:39:51Z</time>
      </trkpt>
      <trkpt lat="43.34331" lon="2.55017">
        <ele>405.33</ele>
        <time>2015-11-22T11:40:04Z</time>
      </trkpt>
      <trkpt lat="43.34342" lon="2.55014">
        <ele>407.26</ele>
        <time>2015-11-22T11:40:19Z</time>
      </trkpt>
      <trkpt lat="43.3435" lon="2.5501">
        <ele>408.7</ele>
        <time>2015-11-22T11:40:32Z</time>
      </trkpt>
      <trkpt lat="43.34351" lon="2.55012">
        <ele>408.7</ele>
        <time>2015-11-22T11:40:49Z</time>
      </trkpt>
      <trkpt lat="43.34356" lon="2.54999">
        <ele>409.18</ele>
        <time>2015-11-22T11:41:02Z</time>
      </trkpt>
      <trkpt lat="43.34361" lon="2.5499">
        <ele>410.62</ele>
        <time>2015-11-22T11:41:15Z</time>
      </trkpt>
      <trkpt lat="43.34363" lon="2.54982">
        <ele>411.1</ele>
        <time>2015-11-22T11:41:29Z</time>
      </trkpt>
      <trkpt lat="43.34361" lon="2.54973">
        <ele>411.1</ele>
        <time>2015-11-22T11:41:45Z</time>
      </trkpt>
      <trkpt lat="43.34357" lon="2.54967">
        <ele>410.14</ele>
        <time>2015-11-22T11:42:00Z</time>
      </trkpt>
      <trkpt lat="43.34354" lon="2.5496">
        <ele>410.14</ele>
        <time>2015-11-22T11:42:14Z</time>
      </trkpt>
      <trkpt lat="43.34354" lon="2.54964">
        <ele>410.14</ele>
        <time>2015-11-22T11:42:29Z</time>
      </trkpt>
      <trkpt lat="43.3436" lon="2.54979">
        <ele>412.06</ele>
        <time>2015-11-22T11:42:44Z</time>
      </trkpt>
      <trkpt lat="43.34359" lon="2.54992">
        <ele>413.02</ele>
        <time>2015-11-22T11:42:58Z</time>
      </trkpt>
      <trkpt lat="43.34354" lon="2.55002">
        <ele>410.62</ele>
        <time>2015-11-22T11:43:14Z</time>
      </trkpt>
      <trkpt lat="43.34348" lon="2.55012">
        <ele>409.66</ele>
        <time>2015-11-22T11:43:28Z</time>
      </trkpt>
      <trkpt lat="43.34341" lon="2.55014">
        <ele>407.74</ele>
        <time>2015-11-22T11:43:40Z</time>
      </trkpt>
      <trkpt lat="43.34333" lon="2.55016">
        <ele>405.81</ele>
        <time>2015-11-22T11:43:53Z</time>
      </trkpt>
      <trkpt lat="43.34326" lon="2.55016">
        <ele>404.37</ele>
        <time>2015-11-22T11:44:09Z</time>
      </trkpt>
      <trkpt lat="43.34323" lon="2.55018">
        <ele>404.37</ele>
        <time>2015-11-22T11:44:19Z</time>
      </trkpt>
      <trkpt lat="43.3432" lon="2.55024">
        <ele>404.37</ele>
        <time>2015-11-22T11:44:27Z</time>
      </trkpt>
      <trkpt lat="43.34312" lon="2.55031">
        <ele>403.89</ele>
        <time>2015-11-22T11:44:41Z</time>
      </trkpt>
      <trkpt lat="43.34305" lon="2.55027">
        <ele>403.41</ele>
        <time>2015-11-22T11:44:54Z</time>
      </trkpt>
      <trkpt lat="43.34303" lon="2.55023">
        <ele>402.93</ele>
        <time>2015-11-22T11:45:07Z</time>
      </trkpt>
      <trkpt lat="43.34303" lon="2.55024">
        <ele>403.41</ele>
        <time>2015-11-22T11:45:31Z</time>
      </trkpt>
      <trkpt lat="43.34303" lon="2.55019">
        <ele>403.41</ele>
        <time>2015-11-22T11:45:44Z</time>
      </trkpt>
      <trkpt lat="43.34305" lon="2.55009">
        <ele>403.89</ele>
        <time>2015-11-22T11:46:03Z</time>
      </trkpt>
      <trkpt lat="43.34304" lon="2.55">
        <ele>403.89</ele>
        <time>2015-11-22T11:46:17Z</time>
      </trkpt>
      <trkpt lat="43.34302" lon="2.54992">
        <ele>401.49</ele>
        <time>2015-11-22T11:46:33Z</time>
      </trkpt>
      <trkpt lat="43.34306" lon="2.54991">
        <ele>400.05</ele>
        <time>2015-11-22T11:46:46Z</time>
      </trkpt>
      <trkpt lat="43.34307" lon="2.5499">
        <ele>400.05</ele>
        <time>2015-11-22T11:47:11Z</time>
      </trkpt>
      <trkpt lat="43.34307" lon="2.54991">
        <ele>399.57</ele>
        <time>2015-11-22T11:47:42Z</time>
      </trkpt>
      <trkpt lat="43.34308" lon="2.54992">
        <ele>398.6</ele>
        <time>2015-11-22T11:48:24Z</time>
      </trkpt>
      <trkpt lat="43.34308" lon="2.54989">
        <ele>399.08</ele>
        <time>2015-11-22T11:48:47Z</time>
      </trkpt>
      <trkpt lat="43.3431" lon="2.54989">
        <ele>399.08</ele>
        <time>2015-11-22T11:49:05Z</time>
      </trkpt>
      <trkpt lat="43.34311" lon="2.5499">
        <ele>398.12</ele>
        <time>2015-11-22T11:49:24Z</time>
      </trkpt>
      <trkpt lat="43.34311" lon="2.54989">
        <ele>397.64</ele>
        <time>2015-11-22T11:49:37Z</time>
      </trkpt>
      <trkpt lat="43.34309" lon="2.54989">
        <ele>395.24</ele>
        <time>2015-11-22T11:49:58Z</time>
      </trkpt>
      <trkpt lat="43.34308" lon="2.54989">
        <ele>393.8</ele>
        <time>2015-11-22T11:50:25Z</time>
      </trkpt>
      <trkpt lat="43.34309" lon="2.5499">
        <ele>393.8</ele>
        <time>2015-11-22T11:50:44Z</time>
      </trkpt>
      <trkpt lat="43.3431" lon="2.54989">
        <ele>393.8</ele>
        <time>2015-11-22T11:51:20Z</time>
      </trkpt>
      <trkpt lat="43.34311" lon="2.54989">
        <ele>393.8</ele>
        <time>2015-11-22T11:51:59Z</time>
      </trkpt>
      <trkpt lat="43.34311" lon="2.5499">
        <ele>394.28</ele>
        <time>2015-11-22T11:52:32Z</time>
      </trkpt>
      <trkpt lat="43.34312" lon="2.5499">
        <ele>395.72</ele>
        <time>2015-11-22T11:53:15Z</time>
      </trkpt>
      <trkpt lat="43.34313" lon="2.54991">
        <ele>396.68</ele>
        <time>2015-11-22T11:54:05Z</time>
      </trkpt>
      <trkpt lat="43.34313" lon="2.5499">
        <ele>396.68</ele>
        <time>2015-11-22T11:54:49Z</time>
      </trkpt>
      <trkpt lat="43.34312" lon="2.5499">
        <ele>395.72</ele>
        <time>2015-11-22T11:55:21Z</time>
      </trkpt>
      <trkpt lat="43.34312" lon="2.54989">
        <ele>395.72</ele>
        <time>2015-11-22T11:55:58Z</time>
      </trkpt>
      <trkpt lat="43.34312" lon="2.5499">
        <ele>395.24</ele>
        <time>2015-11-22T11:56:34Z</time>
      </trkpt>
      <trkpt lat="43.34312" lon="2.5499">
        <ele>395.72</ele>
        <time>2015-11-22T11:57:11Z</time>
      </trkpt>
      <trkpt lat="43.34313" lon="2.54989">
        <ele>396.2</ele>
        <time>2015-11-22T11:57:38Z</time>
      </trkpt>
      <trkpt lat="43.34315" lon="2.54989">
        <ele>397.64</ele>
        <time>2015-11-22T11:58:18Z</time>
      </trkpt>
      <trkpt lat="43.34314" lon="2.5499">
        <ele>399.08</ele>
        <time>2015-11-22T11:58:52Z</time>
      </trkpt>
      <trkpt lat="43.34313" lon="2.54989">
        <ele>399.08</ele>
        <time>2015-11-22T11:59:34Z</time>
      </trkpt>
      <trkpt lat="43.34313" lon="2.54988">
        <ele>399.57</ele>
        <time>2015-11-22T12:00:10Z</time>
      </trkpt>
      <trkpt lat="43.34313" lon="2.54988">
        <ele>399.57</ele>
        <time>2015-11-22T12:00:44Z</time>
      </trkpt>
      <trkpt lat="43.34313" lon="2.54988">
        <ele>399.57</ele>
        <time>2015-11-22T12:01:20Z</time>
      </trkpt>
      <trkpt lat="43.34314" lon="2.54988">
        <ele>401.49</ele>
        <time>2015-11-22T12:01:54Z</time>
      </trkpt>
      <trkpt lat="43.34315" lon="2.54989">
        <ele>402.45</ele>
        <time>2015-11-22T12:02:31Z</time>
      </trkpt>
      <trkpt lat="43.34315" lon="2.54989">
        <ele>403.41</ele>
        <time>2015-11-22T12:03:03Z</time>
      </trkpt>
      <trkpt lat="43.34315" lon="2.54989">
        <ele>403.89</ele>
        <time>2015-11-22T12:03:40Z</time>
      </trkpt>
      <trkpt lat="43.34317" lon="2.54989">
        <ele>404.37</ele>
        <time>2015-11-22T12:04:18Z</time>
      </trkpt>
      <trkpt lat="43.34317" lon="2.5499">
        <ele>405.33</ele>
        <time>2015-11-22T12:04:55Z</time>
      </trkpt>
      <trkpt lat="43.34317" lon="2.5499">
        <ele>405.33</ele>
        <time>2015-11-22T12:05:28Z</time>
      </trkpt>
      <trkpt lat="43.34316" lon="2.5499">
        <ele>405.81</ele>
        <time>2015-11-22T12:06:07Z</time>
      </trkpt>
      <trkpt lat="43.34316" lon="2.54988">
        <ele>406.29</ele>
        <time>2015-11-22T12:06:47Z</time>
      </trkpt>
      <trkpt lat="43.34315" lon="2.54987">
        <ele>405.81</ele>
        <time>2015-11-22T12:07:27Z</time>
      </trkpt>
      <trkpt lat="43.34315" lon="2.54987">
        <ele>405.81</ele>
        <time>2015-11-22T12:08:03Z</time>
      </trkpt>
      <trkpt lat="43.34313" lon="2.54987">
        <ele>405.33</ele>
        <time>2015-11-22T12:08:47Z</time>
      </trkpt>
      <trkpt lat="43.34313" lon="2.54986">
        <ele>404.85</ele>
        <time>2015-11-22T12:09:29Z</time>
      </trkpt>
      <trkpt lat="43.34312" lon="2.54986">
        <ele>403.89</ele>
        <time>2015-11-22T12:10:07Z</time>
      </trkpt>
      <trkpt lat="43.34312" lon="2.54986">
        <ele>403.41</ele>
        <time>2015-11-22T12:10:43Z</time>
      </trkpt>
      <trkpt lat="43.34313" lon="2.54985">
        <ele>403.41</ele>
        <time>2015-11-22T12:11:21Z</time>
      </trkpt>
      <trkpt lat="43.34312" lon="2.54986">
        <ele>403.89</ele>
        <time>2015-11-22T12:11:59Z</time>
      </trkpt>
      <trkpt lat="43.34312" lon="2.54987">
        <ele>403.89</ele>
        <time>2015-11-22T12:12:25Z</time>
      </trkpt>
      <trkpt lat="43.34314" lon="2.54987">
        <ele>404.85</ele>
        <time>2015-11-22T12:13:11Z</time>
      </trkpt>
      <trkpt lat="43.34314" lon="2.54988">
        <ele>404.85</ele>
        <time>2015-11-22T12:13:48Z</time>
      </trkpt>
      <trkpt lat="43.34314" lon="2.54987">
        <ele>403.89</ele>
        <time>2015-11-22T12:14:18Z</time>
      </trkpt>
      <trkpt lat="43.34314" lon="2.54987">
        <ele>403.89</ele>
        <time>2015-11-22T12:15:01Z</time>
      </trkpt>
      <trkpt lat="43.34314" lon="2.54987">
        <ele>402.93</ele>
        <time>2015-11-22T12:15:44Z</time>
      </trkpt>
      <trkpt lat="43.34313" lon="2.54988">
        <ele>402.45</ele>
        <time>2015-11-22T12:16:17Z</time>
      </trkpt>
      <trkpt lat="43.34313" lon="2.54988">
        <ele>401.97</ele>
        <time>2015-11-22T12:16:53Z</time>
      </trkpt>
      <trkpt lat="43.34314" lon="2.54987">
        <ele>401.49</ele>
        <time>2015-11-22T12:17:24Z</time>
      </trkpt>
      <trkpt lat="43.34314" lon="2.54987">
        <ele>401.01</ele>
        <time>2015-11-22T12:17:56Z</time>
      </trkpt>
      <trkpt lat="43.34313" lon="2.54987">
        <ele>401.01</ele>
        <time>2015-11-22T12:18:23Z</time>
      </trkpt>
      <trkpt lat="43.34313" lon="2.54988">
        <ele>401.01</ele>
        <time>2015-11-22T12:19:00Z</time>
      </trkpt>
      <trkpt lat="43.34313" lon="2.54989">
        <ele>401.01</ele>
        <time>2015-11-22T12:19:34Z</time>
      </trkpt>
      <trkpt lat="43.34312" lon="2.54989">
        <ele>400.53</ele>
        <time>2015-11-22T12:20:09Z</time>
      </trkpt>
      <trkpt lat="43.34313" lon="2.54987">
        <ele>400.05</ele>
        <time>2015-11-22T12:20:46Z</time>
      </trkpt>
      <trkpt lat="43.34313" lon="2.54987">
        <ele>399.57</ele>
        <time>2015-11-22T12:21:15Z</time>
      </trkpt>
      <trkpt lat="43.34312" lon="2.54987">
        <ele>399.08</ele>
        <time>2015-11-22T12:21:53Z</time>
      </trkpt>
      <trkpt lat="43.34313" lon="2.54987">
        <ele>399.57</ele>
        <time>2015-11-22T12:22:26Z</time>
      </trkpt>
      <trkpt lat="43.34314" lon="2.54988">
        <ele>399.08</ele>
        <time>2015-11-22T12:22:53Z</time>
      </trkpt>
      <trkpt lat="43.34313" lon="2.54988">
        <ele>400.05</ele>
        <time>2015-11-22T12:23:19Z</time>
      </trkpt>
      <trkpt lat="43.34312" lon="2.54988">
        <ele>399.57</ele>
        <time>2015-11-22T12:23:35Z</time>
      </trkpt>
      <trkpt lat="43.34313" lon="2.54988">
        <ele>399.57</ele>
        <time>2015-11-22T12:23:58Z</time>
      </trkpt>
      <trkpt lat="43.34315" lon="2.54989">
        <ele>399.57</ele>
        <time>2015-11-22T12:24:37Z</time>
      </trkpt>
      <trkpt lat="43.34314" lon="2.54988">
        <ele>399.57</ele>
        <time>2015-11-22T12:25:12Z</time>
      </trkpt>
      <trkpt lat="43.34313" lon="2.54988">
        <ele>399.08</ele>
        <time>2015-11-22T12:25:45Z</time>
      </trkpt>
      <trkpt lat="43.34312" lon="2.54989">
        <ele>400.05</ele>
        <time>2015-11-22T12:26:20Z</time>
      </trkpt>
      <trkpt lat="43.34312" lon="2.54989">
        <ele>399.08</ele>
        <time>2015-11-22T12:26:56Z</time>
      </trkpt>
      <trkpt lat="43.34313" lon="2.54989">
        <ele>397.64</ele>
        <time>2015-11-22T12:27:26Z</time>
      </trkpt>
      <trkpt lat="43.34312" lon="2.54989">
        <ele>397.16</ele>
        <time>2015-11-22T12:27:56Z</time>
      </trkpt>
      <trkpt lat="43.34313" lon="2.54989">
        <ele>397.16</ele>
        <time>2015-11-22T12:28:26Z</time>
      </trkpt>
      <trkpt lat="43.34312" lon="2.54989">
        <ele>397.16</ele>
        <time>2015-11-22T12:28:55Z</time>
      </trkpt>
      <trkpt lat="43.34313" lon="2.54989">
        <ele>397.64</ele>
        <time>2015-11-22T12:29:09Z</time>
      </trkpt>
      <trkpt lat="43.34313" lon="2.54989">
        <ele>397.64</ele>
        <time>2015-11-22T12:29:25Z</time>
      </trkpt>
      <trkpt lat="43.34313" lon="2.54989">
        <ele>397.16</ele>
        <time>2015-11-22T12:29:47Z</time>
      </trkpt>
      <trkpt lat="43.34312" lon="2.54989">
        <ele>397.16</ele>
        <time>2015-11-22T12:30:05Z</time>
      </trkpt>
      <trkpt lat="43.34312" lon="2.54989">
        <ele>397.64</ele>
        <time>2015-11-22T12:30:23Z</time>
      </trkpt>
      <trkpt lat="43.34305" lon="2.5499">
        <ele>396.68</ele>
        <time>2015-11-22T12:30:37Z</time>
      </trkpt>
      <trkpt lat="43.34303" lon="2.54993">
        <ele>400.05</ele>
        <time>2015-11-22T12:30:49Z</time>
      </trkpt>
      <trkpt lat="43.34306" lon="2.54998">
        <ele>401.01</ele>
        <time>2015-11-22T12:31:01Z</time>
      </trkpt>
      <trkpt lat="43.34307" lon="2.55008">
        <ele>401.97</ele>
        <time>2015-11-22T12:31:12Z</time>
      </trkpt>
      <trkpt lat="43.34305" lon="2.55027">
        <ele>400.05</ele>
        <time>2015-11-22T12:31:27Z</time>
      </trkpt>
      <trkpt lat="43.34311" lon="2.55029">
        <ele>398.6</ele>
        <time>2015-11-22T12:31:34Z</time>
      </trkpt>
      <trkpt lat="43.34317" lon="2.55029">
        <ele>399.08</ele>
        <time>2015-11-22T12:31:47Z</time>
      </trkpt>
      <trkpt lat="43.34323" lon="2.5502">
        <ele>401.49</ele>
        <time>2015-11-22T12:32:00Z</time>
      </trkpt>
      <trkpt lat="43.34331" lon="2.55016">
        <ele>402.93</ele>
        <time>2015-11-22T12:32:13Z</time>
      </trkpt>
      <trkpt lat="43.34339" lon="2.55018">
        <ele>404.85</ele>
        <time>2015-11-22T12:32:25Z</time>
      </trkpt>
      <trkpt lat="43.34339" lon="2.55018">
        <ele>404.85</ele>
        <time>2015-11-22T12:32:47Z</time>
      </trkpt>
      <trkpt lat="43.34339" lon="2.55017">
        <ele>404.37</ele>
        <time>2015-11-22T12:33:08Z</time>
      </trkpt>
      <trkpt lat="43.34348" lon="2.55013">
        <ele>405.81</ele>
        <time>2015-11-22T12:33:20Z</time>
      </trkpt>
      <trkpt lat="43.3435" lon="2.55012">
        <ele>406.29</ele>
        <time>2015-11-22T12:33:23Z</time>
      </trkpt>
      <trkpt lat="43.3436" lon="2.54996">
        <ele>408.7</ele>
        <time>2015-11-22T12:33:39Z</time>
      </trkpt>
      <trkpt lat="43.34363" lon="2.54986">
        <ele>410.14</ele>
        <time>2015-11-22T12:33:48Z</time>
      </trkpt>
      <trkpt lat="43.3437" lon="2.54977">
        <ele>410.14</ele>
        <time>2015-11-22T12:33:56Z</time>
      </trkpt>
      <trkpt lat="43.34374" lon="2.54972">
        <ele>411.1</ele>
        <time>2015-11-22T12:34:02Z</time>
      </trkpt>
      <trkpt lat="43.34389" lon="2.5496">
        <ele>413.02</ele>
        <time>2015-11-22T12:34:19Z</time>
      </trkpt>
      <trkpt lat="43.34395" lon="2.54956">
        <ele>414.47</ele>
        <time>2015-11-22T12:34:26Z</time>
      </trkpt>
      <trkpt lat="43.34401" lon="2.54953">
        <ele>415.43</ele>
        <time>2015-11-22T12:34:32Z</time>
      </trkpt>
      <trkpt lat="43.34418" lon="2.54948">
        <ele>417.35</ele>
        <time>2015-11-22T12:34:47Z</time>
      </trkpt>
      <trkpt lat="43.34438" lon="2.54944">
        <ele>418.31</ele>
        <time>2015-11-22T12:35:04Z</time>
      </trkpt>
      <trkpt lat="43.34461" lon="2.5494">
        <ele>419.27</ele>
        <time>2015-11-22T12:35:23Z</time>
      </trkpt>
      <trkpt lat="43.34481" lon="2.54953">
        <ele>420.23</ele>
        <time>2015-11-22T12:35:41Z</time>
      </trkpt>
      <trkpt lat="43.34499" lon="2.54965">
        <ele>421.19</ele>
        <time>2015-11-22T12:35:58Z</time>
      </trkpt>
      <trkpt lat="43.34505" lon="2.54972">
        <ele>421.68</ele>
        <time>2015-11-22T12:36:05Z</time>
      </trkpt>
      <trkpt lat="43.34522" lon="2.54988">
        <ele>425.04</ele>
        <time>2015-11-22T12:36:24Z</time>
      </trkpt>
      <trkpt lat="43.34533" lon="2.55012">
        <ele>426.48</ele>
        <time>2015-11-22T12:36:42Z</time>
      </trkpt>
      <trkpt lat="43.34542" lon="2.5504">
        <ele>425.04</ele>
        <time>2015-11-22T12:37:01Z</time>
      </trkpt>
      <trkpt lat="43.3455" lon="2.5507">
        <ele>425.52</ele>
        <time>2015-11-22T12:37:21Z</time>
      </trkpt>
      <trkpt lat="43.34557" lon="2.55097">
        <ele>426</ele>
        <time>2015-11-22T12:37:39Z</time>
      </trkpt>
      <trkpt lat="43.34565" lon="2.55124">
        <ele>426.48</ele>
        <time>2015-11-22T12:37:57Z</time>
      </trkpt>
      <trkpt lat="43.34574" lon="2.55145">
        <ele>426.96</ele>
        <time>2015-11-22T12:38:12Z</time>
      </trkpt>
      <trkpt lat="43.34588" lon="2.55161">
        <ele>426.96</ele>
        <time>2015-11-22T12:38:28Z</time>
      </trkpt>
      <trkpt lat="43.34604" lon="2.55177">
        <ele>426.96</ele>
        <time>2015-11-22T12:38:45Z</time>
      </trkpt>
      <trkpt lat="43.34621" lon="2.55193">
        <ele>427.44</ele>
        <time>2015-11-22T12:39:03Z</time>
      </trkpt>
      <trkpt lat="43.34632" lon="2.55201">
        <ele>427.92</ele>
        <time>2015-11-22T12:39:15Z</time>
      </trkpt>
      <trkpt lat="43.34647" lon="2.55211">
        <ele>428.89</ele>
        <time>2015-11-22T12:39:32Z</time>
      </trkpt>
      <trkpt lat="43.34661" lon="2.5522">
        <ele>429.85</ele>
        <time>2015-11-22T12:39:48Z</time>
      </trkpt>
      <trkpt lat="43.34675" lon="2.55224">
        <ele>432.25</ele>
        <time>2015-11-22T12:40:03Z</time>
      </trkpt>
      <trkpt lat="43.3469" lon="2.55227">
        <ele>436.1</ele>
        <time>2015-11-22T12:40:19Z</time>
      </trkpt>
      <trkpt lat="43.34694" lon="2.55228">
        <ele>437.06</ele>
        <time>2015-11-22T12:40:23Z</time>
      </trkpt>
      <trkpt lat="43.34698" lon="2.55228">
        <ele>437.06</ele>
        <time>2015-11-22T12:40:27Z</time>
      </trkpt>
      <trkpt lat="43.34711" lon="2.5523">
        <ele>439.46</ele>
        <time>2015-11-22T12:40:42Z</time>
      </trkpt>
      <trkpt lat="43.34726" lon="2.55234">
        <ele>440.9</ele>
        <time>2015-11-22T12:40:57Z</time>
      </trkpt>
      <trkpt lat="43.34739" lon="2.55239">
        <ele>444.27</ele>
        <time>2015-11-22T12:41:12Z</time>
      </trkpt>
      <trkpt lat="43.34743" lon="2.55239">
        <ele>445.23</ele>
        <time>2015-11-22T12:41:17Z</time>
      </trkpt>
      <trkpt lat="43.34759" lon="2.55238">
        <ele>450.03</ele>
        <time>2015-11-22T12:41:33Z</time>
      </trkpt>
      <trkpt lat="43.34776" lon="2.55244">
        <ele>451.48</ele>
        <time>2015-11-22T12:41:50Z</time>
      </trkpt>
      <trkpt lat="43.34795" lon="2.55245">
        <ele>452.44</ele>
        <time>2015-11-22T12:42:08Z</time>
      </trkpt>
      <trkpt lat="43.34814" lon="2.55248">
        <ele>454.84</ele>
        <time>2015-11-22T12:42:26Z</time>
      </trkpt>
      <trkpt lat="43.34829" lon="2.55257">
        <ele>455.8</ele>
        <time>2015-11-22T12:42:43Z</time>
      </trkpt>
      <trkpt lat="43.34839" lon="2.55266">
        <ele>454.36</ele>
        <time>2015-11-22T12:42:54Z</time>
      </trkpt>
      <trkpt lat="43.34858" lon="2.55265">
        <ele>454.36</ele>
        <time>2015-11-22T12:43:11Z</time>
      </trkpt>
      <trkpt lat="43.34876" lon="2.55263">
        <ele>458.21</ele>
        <time>2015-11-22T12:43:29Z</time>
      </trkpt>
      <trkpt lat="43.34899" lon="2.55268">
        <ele>458.69</ele>
        <time>2015-11-22T12:43:48Z</time>
      </trkpt>
      <trkpt lat="43.34909" lon="2.55272">
        <ele>458.69</ele>
        <time>2015-11-22T12:43:57Z</time>
      </trkpt>
      <trkpt lat="43.34924" lon="2.55283">
        <ele>454.84</ele>
        <time>2015-11-22T12:44:11Z</time>
      </trkpt>
      <trkpt lat="43.34941" lon="2.55296">
        <ele>452.92</ele>
        <time>2015-11-22T12:44:28Z</time>
      </trkpt>
      <trkpt lat="43.34946" lon="2.55296">
        <ele>452.44</ele>
        <time>2015-11-22T12:44:32Z</time>
      </trkpt>
      <trkpt lat="43.3496" lon="2.55312">
        <ele>450.52</ele>
        <time>2015-11-22T12:44:48Z</time>
      </trkpt>
      <trkpt lat="43.3497" lon="2.55327">
        <ele>449.55</ele>
        <time>2015-11-22T12:45:01Z</time>
      </trkpt>
      <trkpt lat="43.34976" lon="2.55338">
        <ele>448.59</ele>
        <time>2015-11-22T12:45:10Z</time>
      </trkpt>
      <trkpt lat="43.34981" lon="2.55347">
        <ele>449.55</ele>
        <time>2015-11-22T12:45:17Z</time>
      </trkpt>
      <trkpt lat="43.34987" lon="2.55372">
        <ele>452.44</ele>
        <time>2015-11-22T12:45:35Z</time>
      </trkpt>
      <trkpt lat="43.34987" lon="2.55377">
        <ele>453.4</ele>
        <time>2015-11-22T12:45:38Z</time>
      </trkpt>
      <trkpt lat="43.34978" lon="2.554">
        <ele>455.32</ele>
        <time>2015-11-22T12:45:57Z</time>
      </trkpt>
      <trkpt lat="43.34966" lon="2.55422">
        <ele>456.76</ele>
        <time>2015-11-22T12:46:15Z</time>
      </trkpt>
      <trkpt lat="43.34966" lon="2.55449">
        <ele>456.76</ele>
        <time>2015-11-22T12:46:32Z</time>
      </trkpt>
      <trkpt lat="43.34961" lon="2.5548">
        <ele>456.28</ele>
        <time>2015-11-22T12:46:52Z</time>
      </trkpt>
      <trkpt lat="43.34961" lon="2.55512">
        <ele>457.72</ele>
        <time>2015-11-22T12:47:12Z</time>
      </trkpt>
      <trkpt lat="43.34961" lon="2.5554">
        <ele>459.17</ele>
        <time>2015-11-22T12:47:30Z</time>
      </trkpt>
      <trkpt lat="43.3496" lon="2.55563">
        <ele>459.17</ele>
        <time>2015-11-22T12:47:45Z</time>
      </trkpt>
      <trkpt lat="43.34956" lon="2.55591">
        <ele>458.69</ele>
        <time>2015-11-22T12:48:02Z</time>
      </trkpt>
      <trkpt lat="43.34953" lon="2.55624">
        <ele>455.8</ele>
        <time>2015-11-22T12:48:23Z</time>
      </trkpt>
      <trkpt lat="43.34954" lon="2.55642">
        <ele>456.76</ele>
        <time>2015-11-22T12:48:41Z</time>
      </trkpt>
      <trkpt lat="43.34953" lon="2.55645">
        <ele>458.69</ele>
        <time>2015-11-22T12:48:59Z</time>
      </trkpt>
      <trkpt lat="43.34958" lon="2.55644">
        <ele>460.13</ele>
        <time>2015-11-22T12:49:12Z</time>
      </trkpt>
      <trkpt lat="43.34958" lon="2.55643">
        <ele>459.17</ele>
        <time>2015-11-22T12:49:31Z</time>
      </trkpt>
      <trkpt lat="43.34958" lon="2.55642">
        <ele>459.65</ele>
        <time>2015-11-22T12:49:47Z</time>
      </trkpt>
      <trkpt lat="43.34957" lon="2.5564">
        <ele>459.17</ele>
        <time>2015-11-22T12:50:04Z</time>
      </trkpt>
      <trkpt lat="43.34956" lon="2.5564">
        <ele>459.65</ele>
        <time>2015-11-22T12:50:19Z</time>
      </trkpt>
      <trkpt lat="43.34955" lon="2.5564">
        <ele>460.13</ele>
        <time>2015-11-22T12:50:43Z</time>
      </trkpt>
      <trkpt lat="43.34958" lon="2.55641">
        <ele>460.61</ele>
        <time>2015-11-22T12:50:56Z</time>
      </trkpt>
      <trkpt lat="43.34963" lon="2.55639">
        <ele>462.53</ele>
        <time>2015-11-22T12:51:04Z</time>
      </trkpt>
      <trkpt lat="43.34977" lon="2.55621">
        <ele>464.45</ele>
        <time>2015-11-22T12:51:23Z</time>
      </trkpt>
      <trkpt lat="43.34991" lon="2.55619">
        <ele>467.82</ele>
        <time>2015-11-22T12:51:40Z</time>
      </trkpt>
      <trkpt lat="43.34996" lon="2.55625">
        <ele>468.3</ele>
        <time>2015-11-22T12:51:48Z</time>
      </trkpt>
      <trkpt lat="43.35004" lon="2.55643">
        <ele>468.3</ele>
        <time>2015-11-22T12:52:04Z</time>
      </trkpt>
      <trkpt lat="43.35009" lon="2.55653">
        <ele>468.78</ele>
        <time>2015-11-22T12:52:13Z</time>
      </trkpt>
      <trkpt lat="43.35012" lon="2.55658">
        <ele>469.26</ele>
        <time>2015-11-22T12:52:18Z</time>
      </trkpt>
      <trkpt lat="43.35018" lon="2.5567">
        <ele>469.26</ele>
        <time>2015-11-22T12:52:28Z</time>
      </trkpt>
      <trkpt lat="43.35033" lon="2.55685">
        <ele>471.18</ele>
        <time>2015-11-22T12:52:46Z</time>
      </trkpt>
      <trkpt lat="43.3504" lon="2.55695">
        <ele>472.14</ele>
        <time>2015-11-22T12:52:57Z</time>
      </trkpt>
      <trkpt lat="43.35053" lon="2.55706">
        <ele>473.11</ele>
        <time>2015-11-22T12:53:13Z</time>
      </trkpt>
      <trkpt lat="43.35061" lon="2.55704">
        <ele>475.03</ele>
        <time>2015-11-22T12:53:24Z</time>
      </trkpt>
      <trkpt lat="43.35072" lon="2.55685">
        <ele>475.99</ele>
        <time>2015-11-22T12:53:40Z</time>
      </trkpt>
      <trkpt lat="43.35074" lon="2.55684">
        <ele>475.99</ele>
        <time>2015-11-22T12:53:42Z</time>
      </trkpt>
      <trkpt lat="43.35088" lon="2.55668">
        <ele>477.91</ele>
        <time>2015-11-22T12:53:58Z</time>
      </trkpt>
      <trkpt lat="43.35107" lon="2.55652">
        <ele>479.84</ele>
        <time>2015-11-22T12:54:17Z</time>
      </trkpt>
      <trkpt lat="43.35121" lon="2.55649">
        <ele>480.32</ele>
        <time>2015-11-22T12:54:30Z</time>
      </trkpt>
      <trkpt lat="43.35123" lon="2.5565">
        <ele>480.32</ele>
        <time>2015-11-22T12:54:32Z</time>
      </trkpt>
      <trkpt lat="43.35141" lon="2.55652">
        <ele>482.24</ele>
        <time>2015-11-22T12:54:50Z</time>
      </trkpt>
      <trkpt lat="43.35143" lon="2.55651">
        <ele>482.24</ele>
        <time>2015-11-22T12:54:52Z</time>
      </trkpt>
      <trkpt lat="43.35155" lon="2.5567">
        <ele>482.24</ele>
        <time>2015-11-22T12:55:10Z</time>
      </trkpt>
      <trkpt lat="43.3517" lon="2.55682">
        <ele>485.12</ele>
        <time>2015-11-22T12:55:27Z</time>
      </trkpt>
      <trkpt lat="43.35176" lon="2.55679">
        <ele>487.05</ele>
        <time>2015-11-22T12:55:34Z</time>
      </trkpt>
      <trkpt lat="43.35187" lon="2.55664">
        <ele>489.93</ele>
        <time>2015-11-22T12:55:48Z</time>
      </trkpt>
      <trkpt lat="43.35193" lon="2.55662">
        <ele>489.93</ele>
        <time>2015-11-22T12:55:54Z</time>
      </trkpt>
      <trkpt lat="43.35208" lon="2.55662">
        <ele>492.33</ele>
        <time>2015-11-22T12:56:11Z</time>
      </trkpt>
      <trkpt lat="43.35216" lon="2.55667">
        <ele>493.29</ele>
        <time>2015-11-22T12:56:22Z</time>
      </trkpt>
      <trkpt lat="43.35228" lon="2.55671">
        <ele>494.74</ele>
        <time>2015-11-22T12:56:36Z</time>
      </trkpt>
      <trkpt lat="43.35233" lon="2.55671">
        <ele>496.18</ele>
        <time>2015-11-22T12:56:42Z</time>
      </trkpt>
      <trkpt lat="43.3525" lon="2.55671">
        <ele>499.54</ele>
        <time>2015-11-22T12:57:00Z</time>
      </trkpt>
      <trkpt lat="43.35263" lon="2.5567">
        <ele>502.91</ele>
        <time>2015-11-22T12:57:15Z</time>
      </trkpt>
      <trkpt lat="43.35272" lon="2.55667">
        <ele>502.43</ele>
        <time>2015-11-22T12:57:25Z</time>
      </trkpt>
      <trkpt lat="43.35279" lon="2.55666">
        <ele>503.87</ele>
        <time>2015-11-22T12:57:32Z</time>
      </trkpt>
      <trkpt lat="43.35294" lon="2.55665">
        <ele>505.79</ele>
        <time>2015-11-22T12:57:47Z</time>
      </trkpt>
      <trkpt lat="43.35308" lon="2.55668">
        <ele>506.75</ele>
        <time>2015-11-22T12:58:01Z</time>
      </trkpt>
      <trkpt lat="43.35312" lon="2.55668">
        <ele>507.23</ele>
        <time>2015-11-22T12:58:05Z</time>
      </trkpt>
      <trkpt lat="43.35322" lon="2.55675">
        <ele>507.23</ele>
        <time>2015-11-22T12:58:16Z</time>
      </trkpt>
      <trkpt lat="43.3533" lon="2.55678">
        <ele>507.23</ele>
        <time>2015-11-22T12:58:24Z</time>
      </trkpt>
      <trkpt lat="43.35339" lon="2.55682">
        <ele>507.71</ele>
        <time>2015-11-22T12:58:34Z</time>
      </trkpt>
      <trkpt lat="43.35341" lon="2.55697">
        <ele>506.75</ele>
        <time>2015-11-22T12:58:43Z</time>
      </trkpt>
      <trkpt lat="43.35343" lon="2.55706">
        <ele>506.75</ele>
        <time>2015-11-22T12:58:50Z</time>
      </trkpt>
      <trkpt lat="43.35343" lon="2.5571">
        <ele>506.75</ele>
        <time>2015-11-22T12:58:53Z</time>
      </trkpt>
      <trkpt lat="43.35345" lon="2.55719">
        <ele>506.27</ele>
        <time>2015-11-22T12:58:59Z</time>
      </trkpt>
      <trkpt lat="43.35352" lon="2.55748">
        <ele>505.31</ele>
        <time>2015-11-22T12:59:19Z</time>
      </trkpt>
      <trkpt lat="43.35358" lon="2.55775">
        <ele>504.35</ele>
        <time>2015-11-22T12:59:37Z</time>
      </trkpt>
      <trkpt lat="43.35361" lon="2.55781">
        <ele>505.31</ele>
        <time>2015-11-22T12:59:42Z</time>
      </trkpt>
      <trkpt lat="43.35377" lon="2.55791">
        <ele>507.23</ele>
        <time>2015-11-22T12:59:58Z</time>
      </trkpt>
      <trkpt lat="43.35384" lon="2.55817">
        <ele>508.19</ele>
        <time>2015-11-22T13:00:17Z</time>
      </trkpt>
      <trkpt lat="43.35392" lon="2.55836">
        <ele>508.19</ele>
        <time>2015-11-22T13:00:32Z</time>
      </trkpt>
      <trkpt lat="43.35393" lon="2.5585">
        <ele>509.16</ele>
        <time>2015-11-22T13:00:41Z</time>
      </trkpt>
      <trkpt lat="43.35388" lon="2.5588">
        <ele>509.64</ele>
        <time>2015-11-22T13:01:01Z</time>
      </trkpt>
      <trkpt lat="43.35388" lon="2.55886">
        <ele>509.16</ele>
        <time>2015-11-22T13:01:05Z</time>
      </trkpt>
      <trkpt lat="43.35389" lon="2.55918">
        <ele>508.19</ele>
        <time>2015-11-22T13:01:25Z</time>
      </trkpt>
      <trkpt lat="43.35388" lon="2.55949">
        <ele>508.67</ele>
        <time>2015-11-22T13:01:44Z</time>
      </trkpt>
      <trkpt lat="43.3539" lon="2.55958">
        <ele>508.67</ele>
        <time>2015-11-22T13:01:50Z</time>
      </trkpt>
      <trkpt lat="43.35385" lon="2.55989">
        <ele>509.64</ele>
        <time>2015-11-22T13:02:10Z</time>
      </trkpt>
      <trkpt lat="43.35387" lon="2.56011">
        <ele>507.23</ele>
        <time>2015-11-22T13:02:25Z</time>
      </trkpt>
      <trkpt lat="43.35389" lon="2.56026">
        <ele>505.79</ele>
        <time>2015-11-22T13:02:35Z</time>
      </trkpt>
      <trkpt lat="43.35389" lon="2.56032">
        <ele>505.79</ele>
        <time>2015-11-22T13:02:39Z</time>
      </trkpt>
      <trkpt lat="43.35394" lon="2.56061">
        <ele>505.79</ele>
        <time>2015-11-22T13:02:58Z</time>
      </trkpt>
      <trkpt lat="43.35395" lon="2.56079">
        <ele>505.79</ele>
        <time>2015-11-22T13:03:10Z</time>
      </trkpt>
      <trkpt lat="43.354" lon="2.56104">
        <ele>505.79</ele>
        <time>2015-11-22T13:03:27Z</time>
      </trkpt>
      <trkpt lat="43.35409" lon="2.56127">
        <ele>508.19</ele>
        <time>2015-11-22T13:03:43Z</time>
      </trkpt>
      <trkpt lat="43.3542" lon="2.56154">
        <ele>510.12</ele>
        <time>2015-11-22T13:04:02Z</time>
      </trkpt>
      <trkpt lat="43.35428" lon="2.56181">
        <ele>511.56</ele>
        <time>2015-11-22T13:04:20Z</time>
      </trkpt>
      <trkpt lat="43.35436" lon="2.56205">
        <ele>512.52</ele>
        <time>2015-11-22T13:04:37Z</time>
      </trkpt>
      <trkpt lat="43.35444" lon="2.56229">
        <ele>513</ele>
        <time>2015-11-22T13:04:54Z</time>
      </trkpt>
      <trkpt lat="43.35451" lon="2.5625">
        <ele>513.96</ele>
        <time>2015-11-22T13:05:09Z</time>
      </trkpt>
      <trkpt lat="43.35459" lon="2.56273">
        <ele>516.85</ele>
        <time>2015-11-22T13:05:26Z</time>
      </trkpt>
      <trkpt lat="43.35466" lon="2.56294">
        <ele>518.77</ele>
        <time>2015-11-22T13:05:41Z</time>
      </trkpt>
      <trkpt lat="43.35467" lon="2.56299">
        <ele>519.73</ele>
        <time>2015-11-22T13:05:56Z</time>
      </trkpt>
      <trkpt lat="43.35469" lon="2.56299">
        <ele>520.21</ele>
        <time>2015-11-22T13:06:11Z</time>
      </trkpt>
      <trkpt lat="43.3547" lon="2.56299">
        <ele>519.73</ele>
        <time>2015-11-22T13:06:31Z</time>
      </trkpt>
      <trkpt lat="43.3547" lon="2.563">
        <ele>519.73</ele>
        <time>2015-11-22T13:06:51Z</time>
      </trkpt>
      <trkpt lat="43.3547" lon="2.563">
        <ele>520.21</ele>
        <time>2015-11-22T13:07:12Z</time>
      </trkpt>
      <trkpt lat="43.3547" lon="2.56299">
        <ele>520.21</ele>
        <time>2015-11-22T13:07:30Z</time>
      </trkpt>
      <trkpt lat="43.35474" lon="2.56295">
        <ele>521.17</ele>
        <time>2015-11-22T13:07:41Z</time>
      </trkpt>
      <trkpt lat="43.35482" lon="2.56287">
        <ele>523.09</ele>
        <time>2015-11-22T13:07:53Z</time>
      </trkpt>
      <trkpt lat="43.35489" lon="2.56283">
        <ele>524.06</ele>
        <time>2015-11-22T13:08:02Z</time>
      </trkpt>
      <trkpt lat="43.35496" lon="2.56282">
        <ele>524.54</ele>
        <time>2015-11-22T13:08:09Z</time>
      </trkpt>
      <trkpt lat="43.35505" lon="2.56279">
        <ele>525.98</ele>
        <time>2015-11-22T13:08:20Z</time>
      </trkpt>
      <trkpt lat="43.3552" lon="2.56285">
        <ele>528.86</ele>
        <time>2015-11-22T13:08:36Z</time>
      </trkpt>
      <trkpt lat="43.35525" lon="2.56284">
        <ele>529.82</ele>
        <time>2015-11-22T13:08:41Z</time>
      </trkpt>
      <trkpt lat="43.35528" lon="2.56282">
        <ele>530.79</ele>
        <time>2015-11-22T13:08:44Z</time>
      </trkpt>
      <trkpt lat="43.35544" lon="2.56279">
        <ele>532.71</ele>
        <time>2015-11-22T13:09:01Z</time>
      </trkpt>
      <trkpt lat="43.35547" lon="2.56276">
        <ele>533.19</ele>
        <time>2015-11-22T13:09:04Z</time>
      </trkpt>
      <trkpt lat="43.35549" lon="2.56273">
        <ele>533.19</ele>
        <time>2015-11-22T13:09:07Z</time>
      </trkpt>
      <trkpt lat="43.35554" lon="2.56268">
        <ele>531.75</ele>
        <time>2015-11-22T13:09:14Z</time>
      </trkpt>
      <trkpt lat="43.35555" lon="2.56265">
        <ele>531.75</ele>
        <time>2015-11-22T13:09:17Z</time>
      </trkpt>
      <trkpt lat="43.35562" lon="2.56263">
        <ele>531.27</ele>
        <time>2015-11-22T13:09:25Z</time>
      </trkpt>
      <trkpt lat="43.3557" lon="2.56274">
        <ele>532.23</ele>
        <time>2015-11-22T13:09:38Z</time>
      </trkpt>
      <trkpt lat="43.35584" lon="2.56274">
        <ele>531.27</ele>
        <time>2015-11-22T13:09:53Z</time>
      </trkpt>
      <trkpt lat="43.35588" lon="2.56275">
        <ele>531.27</ele>
        <time>2015-11-22T13:09:58Z</time>
      </trkpt>
      <trkpt lat="43.35605" lon="2.56283">
        <ele>530.3</ele>
        <time>2015-11-22T13:10:15Z</time>
      </trkpt>
      <trkpt lat="43.35616" lon="2.56289">
        <ele>528.86</ele>
        <time>2015-11-22T13:10:30Z</time>
      </trkpt>
      <trkpt lat="43.35623" lon="2.56294">
        <ele>527.9</ele>
        <time>2015-11-22T13:10:45Z</time>
      </trkpt>
      <trkpt lat="43.35624" lon="2.56295">
        <ele>526.94</ele>
        <time>2015-11-22T13:11:03Z</time>
      </trkpt>
      <trkpt lat="43.3563" lon="2.56299">
        <ele>526.46</ele>
        <time>2015-11-22T13:11:19Z</time>
      </trkpt>
      <trkpt lat="43.35636" lon="2.56308">
        <ele>525.02</ele>
        <time>2015-11-22T13:11:35Z</time>
      </trkpt>
      <trkpt lat="43.35636" lon="2.56307">
        <ele>524.06</ele>
        <time>2015-11-22T13:11:49Z</time>
      </trkpt>
      <trkpt lat="43.35636" lon="2.56308">
        <ele>523.09</ele>
        <time>2015-11-22T13:12:07Z</time>
      </trkpt>
      <trkpt lat="43.35636" lon="2.56308">
        <ele>523.58</ele>
        <time>2015-11-22T13:12:19Z</time>
      </trkpt>
      <trkpt lat="43.35634" lon="2.56313">
        <ele>523.58</ele>
        <time>2015-11-22T13:12:36Z</time>
      </trkpt>
      <trkpt lat="43.35631" lon="2.56315">
        <ele>525.02</ele>
        <time>2015-11-22T13:12:47Z</time>
      </trkpt>
      <trkpt lat="43.35627" lon="2.56318">
        <ele>526.46</ele>
        <time>2015-11-22T13:12:59Z</time>
      </trkpt>
      <trkpt lat="43.35622" lon="2.56319">
        <ele>527.9</ele>
        <time>2015-11-22T13:13:11Z</time>
      </trkpt>
      <trkpt lat="43.3562" lon="2.56319">
        <ele>529.82</ele>
        <time>2015-11-22T13:13:23Z</time>
      </trkpt>
      <trkpt lat="43.35613" lon="2.56321">
        <ele>530.79</ele>
        <time>2015-11-22T13:13:35Z</time>
      </trkpt>
      <trkpt lat="43.35603" lon="2.56323">
        <ele>532.23</ele>
        <time>2015-11-22T13:13:49Z</time>
      </trkpt>
      <trkpt lat="43.35594" lon="2.56328">
        <ele>531.75</ele>
        <time>2015-11-22T13:14:02Z</time>
      </trkpt>
      <trkpt lat="43.35593" lon="2.56331">
        <ele>532.23</ele>
        <time>2015-11-22T13:14:13Z</time>
      </trkpt>
      <trkpt lat="43.35596" lon="2.56335">
        <ele>532.71</ele>
        <time>2015-11-22T13:14:26Z</time>
      </trkpt>
      <trkpt lat="43.35603" lon="2.56344">
        <ele>534.63</ele>
        <time>2015-11-22T13:14:39Z</time>
      </trkpt>
      <trkpt lat="43.35607" lon="2.56355">
        <ele>534.15</ele>
        <time>2015-11-22T13:14:51Z</time>
      </trkpt>
      <trkpt lat="43.35611" lon="2.56362">
        <ele>534.63</ele>
        <time>2015-11-22T13:15:05Z</time>
      </trkpt>
      <trkpt lat="43.35609" lon="2.56368">
        <ele>535.11</ele>
        <time>2015-11-22T13:15:16Z</time>
      </trkpt>
      <trkpt lat="43.35602" lon="2.56372">
        <ele>535.59</ele>
        <time>2015-11-22T13:15:31Z</time>
      </trkpt>
      <trkpt lat="43.35601" lon="2.56374">
        <ele>536.07</ele>
        <time>2015-11-22T13:15:49Z</time>
      </trkpt>
      <trkpt lat="43.35594" lon="2.56382">
        <ele>536.07</ele>
        <time>2015-11-22T13:16:04Z</time>
      </trkpt>
      <trkpt lat="43.35584" lon="2.56389">
        <ele>536.55</ele>
        <time>2015-11-22T13:16:19Z</time>
      </trkpt>
      <trkpt lat="43.35573" lon="2.56392">
        <ele>536.07</ele>
        <time>2015-11-22T13:16:35Z</time>
      </trkpt>
      <trkpt lat="43.35573" lon="2.56403">
        <ele>536.07</ele>
        <time>2015-11-22T13:16:49Z</time>
      </trkpt>
      <trkpt lat="43.35574" lon="2.56414">
        <ele>534.15</ele>
        <time>2015-11-22T13:17:02Z</time>
      </trkpt>
      <trkpt lat="43.35575" lon="2.56429">
        <ele>533.19</ele>
        <time>2015-11-22T13:17:16Z</time>
      </trkpt>
      <trkpt lat="43.3557" lon="2.56444">
        <ele>533.19</ele>
        <time>2015-11-22T13:17:32Z</time>
      </trkpt>
      <trkpt lat="43.35569" lon="2.56446">
        <ele>533.19</ele>
        <time>2015-11-22T13:17:34Z</time>
      </trkpt>
      <trkpt lat="43.35558" lon="2.5645">
        <ele>535.59</ele>
        <time>2015-11-22T13:17:48Z</time>
      </trkpt>
      <trkpt lat="43.35547" lon="2.56453">
        <ele>535.11</ele>
        <time>2015-11-22T13:18:04Z</time>
      </trkpt>
      <trkpt lat="43.3554" lon="2.56466">
        <ele>534.63</ele>
        <time>2015-11-22T13:18:18Z</time>
      </trkpt>
      <trkpt lat="43.35531" lon="2.56465">
        <ele>532.71</ele>
        <time>2015-11-22T13:18:33Z</time>
      </trkpt>
      <trkpt lat="43.35526" lon="2.56466">
        <ele>531.75</ele>
        <time>2015-11-22T13:18:44Z</time>
      </trkpt>
      <trkpt lat="43.35517" lon="2.56469">
        <ele>531.27</ele>
        <time>2015-11-22T13:18:58Z</time>
      </trkpt>
      <trkpt lat="43.35507" lon="2.56469">
        <ele>530.79</ele>
        <time>2015-11-22T13:19:12Z</time>
      </trkpt>
      <trkpt lat="43.35499" lon="2.56466">
        <ele>529.82</ele>
        <time>2015-11-22T13:19:26Z</time>
      </trkpt>
      <trkpt lat="43.35492" lon="2.5647">
        <ele>530.3</ele>
        <time>2015-11-22T13:19:41Z</time>
      </trkpt>
      <trkpt lat="43.35491" lon="2.56481">
        <ele>530.3</ele>
        <time>2015-11-22T13:19:54Z</time>
      </trkpt>
      <trkpt lat="43.3549" lon="2.56487">
        <ele>529.34</ele>
        <time>2015-11-22T13:19:59Z</time>
      </trkpt>
      <trkpt lat="43.35485" lon="2.56506">
        <ele>529.82</ele>
        <time>2015-11-22T13:20:15Z</time>
      </trkpt>
      <trkpt lat="43.35485" lon="2.56508">
        <ele>530.3</ele>
        <time>2015-11-22T13:20:17Z</time>
      </trkpt>
      <trkpt lat="43.35482" lon="2.56517">
        <ele>530.3</ele>
        <time>2015-11-22T13:20:24Z</time>
      </trkpt>
      <trkpt lat="43.35481" lon="2.56535">
        <ele>530.79</ele>
        <time>2015-11-22T13:20:41Z</time>
      </trkpt>
      <trkpt lat="43.35481" lon="2.56541">
        <ele>529.82</ele>
        <time>2015-11-22T13:20:59Z</time>
      </trkpt>
      <trkpt lat="43.35482" lon="2.56547">
        <ele>529.82</ele>
        <time>2015-11-22T13:21:04Z</time>
      </trkpt>
      <trkpt lat="43.35482" lon="2.56551">
        <ele>529.82</ele>
        <time>2015-11-22T13:21:07Z</time>
      </trkpt>
      <trkpt lat="43.35483" lon="2.56579">
        <ele>529.34</ele>
        <time>2015-11-22T13:21:26Z</time>
      </trkpt>
      <trkpt lat="43.35483" lon="2.56606">
        <ele>529.82</ele>
        <time>2015-11-22T13:21:44Z</time>
      </trkpt>
      <trkpt lat="43.35482" lon="2.56637">
        <ele>531.27</ele>
        <time>2015-11-22T13:22:05Z</time>
      </trkpt>
      <trkpt lat="43.35484" lon="2.5665">
        <ele>532.23</ele>
        <time>2015-11-22T13:22:21Z</time>
      </trkpt>
      <trkpt lat="43.35484" lon="2.5665">
        <ele>533.19</ele>
        <time>2015-11-22T13:22:43Z</time>
      </trkpt>
      <trkpt lat="43.35484" lon="2.56651">
        <ele>531.27</ele>
        <time>2015-11-22T13:23:10Z</time>
      </trkpt>
      <trkpt lat="43.35484" lon="2.56678">
        <ele>531.75</ele>
        <time>2015-11-22T13:23:27Z</time>
      </trkpt>
      <trkpt lat="43.35485" lon="2.56719">
        <ele>530.3</ele>
        <time>2015-11-22T13:23:47Z</time>
      </trkpt>
      <trkpt lat="43.35484" lon="2.56754">
        <ele>529.34</ele>
        <time>2015-11-22T13:24:04Z</time>
      </trkpt>
      <trkpt lat="43.35493" lon="2.56787">
        <ele>529.82</ele>
        <time>2015-11-22T13:24:19Z</time>
      </trkpt>
      <trkpt lat="43.35502" lon="2.56799">
        <ele>529.82</ele>
        <time>2015-11-22T13:24:29Z</time>
      </trkpt>
      <trkpt lat="43.35511" lon="2.56804">
        <ele>530.79</ele>
        <time>2015-11-22T13:24:36Z</time>
      </trkpt>
      <trkpt lat="43.35524" lon="2.56805">
        <ele>531.27</ele>
        <time>2015-11-22T13:24:46Z</time>
      </trkpt>
      <trkpt lat="43.35539" lon="2.56819">
        <ele>528.86</ele>
        <time>2015-11-22T13:25:05Z</time>
      </trkpt>
      <trkpt lat="43.3554" lon="2.56819">
        <ele>527.9</ele>
        <time>2015-11-22T13:25:24Z</time>
      </trkpt>
      <trkpt lat="43.35542" lon="2.56819">
        <ele>527.42</ele>
        <time>2015-11-22T13:25:37Z</time>
      </trkpt>
      <trkpt lat="43.35559" lon="2.56809">
        <ele>527.9</ele>
        <time>2015-11-22T13:25:54Z</time>
      </trkpt>
      <trkpt lat="43.35564" lon="2.56808">
        <ele>528.38</ele>
        <time>2015-11-22T13:25:59Z</time>
      </trkpt>
      <trkpt lat="43.3557" lon="2.56803">
        <ele>529.34</ele>
        <time>2015-11-22T13:26:05Z</time>
      </trkpt>
      <trkpt lat="43.35586" lon="2.56785">
        <ele>532.71</ele>
        <time>2015-11-22T13:26:24Z</time>
      </trkpt>
      <trkpt lat="43.35592" lon="2.56762">
        <ele>533.19</ele>
        <time>2015-11-22T13:26:42Z</time>
      </trkpt>
      <trkpt lat="43.35607" lon="2.56741">
        <ele>534.63</ele>
        <time>2015-11-22T13:27:00Z</time>
      </trkpt>
      <trkpt lat="43.35608" lon="2.56741">
        <ele>535.11</ele>
        <time>2015-11-22T13:27:01Z</time>
      </trkpt>
      <trkpt lat="43.3562" lon="2.56744">
        <ele>537.03</ele>
        <time>2015-11-22T13:27:13Z</time>
      </trkpt>
      <trkpt lat="43.35623" lon="2.56744">
        <ele>537.51</ele>
        <time>2015-11-22T13:27:16Z</time>
      </trkpt>
      <trkpt lat="43.35638" lon="2.56756">
        <ele>541.36</ele>
        <time>2015-11-22T13:27:34Z</time>
      </trkpt>
      <trkpt lat="43.35639" lon="2.56757">
        <ele>541.84</ele>
        <time>2015-11-22T13:27:35Z</time>
      </trkpt>
      <trkpt lat="43.35646" lon="2.56772">
        <ele>544.72</ele>
        <time>2015-11-22T13:27:51Z</time>
      </trkpt>
      <trkpt lat="43.35656" lon="2.56785">
        <ele>547.13</ele>
        <time>2015-11-22T13:28:06Z</time>
      </trkpt>
      <trkpt lat="43.35658" lon="2.56791">
        <ele>548.09</ele>
        <time>2015-11-22T13:28:11Z</time>
      </trkpt>
      <trkpt lat="43.3567" lon="2.56808">
        <ele>552.9</ele>
        <time>2015-11-22T13:28:30Z</time>
      </trkpt>
      <trkpt lat="43.35682" lon="2.56813">
        <ele>555.3</ele>
        <time>2015-11-22T13:28:44Z</time>
      </trkpt>
      <trkpt lat="43.35687" lon="2.56814">
        <ele>556.26</ele>
        <time>2015-11-22T13:28:49Z</time>
      </trkpt>
      <trkpt lat="43.35704" lon="2.5681">
        <ele>558.66</ele>
        <time>2015-11-22T13:29:06Z</time>
      </trkpt>
      <trkpt lat="43.35707" lon="2.5681">
        <ele>559.14</ele>
        <time>2015-11-22T13:29:10Z</time>
      </trkpt>
      <trkpt lat="43.35716" lon="2.5681">
        <ele>559.62</ele>
        <time>2015-11-22T13:29:18Z</time>
      </trkpt>
      <trkpt lat="43.3572" lon="2.56815">
        <ele>560.59</ele>
        <time>2015-11-22T13:29:24Z</time>
      </trkpt>
      <trkpt lat="43.35725" lon="2.56838">
        <ele>562.99</ele>
        <time>2015-11-22T13:29:41Z</time>
      </trkpt>
      <trkpt lat="43.35731" lon="2.56861">
        <ele>564.91</ele>
        <time>2015-11-22T13:29:58Z</time>
      </trkpt>
      <trkpt lat="43.35728" lon="2.56888">
        <ele>565.87</ele>
        <time>2015-11-22T13:30:16Z</time>
      </trkpt>
      <trkpt lat="43.35719" lon="2.5691">
        <ele>566.83</ele>
        <time>2015-11-22T13:30:32Z</time>
      </trkpt>
      <trkpt lat="43.35725" lon="2.56932">
        <ele>569.24</ele>
        <time>2015-11-22T13:30:49Z</time>
      </trkpt>
      <trkpt lat="43.35734" lon="2.56958">
        <ele>571.64</ele>
        <time>2015-11-22T13:31:08Z</time>
      </trkpt>
      <trkpt lat="43.35736" lon="2.56984">
        <ele>572.6</ele>
        <time>2015-11-22T13:31:25Z</time>
      </trkpt>
      <trkpt lat="43.35733" lon="2.56999">
        <ele>571.64</ele>
        <time>2015-11-22T13:31:35Z</time>
      </trkpt>
      <trkpt lat="43.35735" lon="2.57003">
        <ele>570.68</ele>
        <time>2015-11-22T13:31:44Z</time>
      </trkpt>
      <trkpt lat="43.35736" lon="2.57005">
        <ele>570.68</ele>
        <time>2015-11-22T13:32:08Z</time>
      </trkpt>
      <trkpt lat="43.3574" lon="2.57008">
        <ele>571.64</ele>
        <time>2015-11-22T13:32:20Z</time>
      </trkpt>
      <trkpt lat="43.35746" lon="2.57012">
        <ele>573.08</ele>
        <time>2015-11-22T13:32:33Z</time>
      </trkpt>
      <trkpt lat="43.35756" lon="2.57022">
        <ele>574.04</ele>
        <time>2015-11-22T13:32:48Z</time>
      </trkpt>
      <trkpt lat="43.35765" lon="2.57023">
        <ele>574.53</ele>
        <time>2015-11-22T13:32:58Z</time>
      </trkpt>
      <trkpt lat="43.35769" lon="2.57025">
        <ele>574.04</ele>
        <time>2015-11-22T13:33:03Z</time>
      </trkpt>
      <trkpt lat="43.35776" lon="2.5703">
        <ele>573.08</ele>
        <time>2015-11-22T13:33:13Z</time>
      </trkpt>
      <trkpt lat="43.35797" lon="2.5703">
        <ele>571.64</ele>
        <time>2015-11-22T13:33:32Z</time>
      </trkpt>
      <trkpt lat="43.35815" lon="2.57016">
        <ele>569.72</ele>
        <time>2015-11-22T13:33:50Z</time>
      </trkpt>
      <trkpt lat="43.35818" lon="2.5701">
        <ele>569.72</ele>
        <time>2015-11-22T13:33:55Z</time>
      </trkpt>
      <trkpt lat="43.35835" lon="2.56997">
        <ele>566.83</ele>
        <time>2015-11-22T13:34:15Z</time>
      </trkpt>
      <trkpt lat="43.35844" lon="2.56984">
        <ele>563.95</ele>
        <time>2015-11-22T13:34:29Z</time>
      </trkpt>
      <trkpt lat="43.35845" lon="2.56981">
        <ele>563.47</ele>
        <time>2015-11-22T13:34:31Z</time>
      </trkpt>
      <trkpt lat="43.35849" lon="2.56977">
        <ele>562.03</ele>
        <time>2015-11-22T13:34:36Z</time>
      </trkpt>
      <trkpt lat="43.35858" lon="2.56968">
        <ele>559.14</ele>
        <time>2015-11-22T13:34:54Z</time>
      </trkpt>
      <trkpt lat="43.35862" lon="2.56963">
        <ele>557.7</ele>
        <time>2015-11-22T13:35:00Z</time>
      </trkpt>
      <trkpt lat="43.35868" lon="2.56945">
        <ele>554.82</ele>
        <time>2015-11-22T13:35:18Z</time>
      </trkpt>
      <trkpt lat="43.35868" lon="2.56945">
        <ele>554.82</ele>
        <time>2015-11-22T13:35:39Z</time>
      </trkpt>
      <trkpt lat="43.35869" lon="2.56944">
        <ele>554.82</ele>
        <time>2015-11-22T13:35:53Z</time>
      </trkpt>
      <trkpt lat="43.35869" lon="2.56942">
        <ele>553.38</ele>
        <time>2015-11-22T13:36:13Z</time>
      </trkpt>
      <trkpt lat="43.35872" lon="2.56931">
        <ele>552.41</ele>
        <time>2015-11-22T13:36:27Z</time>
      </trkpt>
      <trkpt lat="43.35874" lon="2.56928">
        <ele>552.41</ele>
        <time>2015-11-22T13:36:46Z</time>
      </trkpt>
      <trkpt lat="43.35874" lon="2.56926">
        <ele>550.97</ele>
        <time>2015-11-22T13:36:57Z</time>
      </trkpt>
      <trkpt lat="43.35874" lon="2.56927">
        <ele>550.01</ele>
        <time>2015-11-22T13:37:27Z</time>
      </trkpt>
      <trkpt lat="43.35877" lon="2.56925">
        <ele>548.57</ele>
        <time>2015-11-22T13:37:59Z</time>
      </trkpt>
      <trkpt lat="43.35884" lon="2.56912">
        <ele>547.61</ele>
        <time>2015-11-22T13:38:16Z</time>
      </trkpt>
      <trkpt lat="43.3589" lon="2.5689">
        <ele>547.61</ele>
        <time>2015-11-22T13:38:34Z</time>
      </trkpt>
      <trkpt lat="43.35901" lon="2.56877">
        <ele>547.13</ele>
        <time>2015-11-22T13:38:46Z</time>
      </trkpt>
      <trkpt lat="43.35905" lon="2.56876">
        <ele>547.13</ele>
        <time>2015-11-22T13:38:49Z</time>
      </trkpt>
      <trkpt lat="43.3592" lon="2.56872">
        <ele>548.57</ele>
        <time>2015-11-22T13:39:04Z</time>
      </trkpt>
      <trkpt lat="43.35933" lon="2.56861">
        <ele>549.05</ele>
        <time>2015-11-22T13:39:20Z</time>
      </trkpt>
      <trkpt lat="43.3594" lon="2.56846">
        <ele>550.01</ele>
        <time>2015-11-22T13:39:33Z</time>
      </trkpt>
      <trkpt lat="43.35949" lon="2.5682">
        <ele>550.97</ele>
        <time>2015-11-22T13:39:52Z</time>
      </trkpt>
      <trkpt lat="43.35962" lon="2.5681">
        <ele>551.93</ele>
        <time>2015-11-22T13:40:08Z</time>
      </trkpt>
      <trkpt lat="43.35976" lon="2.56813">
        <ele>554.34</ele>
        <time>2015-11-22T13:40:27Z</time>
      </trkpt>
      <trkpt lat="43.35988" lon="2.5682">
        <ele>556.74</ele>
        <time>2015-11-22T13:40:48Z</time>
      </trkpt>
      <trkpt lat="43.35999" lon="2.56817">
        <ele>562.51</ele>
        <time>2015-11-22T13:41:07Z</time>
      </trkpt>
      <trkpt lat="43.36006" lon="2.56811">
        <ele>566.35</ele>
        <time>2015-11-22T13:41:21Z</time>
      </trkpt>
      <trkpt lat="43.36017" lon="2.5681">
        <ele>568.28</ele>
        <time>2015-11-22T13:41:37Z</time>
      </trkpt>
      <trkpt lat="43.36027" lon="2.56806">
        <ele>572.12</ele>
        <time>2015-11-22T13:41:56Z</time>
      </trkpt>
      <trkpt lat="43.3604" lon="2.56806">
        <ele>573.56</ele>
        <time>2015-11-22T13:42:11Z</time>
      </trkpt>
      <trkpt lat="43.3605" lon="2.56802">
        <ele>574.53</ele>
        <time>2015-11-22T13:42:26Z</time>
      </trkpt>
      <trkpt lat="43.3606" lon="2.56813">
        <ele>575.49</ele>
        <time>2015-11-22T13:42:41Z</time>
      </trkpt>
      <trkpt lat="43.36068" lon="2.56823">
        <ele>575.97</ele>
        <time>2015-11-22T13:42:54Z</time>
      </trkpt>
      <trkpt lat="43.36077" lon="2.56829">
        <ele>578.37</ele>
        <time>2015-11-22T13:43:10Z</time>
      </trkpt>
      <trkpt lat="43.36087" lon="2.56838">
        <ele>579.33</ele>
        <time>2015-11-22T13:43:26Z</time>
      </trkpt>
      <trkpt lat="43.36098" lon="2.5685">
        <ele>580.77</ele>
        <time>2015-11-22T13:43:44Z</time>
      </trkpt>
      <trkpt lat="43.3611" lon="2.56861">
        <ele>583.66</ele>
        <time>2015-11-22T13:44:03Z</time>
      </trkpt>
      <trkpt lat="43.36127" lon="2.56863">
        <ele>585.58</ele>
        <time>2015-11-22T13:44:21Z</time>
      </trkpt>
      <trkpt lat="43.36134" lon="2.56873">
        <ele>589.91</ele>
        <time>2015-11-22T13:44:39Z</time>
      </trkpt>
      <trkpt lat="43.36145" lon="2.5688">
        <ele>592.31</ele>
        <time>2015-11-22T13:44:54Z</time>
      </trkpt>
      <trkpt lat="43.36146" lon="2.56881">
        <ele>591.83</ele>
        <time>2015-11-22T13:45:11Z</time>
      </trkpt>
      <trkpt lat="43.36153" lon="2.56889">
        <ele>591.83</ele>
        <time>2015-11-22T13:45:33Z</time>
      </trkpt>
      <trkpt lat="43.36161" lon="2.56904">
        <ele>593.27</ele>
        <time>2015-11-22T13:45:49Z</time>
      </trkpt>
      <trkpt lat="43.36165" lon="2.56919">
        <ele>596.15</ele>
        <time>2015-11-22T13:46:05Z</time>
      </trkpt>
      <trkpt lat="43.36167" lon="2.56939">
        <ele>600</ele>
        <time>2015-11-22T13:46:23Z</time>
      </trkpt>
      <trkpt lat="43.3617" lon="2.56962">
        <ele>601.44</ele>
        <time>2015-11-22T13:46:41Z</time>
      </trkpt>
      <trkpt lat="43.36179" lon="2.5698">
        <ele>601.92</ele>
        <time>2015-11-22T13:46:59Z</time>
      </trkpt>
      <trkpt lat="43.36182" lon="2.56987">
        <ele>602.4</ele>
        <time>2015-11-22T13:47:05Z</time>
      </trkpt>
      <trkpt lat="43.36183" lon="2.5699">
        <ele>602.4</ele>
        <time>2015-11-22T13:47:07Z</time>
      </trkpt>
      <trkpt lat="43.36184" lon="2.57008">
        <ele>603.36</ele>
        <time>2015-11-22T13:47:20Z</time>
      </trkpt>
      <trkpt lat="43.36187" lon="2.57014">
        <ele>603.36</ele>
        <time>2015-11-22T13:47:25Z</time>
      </trkpt>
      <trkpt lat="43.36189" lon="2.57016">
        <ele>603.36</ele>
        <time>2015-11-22T13:47:28Z</time>
      </trkpt>
      <trkpt lat="43.362" lon="2.57038">
        <ele>604.33</ele>
        <time>2015-11-22T13:47:47Z</time>
      </trkpt>
      <trkpt lat="43.36205" lon="2.57054">
        <ele>604.81</ele>
        <time>2015-11-22T13:48:05Z</time>
      </trkpt>
      <trkpt lat="43.36206" lon="2.57053">
        <ele>605.29</ele>
        <time>2015-11-22T13:48:22Z</time>
      </trkpt>
      <trkpt lat="43.36207" lon="2.57053">
        <ele>605.29</ele>
        <time>2015-11-22T13:48:48Z</time>
      </trkpt>
      <trkpt lat="43.36208" lon="2.57052">
        <ele>605.29</ele>
        <time>2015-11-22T13:49:17Z</time>
      </trkpt>
      <trkpt lat="43.36206" lon="2.57056">
        <ele>605.29</ele>
        <time>2015-11-22T13:49:39Z</time>
      </trkpt>
      <trkpt lat="43.36204" lon="2.57072">
        <ele>607.21</ele>
        <time>2015-11-22T13:49:53Z</time>
      </trkpt>
      <trkpt lat="43.36204" lon="2.57081">
        <ele>609.13</ele>
        <time>2015-11-22T13:50:09Z</time>
      </trkpt>
      <trkpt lat="43.362" lon="2.57093">
        <ele>609.61</ele>
        <time>2015-11-22T13:50:30Z</time>
      </trkpt>
      <trkpt lat="43.362" lon="2.57094">
        <ele>609.13</ele>
        <time>2015-11-22T13:50:47Z</time>
      </trkpt>
      <trkpt lat="43.36199" lon="2.57098">
        <ele>608.65</ele>
        <time>2015-11-22T13:51:02Z</time>
      </trkpt>
      <trkpt lat="43.36201" lon="2.57097">
        <ele>607.69</ele>
        <time>2015-11-22T13:51:23Z</time>
      </trkpt>
      <trkpt lat="43.36201" lon="2.57098">
        <ele>607.69</ele>
        <time>2015-11-22T13:51:45Z</time>
      </trkpt>
      <trkpt lat="43.362" lon="2.571">
        <ele>607.69</ele>
        <time>2015-11-22T13:52:01Z</time>
      </trkpt>
      <trkpt lat="43.362" lon="2.57101">
        <ele>607.69</ele>
        <time>2015-11-22T13:52:29Z</time>
      </trkpt>
      <trkpt lat="43.362" lon="2.571">
        <ele>607.69</ele>
        <time>2015-11-22T13:52:55Z</time>
      </trkpt>
      <trkpt lat="43.36201" lon="2.571">
        <ele>607.21</ele>
        <time>2015-11-22T13:53:30Z</time>
      </trkpt>
      <trkpt lat="43.36202" lon="2.57101">
        <ele>606.25</ele>
        <time>2015-11-22T13:53:54Z</time>
      </trkpt>
      <trkpt lat="43.36194" lon="2.57114">
        <ele>608.65</ele>
        <time>2015-11-22T13:54:13Z</time>
      </trkpt>
      <trkpt lat="43.3618" lon="2.57138">
        <ele>611.54</ele>
        <time>2015-11-22T13:54:32Z</time>
      </trkpt>
      <trkpt lat="43.36168" lon="2.57156">
        <ele>613.94</ele>
        <time>2015-11-22T13:54:50Z</time>
      </trkpt>
      <trkpt lat="43.36168" lon="2.57173">
        <ele>615.38</ele>
        <time>2015-11-22T13:55:06Z</time>
      </trkpt>
      <trkpt lat="43.36168" lon="2.5719">
        <ele>613.94</ele>
        <time>2015-11-22T13:55:23Z</time>
      </trkpt>
      <trkpt lat="43.36164" lon="2.57204">
        <ele>610.57</ele>
        <time>2015-11-22T13:55:38Z</time>
      </trkpt>
      <trkpt lat="43.36169" lon="2.57212">
        <ele>608.65</ele>
        <time>2015-11-22T13:55:55Z</time>
      </trkpt>
      <trkpt lat="43.36168" lon="2.57219">
        <ele>607.21</ele>
        <time>2015-11-22T13:56:07Z</time>
      </trkpt>
      <trkpt lat="43.36168" lon="2.5722">
        <ele>605.29</ele>
        <time>2015-11-22T13:56:29Z</time>
      </trkpt>
      <trkpt lat="43.36167" lon="2.57222">
        <ele>601.92</ele>
        <time>2015-11-22T13:56:49Z</time>
      </trkpt>
      <trkpt lat="43.36167" lon="2.57224">
        <ele>600</ele>
        <time>2015-11-22T13:57:10Z</time>
      </trkpt>
      <trkpt lat="43.36163" lon="2.57235">
        <ele>599.52</ele>
        <time>2015-11-22T13:57:26Z</time>
      </trkpt>
      <trkpt lat="43.36155" lon="2.57252">
        <ele>601.92</ele>
        <time>2015-11-22T13:57:42Z</time>
      </trkpt>
      <trkpt lat="43.36151" lon="2.57266">
        <ele>603.85</ele>
        <time>2015-11-22T13:57:52Z</time>
      </trkpt>
      <trkpt lat="43.36144" lon="2.57293">
        <ele>603.85</ele>
        <time>2015-11-22T13:58:10Z</time>
      </trkpt>
      <trkpt lat="43.36141" lon="2.57304">
        <ele>603.36</ele>
        <time>2015-11-22T13:58:18Z</time>
      </trkpt>
      <trkpt lat="43.36141" lon="2.57307">
        <ele>603.36</ele>
        <time>2015-11-22T13:58:20Z</time>
      </trkpt>
      <trkpt lat="43.36137" lon="2.5733">
        <ele>602.88</ele>
        <time>2015-11-22T13:58:36Z</time>
      </trkpt>
      <trkpt lat="43.36135" lon="2.57339">
        <ele>602.4</ele>
        <time>2015-11-22T13:58:43Z</time>
      </trkpt>
      <trkpt lat="43.36125" lon="2.57361">
        <ele>600.96</ele>
        <time>2015-11-22T13:59:01Z</time>
      </trkpt>
      <trkpt lat="43.36123" lon="2.57364">
        <ele>601.44</ele>
        <time>2015-11-22T13:59:04Z</time>
      </trkpt>
      <trkpt lat="43.36112" lon="2.57374">
        <ele>601.44</ele>
        <time>2015-11-22T13:59:20Z</time>
      </trkpt>
      <trkpt lat="43.36109" lon="2.57373">
        <ele>598.56</ele>
        <time>2015-11-22T13:59:40Z</time>
      </trkpt>
      <trkpt lat="43.36108" lon="2.57374">
        <ele>596.64</ele>
        <time>2015-11-22T14:00:00Z</time>
      </trkpt>
      <trkpt lat="43.36108" lon="2.57375">
        <ele>594.71</ele>
        <time>2015-11-22T14:00:21Z</time>
      </trkpt>
      <trkpt lat="43.36108" lon="2.57375">
        <ele>592.79</ele>
        <time>2015-11-22T14:00:53Z</time>
      </trkpt>
      <trkpt lat="43.36108" lon="2.57375">
        <ele>592.31</ele>
        <time>2015-11-22T14:01:07Z</time>
      </trkpt>
      <trkpt lat="43.36108" lon="2.57375">
        <ele>592.31</ele>
        <time>2015-11-22T14:01:13Z</time>
      </trkpt>
      <trkpt lat="43.36106" lon="2.57375">
        <ele>592.79</ele>
        <time>2015-11-22T14:01:25Z</time>
      </trkpt>
      <trkpt lat="43.36106" lon="2.57375">
        <ele>592.31</ele>
        <time>2015-11-22T14:01:46Z</time>
      </trkpt>
      <trkpt lat="43.36106" lon="2.57374">
        <ele>592.31</ele>
        <time>2015-11-22T14:02:13Z</time>
      </trkpt>
      <trkpt lat="43.36105" lon="2.57374">
        <ele>592.79</ele>
        <time>2015-11-22T14:02:34Z</time>
      </trkpt>
      <trkpt lat="43.36101" lon="2.57374">
        <ele>593.75</ele>
        <time>2015-11-22T14:02:41Z</time>
      </trkpt>
      <trkpt lat="43.36084" lon="2.57385">
        <ele>596.15</ele>
        <time>2015-11-22T14:03:00Z</time>
      </trkpt>
      <trkpt lat="43.3607" lon="2.57389">
        <ele>596.64</ele>
        <time>2015-11-22T14:03:15Z</time>
      </trkpt>
      <trkpt lat="43.36052" lon="2.57398">
        <ele>596.15</ele>
        <time>2015-11-22T14:03:32Z</time>
      </trkpt>
      <trkpt lat="43.36044" lon="2.57404">
        <ele>595.67</ele>
        <time>2015-11-22T14:03:41Z</time>
      </trkpt>
      <trkpt lat="43.36042" lon="2.57422">
        <ele>595.67</ele>
        <time>2015-11-22T14:03:56Z</time>
      </trkpt>
      <trkpt lat="43.36042" lon="2.57424">
        <ele>595.67</ele>
        <time>2015-11-22T14:03:57Z</time>
      </trkpt>
      <trkpt lat="43.36041" lon="2.5745">
        <ele>593.75</ele>
        <time>2015-11-22T14:04:15Z</time>
      </trkpt>
      <trkpt lat="43.36037" lon="2.57459">
        <ele>592.31</ele>
        <time>2015-11-22T14:04:24Z</time>
      </trkpt>
      <trkpt lat="43.36029" lon="2.57466">
        <ele>591.35</ele>
        <time>2015-11-22T14:04:34Z</time>
      </trkpt>
      <trkpt lat="43.36027" lon="2.57471">
        <ele>590.87</ele>
        <time>2015-11-22T14:04:38Z</time>
      </trkpt>
      <trkpt lat="43.36025" lon="2.57473">
        <ele>590.39</ele>
        <time>2015-11-22T14:04:41Z</time>
      </trkpt>
      <trkpt lat="43.36023" lon="2.57489">
        <ele>589.91</ele>
        <time>2015-11-22T14:04:55Z</time>
      </trkpt>
      <trkpt lat="43.36024" lon="2.57494">
        <ele>589.91</ele>
        <time>2015-11-22T14:04:58Z</time>
      </trkpt>
      <trkpt lat="43.36016" lon="2.57514">
        <ele>589.91</ele>
        <time>2015-11-22T14:05:15Z</time>
      </trkpt>
      <trkpt lat="43.3601" lon="2.57521">
        <ele>590.39</ele>
        <time>2015-11-22T14:05:28Z</time>
      </trkpt>
      <trkpt lat="43.35994" lon="2.57529">
        <ele>590.39</ele>
        <time>2015-11-22T14:05:45Z</time>
      </trkpt>
      <trkpt lat="43.35973" lon="2.57547">
        <ele>589.91</ele>
        <time>2015-11-22T14:06:07Z</time>
      </trkpt>
      <trkpt lat="43.35966" lon="2.57568">
        <ele>589.91</ele>
        <time>2015-11-22T14:06:24Z</time>
      </trkpt>
      <trkpt lat="43.35966" lon="2.57572">
        <ele>589.91</ele>
        <time>2015-11-22T14:06:27Z</time>
      </trkpt>
      <trkpt lat="43.35966" lon="2.57575">
        <ele>590.39</ele>
        <time>2015-11-22T14:06:29Z</time>
      </trkpt>
      <trkpt lat="43.35964" lon="2.57599">
        <ele>591.35</ele>
        <time>2015-11-22T14:06:45Z</time>
      </trkpt>
      <trkpt lat="43.35965" lon="2.57627">
        <ele>593.75</ele>
        <time>2015-11-22T14:07:02Z</time>
      </trkpt>
      <trkpt lat="43.35958" lon="2.57654">
        <ele>595.19</ele>
        <time>2015-11-22T14:07:20Z</time>
      </trkpt>
      <trkpt lat="43.35952" lon="2.57681">
        <ele>594.23</ele>
        <time>2015-11-22T14:07:38Z</time>
      </trkpt>
      <trkpt lat="43.35937" lon="2.57706">
        <ele>592.79</ele>
        <time>2015-11-22T14:07:59Z</time>
      </trkpt>
      <trkpt lat="43.35932" lon="2.5771">
        <ele>592.31</ele>
        <time>2015-11-22T14:08:04Z</time>
      </trkpt>
      <trkpt lat="43.35929" lon="2.57716">
        <ele>591.83</ele>
        <time>2015-11-22T14:08:09Z</time>
      </trkpt>
      <trkpt lat="43.35916" lon="2.57739">
        <ele>591.83</ele>
        <time>2015-11-22T14:08:28Z</time>
      </trkpt>
      <trkpt lat="43.35913" lon="2.57745">
        <ele>591.35</ele>
        <time>2015-11-22T14:08:33Z</time>
      </trkpt>
      <trkpt lat="43.359" lon="2.57758">
        <ele>588.95</ele>
        <time>2015-11-22T14:08:51Z</time>
      </trkpt>
      <trkpt lat="43.3589" lon="2.57764">
        <ele>587.02</ele>
        <time>2015-11-22T14:09:04Z</time>
      </trkpt>
      <trkpt lat="43.35876" lon="2.57773">
        <ele>584.62</ele>
        <time>2015-11-22T14:09:21Z</time>
      </trkpt>
      <trkpt lat="43.35863" lon="2.57775">
        <ele>583.18</ele>
        <time>2015-11-22T14:09:35Z</time>
      </trkpt>
      <trkpt lat="43.35855" lon="2.57778">
        <ele>581.73</ele>
        <time>2015-11-22T14:09:44Z</time>
      </trkpt>
      <trkpt lat="43.35844" lon="2.57778">
        <ele>579.33</ele>
        <time>2015-11-22T14:09:58Z</time>
      </trkpt>
      <trkpt lat="43.35836" lon="2.57775">
        <ele>578.37</ele>
        <time>2015-11-22T14:10:08Z</time>
      </trkpt>
      <trkpt lat="43.35827" lon="2.57767">
        <ele>577.89</ele>
        <time>2015-11-22T14:10:19Z</time>
      </trkpt>
      <trkpt lat="43.35823" lon="2.57765">
        <ele>577.41</ele>
        <time>2015-11-22T14:10:23Z</time>
      </trkpt>
      <trkpt lat="43.35812" lon="2.57754">
        <ele>576.45</ele>
        <time>2015-11-22T14:10:37Z</time>
      </trkpt>
      <trkpt lat="43.35798" lon="2.57758">
        <ele>574.04</ele>
        <time>2015-11-22T14:10:53Z</time>
      </trkpt>
      <trkpt lat="43.3579" lon="2.5776">
        <ele>572.12</ele>
        <time>2015-11-22T14:11:02Z</time>
      </trkpt>
      <trkpt lat="43.3578" lon="2.57752">
        <ele>570.68</ele>
        <time>2015-11-22T14:11:18Z</time>
      </trkpt>
      <trkpt lat="43.35779" lon="2.57751">
        <ele>570.2</ele>
        <time>2015-11-22T14:11:21Z</time>
      </trkpt>
      <trkpt lat="43.35774" lon="2.57744">
        <ele>568.76</ele>
        <time>2015-11-22T14:11:28Z</time>
      </trkpt>
      <trkpt lat="43.35768" lon="2.57732">
        <ele>567.32</ele>
        <time>2015-11-22T14:11:39Z</time>
      </trkpt>
      <trkpt lat="43.35764" lon="2.57718">
        <ele>566.83</ele>
        <time>2015-11-22T14:11:49Z</time>
      </trkpt>
      <trkpt lat="43.35753" lon="2.57695">
        <ele>564.91</ele>
        <time>2015-11-22T14:12:07Z</time>
      </trkpt>
      <trkpt lat="43.35749" lon="2.57685">
        <ele>564.43</ele>
        <time>2015-11-22T14:12:24Z</time>
      </trkpt>
      <trkpt lat="43.35748" lon="2.57683">
        <ele>563.95</ele>
        <time>2015-11-22T14:13:02Z</time>
      </trkpt>
      <trkpt lat="43.35747" lon="2.57685">
        <ele>562.99</ele>
        <time>2015-11-22T14:13:10Z</time>
      </trkpt>
      <trkpt lat="43.35741" lon="2.57713">
        <ele>560.59</ele>
        <time>2015-11-22T14:13:29Z</time>
      </trkpt>
      <trkpt lat="43.35748" lon="2.57743">
        <ele>560.59</ele>
        <time>2015-11-22T14:13:49Z</time>
      </trkpt>
      <trkpt lat="43.35747" lon="2.57751">
        <ele>560.59</ele>
        <time>2015-11-22T14:14:02Z</time>
      </trkpt>
      <trkpt lat="43.35738" lon="2.57769">
        <ele>559.14</ele>
        <time>2015-11-22T14:14:19Z</time>
      </trkpt>
      <trkpt lat="43.35737" lon="2.57781">
        <ele>557.22</ele>
        <time>2015-11-22T14:14:29Z</time>
      </trkpt>
      <trkpt lat="43.35736" lon="2.578">
        <ele>554.82</ele>
        <time>2015-11-22T14:14:41Z</time>
      </trkpt>
      <trkpt lat="43.35735" lon="2.57828">
        <ele>552.41</ele>
        <time>2015-11-22T14:15:01Z</time>
      </trkpt>
      <trkpt lat="43.35736" lon="2.57842">
        <ele>551.93</ele>
        <time>2015-11-22T14:15:13Z</time>
      </trkpt>
      <trkpt lat="43.35736" lon="2.57872">
        <ele>552.41</ele>
        <time>2015-11-22T14:15:34Z</time>
      </trkpt>
      <trkpt lat="43.35739" lon="2.57903">
        <ele>550.49</ele>
        <time>2015-11-22T14:15:52Z</time>
      </trkpt>
      <trkpt lat="43.35746" lon="2.57929">
        <ele>547.13</ele>
        <time>2015-11-22T14:16:09Z</time>
      </trkpt>
      <trkpt lat="43.35746" lon="2.57948">
        <ele>544.24</ele>
        <time>2015-11-22T14:16:23Z</time>
      </trkpt>
      <trkpt lat="43.35747" lon="2.57955">
        <ele>543.76</ele>
        <time>2015-11-22T14:16:27Z</time>
      </trkpt>
      <trkpt lat="43.35745" lon="2.57979">
        <ele>541.36</ele>
        <time>2015-11-22T14:16:46Z</time>
      </trkpt>
      <trkpt lat="43.35745" lon="2.5798">
        <ele>541.36</ele>
        <time>2015-11-22T14:16:47Z</time>
      </trkpt>
      <trkpt lat="43.35745" lon="2.57996">
        <ele>540.4</ele>
        <time>2015-11-22T14:16:59Z</time>
      </trkpt>
      <trkpt lat="43.35746" lon="2.58027">
        <ele>538.48</ele>
        <time>2015-11-22T14:17:19Z</time>
      </trkpt>
      <trkpt lat="43.35745" lon="2.58053">
        <ele>536.55</ele>
        <time>2015-11-22T14:17:37Z</time>
      </trkpt>
      <trkpt lat="43.35749" lon="2.58075">
        <ele>532.71</ele>
        <time>2015-11-22T14:17:57Z</time>
      </trkpt>
      <trkpt lat="43.35751" lon="2.58081">
        <ele>530.3</ele>
        <time>2015-11-22T14:18:18Z</time>
      </trkpt>
      <trkpt lat="43.35751" lon="2.58098">
        <ele>529.34</ele>
        <time>2015-11-22T14:18:33Z</time>
      </trkpt>
      <trkpt lat="43.35751" lon="2.58101">
        <ele>528.86</ele>
        <time>2015-11-22T14:18:35Z</time>
      </trkpt>
      <trkpt lat="43.35753" lon="2.5813">
        <ele>526.46</ele>
        <time>2015-11-22T14:18:55Z</time>
      </trkpt>
      <trkpt lat="43.35753" lon="2.58159">
        <ele>524.06</ele>
        <time>2015-11-22T14:19:15Z</time>
      </trkpt>
      <trkpt lat="43.35753" lon="2.58163">
        <ele>523.58</ele>
        <time>2015-11-22T14:19:29Z</time>
      </trkpt>
      <trkpt lat="43.35754" lon="2.58163">
        <ele>523.58</ele>
        <time>2015-11-22T14:19:49Z</time>
      </trkpt>
      <trkpt lat="43.35754" lon="2.58161">
        <ele>525.02</ele>
        <time>2015-11-22T14:20:09Z</time>
      </trkpt>
      <trkpt lat="43.35755" lon="2.58159">
        <ele>525.5</ele>
        <time>2015-11-22T14:20:23Z</time>
      </trkpt>
      <trkpt lat="43.35755" lon="2.58159">
        <ele>525.5</ele>
        <time>2015-11-22T14:20:51Z</time>
      </trkpt>
      <trkpt lat="43.35755" lon="2.58159">
        <ele>525.5</ele>
        <time>2015-11-22T14:21:08Z</time>
      </trkpt>
      <trkpt lat="43.35755" lon="2.58159">
        <ele>525.02</ele>
        <time>2015-11-22T14:21:44Z</time>
      </trkpt>
      <trkpt lat="43.35754" lon="2.58159">
        <ele>525.5</ele>
        <time>2015-11-22T14:22:10Z</time>
      </trkpt>
      <trkpt lat="43.35754" lon="2.58159">
        <ele>525.02</ele>
        <time>2015-11-22T14:22:40Z</time>
      </trkpt>
      <trkpt lat="43.35754" lon="2.58159">
        <ele>524.54</ele>
        <time>2015-11-22T14:23:07Z</time>
      </trkpt>
      <trkpt lat="43.35754" lon="2.58158">
        <ele>524.54</ele>
        <time>2015-11-22T14:23:41Z</time>
      </trkpt>
      <trkpt lat="43.35752" lon="2.58166">
        <ele>523.58</ele>
        <time>2015-11-22T14:23:57Z</time>
      </trkpt>
      <trkpt lat="43.3575" lon="2.58192">
        <ele>520.69</ele>
        <time>2015-11-22T14:24:16Z</time>
      </trkpt>
      <trkpt lat="43.3575" lon="2.58205">
        <ele>518.77</ele>
        <time>2015-11-22T14:24:26Z</time>
      </trkpt>
      <trkpt lat="43.3575" lon="2.58234">
        <ele>515.4</ele>
        <time>2015-11-22T14:24:45Z</time>
      </trkpt>
      <trkpt lat="43.35747" lon="2.5827">
        <ele>511.08</ele>
        <time>2015-11-22T14:25:08Z</time>
      </trkpt>
      <trkpt lat="43.35751" lon="2.58294">
        <ele>507.71</ele>
        <time>2015-11-22T14:25:26Z</time>
      </trkpt>
      <trkpt lat="43.35759" lon="2.58308">
        <ele>504.83</ele>
        <time>2015-11-22T14:25:41Z</time>
      </trkpt>
      <trkpt lat="43.35766" lon="2.58328">
        <ele>500.98</ele>
        <time>2015-11-22T14:25:59Z</time>
      </trkpt>
      <trkpt lat="43.35779" lon="2.58344">
        <ele>497.62</ele>
        <time>2015-11-22T14:26:18Z</time>
      </trkpt>
      <trkpt lat="43.35792" lon="2.58357">
        <ele>495.22</ele>
        <time>2015-11-22T14:26:35Z</time>
      </trkpt>
      <trkpt lat="43.35812" lon="2.58369">
        <ele>492.33</ele>
        <time>2015-11-22T14:26:55Z</time>
      </trkpt>
      <trkpt lat="43.3583" lon="2.58376">
        <ele>489.93</ele>
        <time>2015-11-22T14:27:13Z</time>
      </trkpt>
      <trkpt lat="43.35842" lon="2.58384">
        <ele>487.53</ele>
        <time>2015-11-22T14:27:25Z</time>
      </trkpt>
      <trkpt lat="43.35861" lon="2.58396">
        <ele>483.68</ele>
        <time>2015-11-22T14:27:46Z</time>
      </trkpt>
      <trkpt lat="43.35876" lon="2.58406">
        <ele>480.8</ele>
        <time>2015-11-22T14:28:02Z</time>
      </trkpt>
      <trkpt lat="43.35891" lon="2.58412">
        <ele>477.43</ele>
        <time>2015-11-22T14:28:19Z</time>
      </trkpt>
      <trkpt lat="43.35901" lon="2.58415">
        <ele>475.51</ele>
        <time>2015-11-22T14:28:34Z</time>
      </trkpt>
      <trkpt lat="43.35915" lon="2.58425">
        <ele>471.66</ele>
        <time>2015-11-22T14:28:51Z</time>
      </trkpt>
      <trkpt lat="43.35929" lon="2.58434">
        <ele>468.3</ele>
        <time>2015-11-22T14:29:07Z</time>
      </trkpt>
      <trkpt lat="43.35946" lon="2.58443">
        <ele>466.86</ele>
        <time>2015-11-22T14:29:25Z</time>
      </trkpt>
      <trkpt lat="43.35955" lon="2.58453">
        <ele>464.45</ele>
        <time>2015-11-22T14:29:41Z</time>
      </trkpt>
      <trkpt lat="43.35961" lon="2.58466">
        <ele>461.57</ele>
        <time>2015-11-22T14:29:57Z</time>
      </trkpt>
      <trkpt lat="43.35955" lon="2.58475">
        <ele>461.09</ele>
        <time>2015-11-22T14:30:13Z</time>
      </trkpt>
      <trkpt lat="43.35944" lon="2.58486">
        <ele>458.21</ele>
        <time>2015-11-22T14:30:30Z</time>
      </trkpt>
      <trkpt lat="43.35952" lon="2.585">
        <ele>451.96</ele>
        <time>2015-11-22T14:30:48Z</time>
      </trkpt>
      <trkpt lat="43.35963" lon="2.58513">
        <ele>446.67</ele>
        <time>2015-11-22T14:31:04Z</time>
      </trkpt>
      <trkpt lat="43.35971" lon="2.58529">
        <ele>438.02</ele>
        <time>2015-11-22T14:31:24Z</time>
      </trkpt>
      <trkpt lat="43.35969" lon="2.58532">
        <ele>436.1</ele>
        <time>2015-11-22T14:31:29Z</time>
      </trkpt>
      <trkpt lat="43.35958" lon="2.58536">
        <ele>433.21</ele>
        <time>2015-11-22T14:31:46Z</time>
      </trkpt>
      <trkpt lat="43.35954" lon="2.58539">
        <ele>431.77</ele>
        <time>2015-11-22T14:31:59Z</time>
      </trkpt>
      <trkpt lat="43.35945" lon="2.58545">
        <ele>428.4</ele>
        <time>2015-11-22T14:32:17Z</time>
      </trkpt>
      <trkpt lat="43.35936" lon="2.58545">
        <ele>428.89</ele>
        <time>2015-11-22T14:32:33Z</time>
      </trkpt>
      <trkpt lat="43.35934" lon="2.58545">
        <ele>428.4</ele>
        <time>2015-11-22T14:32:52Z</time>
      </trkpt>
      <trkpt lat="43.35933" lon="2.58546">
        <ele>428.4</ele>
        <time>2015-11-22T14:33:16Z</time>
      </trkpt>
      <trkpt lat="43.35933" lon="2.58545">
        <ele>428.4</ele>
        <time>2015-11-22T14:33:40Z</time>
      </trkpt>
      <trkpt lat="43.35933" lon="2.58545">
        <ele>428.4</ele>
        <time>2015-11-22T14:34:06Z</time>
      </trkpt>
      <trkpt lat="43.35933" lon="2.58546">
        <ele>427.92</ele>
        <time>2015-11-22T14:34:33Z</time>
      </trkpt>
      <trkpt lat="43.35928" lon="2.58546">
        <ele>428.4</ele>
        <time>2015-11-22T14:34:47Z</time>
      </trkpt>
      <trkpt lat="43.35922" lon="2.58545">
        <ele>426.96</ele>
        <time>2015-11-22T14:35:03Z</time>
      </trkpt>
      <trkpt lat="43.35908" lon="2.58543">
        <ele>426</ele>
        <time>2015-11-22T14:35:18Z</time>
      </trkpt>
      <trkpt lat="43.35899" lon="2.58543">
        <ele>425.52</ele>
        <time>2015-11-22T14:35:34Z</time>
      </trkpt>
      <trkpt lat="43.35881" lon="2.58546">
        <ele>423.6</ele>
        <time>2015-11-22T14:35:52Z</time>
      </trkpt>
      <trkpt lat="43.35862" lon="2.5855">
        <ele>422.64</ele>
        <time>2015-11-22T14:36:10Z</time>
      </trkpt>
      <trkpt lat="43.35843" lon="2.58553">
        <ele>421.68</ele>
        <time>2015-11-22T14:36:28Z</time>
      </trkpt>
      <trkpt lat="43.35833" lon="2.58556">
        <ele>419.27</ele>
        <time>2015-11-22T14:36:41Z</time>
      </trkpt>
      <trkpt lat="43.35834" lon="2.58556">
        <ele>419.27</ele>
        <time>2015-11-22T14:36:42Z</time>
      </trkpt>
      <trkpt lat="43.35843" lon="2.58563">
        <ele>417.35</ele>
        <time>2015-11-22T14:36:52Z</time>
      </trkpt>
      <trkpt lat="43.35863" lon="2.58573">
        <ele>414.95</ele>
        <time>2015-11-22T14:37:10Z</time>
      </trkpt>
      <trkpt lat="43.35887" lon="2.5858">
        <ele>412.54</ele>
        <time>2015-11-22T14:37:30Z</time>
      </trkpt>
      <trkpt lat="43.3591" lon="2.58593">
        <ele>409.66</ele>
        <time>2015-11-22T14:37:51Z</time>
      </trkpt>
      <trkpt lat="43.35931" lon="2.58614">
        <ele>406.29</ele>
        <time>2015-11-22T14:38:11Z</time>
      </trkpt>
      <trkpt lat="43.3593" lon="2.58645">
        <ele>407.74</ele>
        <time>2015-11-22T14:38:29Z</time>
      </trkpt>
      <trkpt lat="43.35937" lon="2.58677">
        <ele>409.18</ele>
        <time>2015-11-22T14:38:50Z</time>
      </trkpt>
      <trkpt lat="43.35945" lon="2.58713">
        <ele>411.1</ele>
        <time>2015-11-22T14:39:12Z</time>
      </trkpt>
      <trkpt lat="43.35951" lon="2.58744">
        <ele>410.14</ele>
        <time>2015-11-22T14:39:32Z</time>
      </trkpt>
      <trkpt lat="43.35962" lon="2.58777">
        <ele>408.22</ele>
        <time>2015-11-22T14:39:53Z</time>
      </trkpt>
      <trkpt lat="43.35969" lon="2.588">
        <ele>408.22</ele>
        <time>2015-11-22T14:40:11Z</time>
      </trkpt>
      <trkpt lat="43.3597" lon="2.58802">
        <ele>408.7</ele>
        <time>2015-11-22T14:40:12Z</time>
      </trkpt>
      <trkpt lat="43.35976" lon="2.58824">
        <ele>408.22</ele>
        <time>2015-11-22T14:40:30Z</time>
      </trkpt>
      <trkpt lat="43.35986" lon="2.58838">
        <ele>405.81</ele>
        <time>2015-11-22T14:40:49Z</time>
      </trkpt>
      <trkpt lat="43.36001" lon="2.5886">
        <ele>403.41</ele>
        <time>2015-11-22T14:41:10Z</time>
      </trkpt>
      <trkpt lat="43.3602" lon="2.58885">
        <ele>400.53</ele>
        <time>2015-11-22T14:41:32Z</time>
      </trkpt>
      <trkpt lat="43.36035" lon="2.58907">
        <ele>399.08</ele>
        <time>2015-11-22T14:41:51Z</time>
      </trkpt>
      <trkpt lat="43.36048" lon="2.58934">
        <ele>395.72</ele>
        <time>2015-11-22T14:42:11Z</time>
      </trkpt>
      <trkpt lat="43.36058" lon="2.58955">
        <ele>393.32</ele>
        <time>2015-11-22T14:42:29Z</time>
      </trkpt>
      <trkpt lat="43.36059" lon="2.58956">
        <ele>392.36</ele>
        <time>2015-11-22T14:42:42Z</time>
      </trkpt>
      <trkpt lat="43.3606" lon="2.58957">
        <ele>392.36</ele>
        <time>2015-11-22T14:43:06Z</time>
      </trkpt>
      <trkpt lat="43.36061" lon="2.58957">
        <ele>391.87</ele>
        <time>2015-11-22T14:43:07Z</time>
      </trkpt>
      <trkpt lat="43.3607" lon="2.58962">
        <ele>389.95</ele>
        <time>2015-11-22T14:43:13Z</time>
      </trkpt>
      <trkpt lat="43.36091" lon="2.5898">
        <ele>383.22</ele>
        <time>2015-11-22T14:43:32Z</time>
      </trkpt>
      <trkpt lat="43.36092" lon="2.58981">
        <ele>382.74</ele>
        <time>2015-11-22T14:43:33Z</time>
      </trkpt>
      <trkpt lat="43.36097" lon="2.58985">
        <ele>380.82</ele>
        <time>2015-11-22T14:43:37Z</time>
      </trkpt>
      <trkpt lat="43.36098" lon="2.58987">
        <ele>379.86</ele>
        <time>2015-11-22T14:43:39Z</time>
      </trkpt>
      <trkpt lat="43.36089" lon="2.59007">
        <ele>376.97</ele>
        <time>2015-11-22T14:43:52Z</time>
      </trkpt>
      <trkpt lat="43.3608" lon="2.59028">
        <ele>376.49</ele>
        <time>2015-11-22T14:44:05Z</time>
      </trkpt>
      <trkpt lat="43.3608" lon="2.59048">
        <ele>377.45</ele>
        <time>2015-11-22T14:44:17Z</time>
      </trkpt>
      <trkpt lat="43.36079" lon="2.59067">
        <ele>373.13</ele>
        <time>2015-11-22T14:44:31Z</time>
      </trkpt>
      <trkpt lat="43.36079" lon="2.59084">
        <ele>369.76</ele>
        <time>2015-11-22T14:44:43Z</time>
      </trkpt>
      <trkpt lat="43.36083" lon="2.59081">
        <ele>366.88</ele>
        <time>2015-11-22T14:44:51Z</time>
      </trkpt>
      <trkpt lat="43.36093" lon="2.59071">
        <ele>365.92</ele>
        <time>2015-11-22T14:45:05Z</time>
      </trkpt>
      <trkpt lat="43.36107" lon="2.59068">
        <ele>367.84</ele>
        <time>2015-11-22T14:45:20Z</time>
      </trkpt>
      <trkpt lat="43.36111" lon="2.59069">
        <ele>368.32</ele>
        <time>2015-11-22T14:45:23Z</time>
      </trkpt>
      <trkpt lat="43.36122" lon="2.59075">
        <ele>367.84</ele>
        <time>2015-11-22T14:45:33Z</time>
      </trkpt>
      <trkpt lat="43.36132" lon="2.59079">
        <ele>365.92</ele>
        <time>2015-11-22T14:45:39Z</time>
      </trkpt>
      <trkpt lat="43.36152" lon="2.59092">
        <ele>358.23</ele>
        <time>2015-11-22T14:45:58Z</time>
      </trkpt>
      <trkpt lat="43.36161" lon="2.59104">
        <ele>352.94</ele>
        <time>2015-11-22T14:46:10Z</time>
      </trkpt>
      <trkpt lat="43.3618" lon="2.59126">
        <ele>348.13</ele>
        <time>2015-11-22T14:46:30Z</time>
      </trkpt>
      <trkpt lat="43.36189" lon="2.5915">
        <ele>345.25</ele>
        <time>2015-11-22T14:46:49Z</time>
      </trkpt>
      <trkpt lat="43.36208" lon="2.59153">
        <ele>343.33</ele>
        <time>2015-11-22T14:47:06Z</time>
      </trkpt>
      <trkpt lat="43.36228" lon="2.59146">
        <ele>345.73</ele>
        <time>2015-11-22T14:47:24Z</time>
      </trkpt>
      <trkpt lat="43.36249" lon="2.59133">
        <ele>346.69</ele>
        <time>2015-11-22T14:47:44Z</time>
      </trkpt>
      <trkpt lat="43.36262" lon="2.59121">
        <ele>344.29</ele>
        <time>2015-11-22T14:48:00Z</time>
      </trkpt>
      <trkpt lat="43.36267" lon="2.5913">
        <ele>340.44</ele>
        <time>2015-11-22T14:48:10Z</time>
      </trkpt>
      <trkpt lat="43.36264" lon="2.59151">
        <ele>337.08</ele>
        <time>2015-11-22T14:48:27Z</time>
      </trkpt>
      <trkpt lat="43.36264" lon="2.59153">
        <ele>337.08</ele>
        <time>2015-11-22T14:48:29Z</time>
      </trkpt>
      <trkpt lat="43.36268" lon="2.59163">
        <ele>335.64</ele>
        <time>2015-11-22T14:48:37Z</time>
      </trkpt>
      <trkpt lat="43.36282" lon="2.5914">
        <ele>334.2</ele>
        <time>2015-11-22T14:48:59Z</time>
      </trkpt>
      <trkpt lat="43.36295" lon="2.59116">
        <ele>335.64</ele>
        <time>2015-11-22T14:49:16Z</time>
      </trkpt>
      <trkpt lat="43.36304" lon="2.591">
        <ele>339.96</ele>
        <time>2015-11-22T14:49:33Z</time>
      </trkpt>
      <trkpt lat="43.36305" lon="2.59099">
        <ele>338.04</ele>
        <time>2015-11-22T14:49:44Z</time>
      </trkpt>
    </trkseg>
  </trk>
</gpx>